<?xml version='1.0' encoding='UTF-8'?><gpx version="1.1" creator="JPX - https://github.com/jenetics/jpx" xmlns="http://www.topografix.com/GPX/1/1"><trk><trkseg><trkpt lat="9.9914779" lon="-84.1704978"><ele>990.0</ele><time>2026-04-09T21:34:07.035Z</time></trkpt><trkpt lat="9.991421" lon="-84.1704581"><ele>990.0</ele><time>2026-04-09T21:34:08.035Z</time></trkpt><trkpt lat="9.9913354" lon="-84.1704679"><ele>990.0</ele><time>2026-04-09T21:34:11.035Z</time></trkpt><trkpt lat="9.9912617" lon="-84.1705299"><ele>990.0</ele><time>2026-04-09T21:34:18.034Z</time></trkpt><trkpt lat="9.9911375" lon="-84.1704815"><ele>990.0</ele><time>2026-04-09T21:34:26.035Z</time></trkpt><trkpt lat="9.9906125" lon="-84.170323"><ele>989.1666666666666</ele><time>2026-04-09T21:34:34.035Z</time></trkpt><trkpt lat="9.9907315" lon="-84.1701931"><ele>988.3333333333333</ele><time>2026-04-09T21:34:40.035Z</time></trkpt><trkpt lat="9.9907114" lon="-84.1701295"><ele>987.5</ele><time>2026-04-09T21:34:46.035Z</time></trkpt><trkpt lat="9.990712" lon="-84.1700644"><ele>986.6666666666666</ele><time>2026-04-09T21:34:58.035Z</time></trkpt><trkpt lat="9.9907807" lon="-84.1700498"><ele>985.8333333333333</ele><time>2026-04-09T21:35:25.035Z</time></trkpt><trkpt lat="9.9908238" lon="-84.1700024"><ele>985.0</ele><time>2026-04-09T21:35:32.035Z</time></trkpt><trkpt lat="9.9908023" lon="-84.1699416"><ele>985.0</ele><time>2026-04-09T21:35:40.035Z</time></trkpt><trkpt lat="9.990736" lon="-84.1699118"><ele>985.0</ele><time>2026-04-09T21:36:11.035Z</time></trkpt><trkpt lat="9.9906672" lon="-84.1698855"><ele>985.0</ele><time>2026-04-09T21:36:17.035Z</time></trkpt><trkpt lat="9.9906256" lon="-84.1698058"><ele>985.0</ele><time>2026-04-09T21:36:19.034Z</time></trkpt><trkpt lat="9.9906457" lon="-84.1696952"><ele>985.0</ele><time>2026-04-09T21:36:21.035Z</time></trkpt><trkpt lat="9.990685" lon="-84.1695772"><ele>985.1666666666666</ele><time>2026-04-09T21:36:23.034Z</time></trkpt><trkpt lat="9.9907083" lon="-84.1695056"><ele>985.3333333333333</ele><time>2026-04-09T21:36:24.036Z</time></trkpt><trkpt lat="9.9907291" lon="-84.169433"><ele>985.5</ele><time>2026-04-09T21:36:25.035Z</time></trkpt><trkpt lat="9.9907601" lon="-84.1693459"><ele>985.6666666666667</ele><time>2026-04-09T21:36:26.035Z</time></trkpt><trkpt lat="9.9907872" lon="-84.1692536"><ele>985.8333333333334</ele><time>2026-04-09T21:36:27.034Z</time></trkpt><trkpt lat="9.9908236" lon="-84.1691521"><ele>986.0</ele><time>2026-04-09T21:36:28.035Z</time></trkpt><trkpt lat="9.9908604" lon="-84.1690441"><ele>987.25</ele><time>2026-04-09T21:36:29.035Z</time></trkpt><trkpt lat="9.9908951" lon="-84.1689326"><ele>988.5</ele><time>2026-04-09T21:36:30.035Z</time></trkpt><trkpt lat="9.9909319" lon="-84.1688205"><ele>989.75</ele><time>2026-04-09T21:36:31.035Z</time></trkpt><trkpt lat="9.990973" lon="-84.1686989"><ele>991.0</ele><time>2026-04-09T21:36:32.035Z</time></trkpt><trkpt lat="9.9910146" lon="-84.1685772"><ele>991.0</ele><time>2026-04-09T21:36:33.034Z</time></trkpt><trkpt lat="9.9910551" lon="-84.1684542"><ele>991.0</ele><time>2026-04-09T21:36:34.035Z</time></trkpt><trkpt lat="9.9910964" lon="-84.1683292"><ele>991.0</ele><time>2026-04-09T21:36:35.034Z</time></trkpt><trkpt lat="9.9911391" lon="-84.1682022"><ele>991.0</ele><time>2026-04-09T21:36:36.035Z</time></trkpt><trkpt lat="9.9911856" lon="-84.1680719"><ele>991.0</ele><time>2026-04-09T21:36:37.035Z</time></trkpt><trkpt lat="9.9912297" lon="-84.1679449"><ele>991.0</ele><time>2026-04-09T21:36:38.035Z</time></trkpt><trkpt lat="9.9912732" lon="-84.1678216"><ele>991.0</ele><time>2026-04-09T21:36:39.035Z</time></trkpt><trkpt lat="9.9913125" lon="-84.1677061"><ele>991.0</ele><time>2026-04-09T21:36:40.035Z</time></trkpt><trkpt lat="9.9913479" lon="-84.167602"><ele>991.0</ele><time>2026-04-09T21:36:41.035Z</time></trkpt><trkpt lat="9.9913821" lon="-84.1674926"><ele>990.9999999999999</ele><time>2026-04-09T21:36:42.035Z</time></trkpt><trkpt lat="9.9914163" lon="-84.1673884"><ele>990.9999999999999</ele><time>2026-04-09T21:36:43.035Z</time></trkpt><trkpt lat="9.9914479" lon="-84.1672945"><ele>991.0</ele><time>2026-04-09T21:36:44.035Z</time></trkpt><trkpt lat="9.9914751" lon="-84.1672033"><ele>991.0</ele><time>2026-04-09T21:36:45.035Z</time></trkpt><trkpt lat="9.9915081" lon="-84.1671135"><ele>990.4999999999999</ele><time>2026-04-09T21:36:46.035Z</time></trkpt><trkpt lat="9.9915391" lon="-84.1670223"><ele>990.0</ele><time>2026-04-09T21:36:47.034Z</time></trkpt><trkpt lat="9.9915646" lon="-84.1669378"><ele>989.5</ele><time>2026-04-09T21:36:48.034Z</time></trkpt><trkpt lat="9.9915931" lon="-84.1668579"><ele>989.0</ele><time>2026-04-09T21:36:49.034Z</time></trkpt><trkpt lat="9.9916181" lon="-84.1667856"><ele>988.4999999999999</ele><time>2026-04-09T21:36:50.034Z</time></trkpt><trkpt lat="9.9916386" lon="-84.1667213"><ele>988.0</ele><time>2026-04-09T21:36:51.035Z</time></trkpt><trkpt lat="9.9916534" lon="-84.16661"><ele>986.75</ele><time>2026-04-09T21:36:53.035Z</time></trkpt><trkpt lat="9.9915626" lon="-84.1665165"><ele>985.5</ele><time>2026-04-09T21:36:55.035Z</time></trkpt><trkpt lat="9.9914753" lon="-84.1664794"><ele>984.25</ele><time>2026-04-09T21:36:56.035Z</time></trkpt><trkpt lat="9.9913753" lon="-84.1664413"><ele>983.0</ele><time>2026-04-09T21:36:57.035Z</time></trkpt><trkpt lat="9.9912596" lon="-84.1663909"><ele>983.0</ele><time>2026-04-09T21:36:58.036Z</time></trkpt><trkpt lat="9.9911354" lon="-84.1663295"><ele>983.0</ele><time>2026-04-09T21:36:59.035Z</time></trkpt><trkpt lat="9.9910092" lon="-84.1662642"><ele>983.0</ele><time>2026-04-09T21:37:00.035Z</time></trkpt><trkpt lat="9.9908728" lon="-84.1661959"><ele>983.0</ele><time>2026-04-09T21:37:01.035Z</time></trkpt><trkpt lat="9.9907376" lon="-84.1661274"><ele>982.0</ele><time>2026-04-09T21:37:02.035Z</time></trkpt><trkpt lat="9.9906018" lon="-84.1660666"><ele>981.0</ele><time>2026-04-09T21:37:03.035Z</time></trkpt><trkpt lat="9.9904577" lon="-84.1660064"><ele>980.0</ele><time>2026-04-09T21:37:04.034Z</time></trkpt><trkpt lat="9.9903096" lon="-84.1659431"><ele>980.0</ele><time>2026-04-09T21:37:05.035Z</time></trkpt><trkpt lat="9.9901539" lon="-84.1658756"><ele>980.0</ele><time>2026-04-09T21:37:06.034Z</time></trkpt><trkpt lat="9.9899867" lon="-84.1658084"><ele>980.0</ele><time>2026-04-09T21:37:07.035Z</time></trkpt><trkpt lat="9.9898213" lon="-84.1657391"><ele>977.6666666666667</ele><time>2026-04-09T21:37:08.035Z</time></trkpt><trkpt lat="9.9896487" lon="-84.1656712"><ele>975.3333333333333</ele><time>2026-04-09T21:37:09.034Z</time></trkpt><trkpt lat="9.9894765" lon="-84.1656067"><ele>973.0</ele><time>2026-04-09T21:37:10.034Z</time></trkpt><trkpt lat="9.9893058" lon="-84.1655441"><ele>973.0</ele><time>2026-04-09T21:37:11.035Z</time></trkpt><trkpt lat="9.989141" lon="-84.1654823"><ele>973.0</ele><time>2026-04-09T21:37:12.035Z</time></trkpt><trkpt lat="9.9889848" lon="-84.1654223"><ele>973.0</ele><time>2026-04-09T21:37:13.035Z</time></trkpt><trkpt lat="9.9888379" lon="-84.1653661"><ele>973.0</ele><time>2026-04-09T21:37:14.035Z</time></trkpt><trkpt lat="9.9886908" lon="-84.1653118"><ele>973.0</ele><time>2026-04-09T21:37:15.035Z</time></trkpt><trkpt lat="9.9885442" lon="-84.1652579"><ele>973.0</ele><time>2026-04-09T21:37:16.035Z</time></trkpt><trkpt lat="9.988394" lon="-84.1651996"><ele>972.6666666666666</ele><time>2026-04-09T21:37:17.035Z</time></trkpt><trkpt lat="9.9882345" lon="-84.1651374"><ele>972.3333333333333</ele><time>2026-04-09T21:37:18.035Z</time></trkpt><trkpt lat="9.9880759" lon="-84.1650774"><ele>972.0</ele><time>2026-04-09T21:37:19.034Z</time></trkpt><trkpt lat="9.9879164" lon="-84.1650171"><ele>972.0</ele><time>2026-04-09T21:37:20.035Z</time></trkpt><trkpt lat="9.9877488" lon="-84.164955"><ele>972.0</ele><time>2026-04-09T21:37:21.035Z</time></trkpt><trkpt lat="9.9875861" lon="-84.1648942"><ele>972.0</ele><time>2026-04-09T21:37:22.034Z</time></trkpt><trkpt lat="9.9874344" lon="-84.1648339"><ele>973.0</ele><time>2026-04-09T21:37:23.035Z</time></trkpt><trkpt lat="9.9872876" lon="-84.1647782"><ele>974.0</ele><time>2026-04-09T21:37:24.033Z</time></trkpt><trkpt lat="9.98714" lon="-84.16472"><ele>975.0</ele><time>2026-04-09T21:37:25.035Z</time></trkpt><trkpt lat="9.9869836" lon="-84.1646661"><ele>975.0</ele><time>2026-04-09T21:37:26.035Z</time></trkpt><trkpt lat="9.9868291" lon="-84.1646125"><ele>975.0</ele><time>2026-04-09T21:37:27.035Z</time></trkpt><trkpt lat="9.9866749" lon="-84.1645541"><ele>975.0</ele><time>2026-04-09T21:37:28.035Z</time></trkpt><trkpt lat="9.9865145" lon="-84.1644948"><ele>975.3333333333333</ele><time>2026-04-09T21:37:29.035Z</time></trkpt><trkpt lat="9.9863552" lon="-84.1644401"><ele>975.6666666666666</ele><time>2026-04-09T21:37:30.034Z</time></trkpt><trkpt lat="9.9861941" lon="-84.1643806"><ele>976.0</ele><time>2026-04-09T21:37:31.035Z</time></trkpt><trkpt lat="9.9860323" lon="-84.1643244"><ele>976.0</ele><time>2026-04-09T21:37:32.033Z</time></trkpt><trkpt lat="9.9858723" lon="-84.1642639"><ele>976.0</ele><time>2026-04-09T21:37:33.035Z</time></trkpt><trkpt lat="9.9857069" lon="-84.1641986"><ele>976.0</ele><time>2026-04-09T21:37:34.034Z</time></trkpt><trkpt lat="9.9855371" lon="-84.1641355"><ele>978.0</ele><time>2026-04-09T21:37:35.034Z</time></trkpt><trkpt lat="9.9853657" lon="-84.164071"><ele>980.0</ele><time>2026-04-09T21:37:36.035Z</time></trkpt><trkpt lat="9.9851938" lon="-84.1640057"><ele>982.0</ele><time>2026-04-09T21:37:37.034Z</time></trkpt><trkpt lat="9.9850203" lon="-84.1639426"><ele>983.0</ele><time>2026-04-09T21:37:38.034Z</time></trkpt><trkpt lat="9.9848432" lon="-84.1638782"><ele>984.0</ele><time>2026-04-09T21:37:39.035Z</time></trkpt><trkpt lat="9.9846627" lon="-84.1638106"><ele>985.0</ele><time>2026-04-09T21:37:40.035Z</time></trkpt><trkpt lat="9.9844868" lon="-84.1637491"><ele>985.0</ele><time>2026-04-09T21:37:41.035Z</time></trkpt><trkpt lat="9.9843138" lon="-84.1636827"><ele>985.0</ele><time>2026-04-09T21:37:42.035Z</time></trkpt><trkpt lat="9.9841409" lon="-84.1636182"><ele>985.0</ele><time>2026-04-09T21:37:43.035Z</time></trkpt><trkpt lat="9.9839693" lon="-84.1635556"><ele>986.3333333333333</ele><time>2026-04-09T21:37:44.035Z</time></trkpt><trkpt lat="9.9837992" lon="-84.1634891"><ele>987.6666666666667</ele><time>2026-04-09T21:37:45.033Z</time></trkpt><trkpt lat="9.98363" lon="-84.1634243"><ele>989.0</ele><time>2026-04-09T21:37:46.034Z</time></trkpt><trkpt lat="9.9834735" lon="-84.1633632"><ele>990.3333333333334</ele><time>2026-04-09T21:37:47.035Z</time></trkpt><trkpt lat="9.9833151" lon="-84.1633058"><ele>991.6666666666667</ele><time>2026-04-09T21:37:48.035Z</time></trkpt><trkpt lat="9.9831551" lon="-84.1632494"><ele>993.0</ele><time>2026-04-09T21:37:49.035Z</time></trkpt><trkpt lat="9.9829964" lon="-84.1631965"><ele>994.3333333333333</ele><time>2026-04-09T21:37:50.035Z</time></trkpt><trkpt lat="9.9828466" lon="-84.1631442"><ele>995.6666666666666</ele><time>2026-04-09T21:37:51.034Z</time></trkpt><trkpt lat="9.9827114" lon="-84.1630877"><ele>997.0</ele><time>2026-04-09T21:37:52.035Z</time></trkpt><trkpt lat="9.9825759" lon="-84.1630282"><ele>997.5</ele><time>2026-04-09T21:37:53.034Z</time></trkpt><trkpt lat="9.9824489" lon="-84.1629619"><ele>998.0</ele><time>2026-04-09T21:37:54.034Z</time></trkpt><trkpt lat="9.9823322" lon="-84.1629002"><ele>998.5</ele><time>2026-04-09T21:37:55.035Z</time></trkpt><trkpt lat="9.982226" lon="-84.1628472"><ele>999.0</ele><time>2026-04-09T21:37:56.035Z</time></trkpt><trkpt lat="9.9821268" lon="-84.1627959"><ele>999.0</ele><time>2026-04-09T21:37:57.034Z</time></trkpt><trkpt lat="9.9820278" lon="-84.1627414"><ele>999.0000000000001</ele><time>2026-04-09T21:37:58.035Z</time></trkpt><trkpt lat="9.9819512" lon="-84.1626954"><ele>999.0000000000001</ele><time>2026-04-09T21:37:59.034Z</time></trkpt><trkpt lat="9.9818739" lon="-84.1626533"><ele>999.0</ele><time>2026-04-09T21:38:00.034Z</time></trkpt><trkpt lat="9.9818092" lon="-84.1626071"><ele>999.0</ele><time>2026-04-09T21:38:01.034Z</time></trkpt><trkpt lat="9.9817361" lon="-84.1625575"><ele>999.2857142857143</ele><time>2026-04-09T21:38:02.035Z</time></trkpt><trkpt lat="9.9816724" lon="-84.1625222"><ele>999.5714285714287</ele><time>2026-04-09T21:38:03.035Z</time></trkpt><trkpt lat="9.9816159" lon="-84.1624907"><ele>999.8571428571429</ele><time>2026-04-09T21:38:04.035Z</time></trkpt><trkpt lat="9.9815613" lon="-84.1624486"><ele>1000.1428571428571</ele><time>2026-04-09T21:38:05.033Z</time></trkpt><trkpt lat="9.9815017" lon="-84.1624059"><ele>1000.4285714285714</ele><time>2026-04-09T21:38:06.034Z</time></trkpt><trkpt lat="9.9814392" lon="-84.1623613"><ele>1000.7142857142858</ele><time>2026-04-09T21:38:07.035Z</time></trkpt><trkpt lat="9.9813748" lon="-84.1623096"><ele>1001.0</ele><time>2026-04-09T21:38:08.034Z</time></trkpt><trkpt lat="9.9813161" lon="-84.162273"><ele>1001.1666666666667</ele><time>2026-04-09T21:38:09.035Z</time></trkpt><trkpt lat="9.981261" lon="-84.1622341"><ele>1001.3333333333334</ele><time>2026-04-09T21:38:10.035Z</time></trkpt><trkpt lat="9.9811997" lon="-84.1621886"><ele>1001.5</ele><time>2026-04-09T21:38:11.035Z</time></trkpt><trkpt lat="9.9811347" lon="-84.1621386"><ele>1001.6666666666667</ele><time>2026-04-09T21:38:12.034Z</time></trkpt><trkpt lat="9.9810594" lon="-84.1620818"><ele>1001.8333333333334</ele><time>2026-04-09T21:38:13.038Z</time></trkpt><trkpt lat="9.9809816" lon="-84.1620156"><ele>1002.0</ele><time>2026-04-09T21:38:14.035Z</time></trkpt><trkpt lat="9.9808972" lon="-84.161951"><ele>1000.0</ele><time>2026-04-09T21:38:15.035Z</time></trkpt><trkpt lat="9.9808256" lon="-84.1618937"><ele>998.0</ele><time>2026-04-09T21:38:16.034Z</time></trkpt><trkpt lat="9.9807483" lon="-84.1618424"><ele>996.0</ele><time>2026-04-09T21:38:17.034Z</time></trkpt><trkpt lat="9.9806661" lon="-84.1617883"><ele>994.0</ele><time>2026-04-09T21:38:18.035Z</time></trkpt><trkpt lat="9.9805947" lon="-84.1617382"><ele>992.0</ele><time>2026-04-09T21:38:19.034Z</time></trkpt><trkpt lat="9.9805208" lon="-84.1616862"><ele>992.0</ele><time>2026-04-09T21:38:20.035Z</time></trkpt><trkpt lat="9.9804498" lon="-84.1616393"><ele>992.0</ele><time>2026-04-09T21:38:21.035Z</time></trkpt><trkpt lat="9.9803748" lon="-84.1615876"><ele>992.0</ele><time>2026-04-09T21:38:22.033Z</time></trkpt><trkpt lat="9.9803011" lon="-84.1615268"><ele>992.0</ele><time>2026-04-09T21:38:23.035Z</time></trkpt><trkpt lat="9.9802175" lon="-84.1614366"><ele>992.0</ele><time>2026-04-09T21:38:24.035Z</time></trkpt><trkpt lat="9.9801396" lon="-84.1613583"><ele>991.6</ele><time>2026-04-09T21:38:25.034Z</time></trkpt><trkpt lat="9.9800668" lon="-84.161282"><ele>991.2</ele><time>2026-04-09T21:38:26.035Z</time></trkpt><trkpt lat="9.9800053" lon="-84.1611996"><ele>990.8</ele><time>2026-04-09T21:38:27.035Z</time></trkpt><trkpt lat="9.9799481" lon="-84.1611143"><ele>990.4</ele><time>2026-04-09T21:38:28.034Z</time></trkpt><trkpt lat="9.979891" lon="-84.1610234"><ele>990.0</ele><time>2026-04-09T21:38:29.035Z</time></trkpt><trkpt lat="9.9798302" lon="-84.1609267"><ele>990.0</ele><time>2026-04-09T21:38:30.034Z</time></trkpt><trkpt lat="9.9797741" lon="-84.1608304"><ele>990.0</ele><time>2026-04-09T21:38:31.035Z</time></trkpt><trkpt lat="9.9797186" lon="-84.160735"><ele>990.0</ele><time>2026-04-09T21:38:32.034Z</time></trkpt><trkpt lat="9.9796654" lon="-84.1606449"><ele>990.0</ele><time>2026-04-09T21:38:33.034Z</time></trkpt><trkpt lat="9.9796143" lon="-84.1605553"><ele>990.0</ele><time>2026-04-09T21:38:34.034Z</time></trkpt><trkpt lat="9.9795686" lon="-84.1604722"><ele>990.3333333333334</ele><time>2026-04-09T21:38:35.035Z</time></trkpt><trkpt lat="9.9795183" lon="-84.1603873"><ele>990.6666666666667</ele><time>2026-04-09T21:38:36.034Z</time></trkpt><trkpt lat="9.9794727" lon="-84.1603082"><ele>991.0</ele><time>2026-04-09T21:38:37.035Z</time></trkpt><trkpt lat="9.9794337" lon="-84.1602326"><ele>991.3333333333334</ele><time>2026-04-09T21:38:38.035Z</time></trkpt><trkpt lat="9.9793968" lon="-84.1601586"><ele>991.6666666666667</ele><time>2026-04-09T21:38:39.034Z</time></trkpt><trkpt lat="9.9793543" lon="-84.1600852"><ele>992.0</ele><time>2026-04-09T21:38:40.035Z</time></trkpt><trkpt lat="9.9793124" lon="-84.1600155"><ele>992.0</ele><time>2026-04-09T21:38:41.035Z</time></trkpt><trkpt lat="9.9792789" lon="-84.1599608"><ele>992.0</ele><time>2026-04-09T21:38:42.034Z</time></trkpt><trkpt lat="9.9792282" lon="-84.1598781"><ele>992.0</ele><time>2026-04-09T21:38:44.035Z</time></trkpt><trkpt lat="9.9791597" lon="-84.159761"><ele>992.0</ele><time>2026-04-09T21:38:46.033Z</time></trkpt><trkpt lat="9.9791148" lon="-84.1596872"><ele>992.0</ele><time>2026-04-09T21:38:47.034Z</time></trkpt><trkpt lat="9.9790649" lon="-84.1596017"><ele>990.2</ele><time>2026-04-09T21:38:48.034Z</time></trkpt><trkpt lat="9.979014" lon="-84.1595081"><ele>988.4000000000001</ele><time>2026-04-09T21:38:49.033Z</time></trkpt><trkpt lat="9.9789606" lon="-84.1594074"><ele>986.5999999999999</ele><time>2026-04-09T21:38:50.035Z</time></trkpt><trkpt lat="9.978903" lon="-84.1593035"><ele>984.8</ele><time>2026-04-09T21:38:51.034Z</time></trkpt><trkpt lat="9.9788482" lon="-84.1592066"><ele>983.0</ele><time>2026-04-09T21:38:52.034Z</time></trkpt><trkpt lat="9.9787954" lon="-84.1591087"><ele>983.5999999999999</ele><time>2026-04-09T21:38:53.033Z</time></trkpt><trkpt lat="9.978739" lon="-84.1590141"><ele>984.1999999999999</ele><time>2026-04-09T21:38:54.034Z</time></trkpt><trkpt lat="9.9786873" lon="-84.158921"><ele>984.8</ele><time>2026-04-09T21:38:55.034Z</time></trkpt><trkpt lat="9.9786332" lon="-84.15883"><ele>985.4</ele><time>2026-04-09T21:38:56.035Z</time></trkpt><trkpt lat="9.9785849" lon="-84.1587402"><ele>986.0</ele><time>2026-04-09T21:38:57.034Z</time></trkpt><trkpt lat="9.9785303" lon="-84.1586441"><ele>986.0</ele><time>2026-04-09T21:38:58.033Z</time></trkpt><trkpt lat="9.9784736" lon="-84.1585344"><ele>986.0</ele><time>2026-04-09T21:38:59.035Z</time></trkpt><trkpt lat="9.9784184" lon="-84.1584155"><ele>986.0</ele><time>2026-04-09T21:39:00.034Z</time></trkpt><trkpt lat="9.9783564" lon="-84.1582854"><ele>986.0</ele><time>2026-04-09T21:39:01.035Z</time></trkpt><trkpt lat="9.9782839" lon="-84.1581503"><ele>985.6666666666667</ele><time>2026-04-09T21:39:02.035Z</time></trkpt><trkpt lat="9.9782064" lon="-84.1580121"><ele>985.3333333333333</ele><time>2026-04-09T21:39:03.035Z</time></trkpt><trkpt lat="9.9781324" lon="-84.1578727"><ele>985.0</ele><time>2026-04-09T21:39:04.035Z</time></trkpt><trkpt lat="9.9780577" lon="-84.1577414"><ele>985.0</ele><time>2026-04-09T21:39:05.035Z</time></trkpt><trkpt lat="9.9779849" lon="-84.1576132"><ele>985.0</ele><time>2026-04-09T21:39:06.033Z</time></trkpt><trkpt lat="9.9779125" lon="-84.1574829"><ele>985.0</ele><time>2026-04-09T21:39:07.035Z</time></trkpt><trkpt lat="9.9778363" lon="-84.1573579"><ele>985.0</ele><time>2026-04-09T21:39:08.033Z</time></trkpt><trkpt lat="9.9777627" lon="-84.1572383"><ele>984.25</ele><time>2026-04-09T21:39:09.035Z</time></trkpt><trkpt lat="9.9776941" lon="-84.1571167"><ele>983.5</ele><time>2026-04-09T21:39:10.035Z</time></trkpt><trkpt lat="9.9776275" lon="-84.1569988"><ele>982.75</ele><time>2026-04-09T21:39:11.035Z</time></trkpt><trkpt lat="9.9775623" lon="-84.1568893"><ele>982.0</ele><time>2026-04-09T21:39:12.035Z</time></trkpt><trkpt lat="9.9774984" lon="-84.1567704"><ele>982.0</ele><time>2026-04-09T21:39:13.034Z</time></trkpt><trkpt lat="9.9774481" lon="-84.1566748"><ele>982.0</ele><time>2026-04-09T21:39:14.034Z</time></trkpt><trkpt lat="9.9773943" lon="-84.1565745"><ele>982.0</ele><time>2026-04-09T21:39:15.035Z</time></trkpt><trkpt lat="9.9773481" lon="-84.1564747"><ele>982.0</ele><time>2026-04-09T21:39:16.035Z</time></trkpt><trkpt lat="9.9772966" lon="-84.1563767"><ele>982.0</ele><time>2026-04-09T21:39:17.033Z</time></trkpt><trkpt lat="9.9772433" lon="-84.1562778"><ele>983.0</ele><time>2026-04-09T21:39:18.034Z</time></trkpt><trkpt lat="9.9771889" lon="-84.1561731"><ele>984.0</ele><time>2026-04-09T21:39:19.034Z</time></trkpt><trkpt lat="9.9771364" lon="-84.1560677"><ele>985.0</ele><time>2026-04-09T21:39:20.035Z</time></trkpt><trkpt lat="9.9770817" lon="-84.1559692"><ele>986.0</ele><time>2026-04-09T21:39:21.035Z</time></trkpt><trkpt lat="9.9770319" lon="-84.1558696"><ele>986.0</ele><time>2026-04-09T21:39:22.034Z</time></trkpt><trkpt lat="9.9769762" lon="-84.1557762"><ele>985.9999999999999</ele><time>2026-04-09T21:39:23.035Z</time></trkpt><trkpt lat="9.9769351" lon="-84.1557016"><ele>985.9999999999999</ele><time>2026-04-09T21:39:24.034Z</time></trkpt><trkpt lat="9.9768969" lon="-84.1556243"><ele>986.0</ele><time>2026-04-09T21:39:25.034Z</time></trkpt><trkpt lat="9.9768471" lon="-84.1555306"><ele>986.0</ele><time>2026-04-09T21:39:26.034Z</time></trkpt><trkpt lat="9.9767924" lon="-84.1554399"><ele>986.5999999999999</ele><time>2026-04-09T21:39:27.034Z</time></trkpt><trkpt lat="9.9767482" lon="-84.15535"><ele>987.1999999999999</ele><time>2026-04-09T21:39:28.034Z</time></trkpt><trkpt lat="9.9767008" lon="-84.1552714"><ele>987.8000000000001</ele><time>2026-04-09T21:39:29.034Z</time></trkpt><trkpt lat="9.9766539" lon="-84.1551853"><ele>988.4000000000001</ele><time>2026-04-09T21:39:30.034Z</time></trkpt><trkpt lat="9.9766043" lon="-84.1550916"><ele>989.0</ele><time>2026-04-09T21:39:31.035Z</time></trkpt><trkpt lat="9.9765496" lon="-84.1549942"><ele>987.5</ele><time>2026-04-09T21:39:32.034Z</time></trkpt><trkpt lat="9.9764865" lon="-84.1548742"><ele>986.0</ele><time>2026-04-09T21:39:33.034Z</time></trkpt><trkpt lat="9.9764255" lon="-84.1547577"><ele>984.5</ele><time>2026-04-09T21:39:34.034Z</time></trkpt><trkpt lat="9.9763585" lon="-84.154631"><ele>983.0</ele><time>2026-04-09T21:39:35.034Z</time></trkpt><trkpt lat="9.9762904" lon="-84.1545091"><ele>983.0</ele><time>2026-04-09T21:39:36.034Z</time></trkpt><trkpt lat="9.9762295" lon="-84.1543949"><ele>983.0</ele><time>2026-04-09T21:39:37.034Z</time></trkpt><trkpt lat="9.976168" lon="-84.1542919"><ele>983.0</ele><time>2026-04-09T21:39:38.034Z</time></trkpt><trkpt lat="9.9761199" lon="-84.1541919"><ele>983.0</ele><time>2026-04-09T21:39:39.034Z</time></trkpt><trkpt lat="9.9760628" lon="-84.1540924"><ele>983.1666666666667</ele><time>2026-04-09T21:39:40.035Z</time></trkpt><trkpt lat="9.9760111" lon="-84.153995"><ele>983.3333333333334</ele><time>2026-04-09T21:39:41.034Z</time></trkpt><trkpt lat="9.9759577" lon="-84.1539073"><ele>983.5</ele><time>2026-04-09T21:39:42.034Z</time></trkpt><trkpt lat="9.97592" lon="-84.1538352"><ele>983.6666666666667</ele><time>2026-04-09T21:39:43.033Z</time></trkpt><trkpt lat="9.9758838" lon="-84.1537669"><ele>983.8333333333334</ele><time>2026-04-09T21:39:44.033Z</time></trkpt><trkpt lat="9.9758598" lon="-84.1537059"><ele>984.0</ele><time>2026-04-09T21:39:45.034Z</time></trkpt><trkpt lat="9.9758122" lon="-84.1536039"><ele>984.0</ele><time>2026-04-09T21:39:47.034Z</time></trkpt><trkpt lat="9.9757826" lon="-84.1534833"><ele>984.0000000000001</ele><time>2026-04-09T21:39:49.035Z</time></trkpt><trkpt lat="9.9757867" lon="-84.1533637"><ele>984.0000000000001</ele><time>2026-04-09T21:39:51.035Z</time></trkpt><trkpt lat="9.9757867" lon="-84.1532787"><ele>984.0</ele><time>2026-04-09T21:39:53.035Z</time></trkpt><trkpt lat="9.975784" lon="-84.1532054"><ele>984.0</ele><time>2026-04-09T21:39:57.035Z</time></trkpt><trkpt lat="9.9757785" lon="-84.1531382"><ele>984.0</ele><time>2026-04-09T21:40:15.034Z</time></trkpt><trkpt lat="9.9757462" lon="-84.1530745"><ele>984.0000000000001</ele><time>2026-04-09T21:40:17.034Z</time></trkpt><trkpt lat="9.9757019" lon="-84.152961"><ele>984.0000000000001</ele><time>2026-04-09T21:40:19.034Z</time></trkpt><trkpt lat="9.9756499" lon="-84.152845"><ele>984.0</ele><time>2026-04-09T21:40:21.034Z</time></trkpt><trkpt lat="9.9756014" lon="-84.152747"><ele>984.0</ele><time>2026-04-09T21:40:23.034Z</time></trkpt><trkpt lat="9.9755603" lon="-84.1526708"><ele>984.0</ele><time>2026-04-09T21:40:25.034Z</time></trkpt><trkpt lat="9.9755177" lon="-84.1525924"><ele>984.0</ele><time>2026-04-09T21:40:27.034Z</time></trkpt><trkpt lat="9.9754828" lon="-84.1525293"><ele>984.0</ele><time>2026-04-09T21:40:28.034Z</time></trkpt><trkpt lat="9.9754461" lon="-84.1524626"><ele>984.0</ele><time>2026-04-09T21:40:29.033Z</time></trkpt><trkpt lat="9.9754082" lon="-84.1523876"><ele>984.0</ele><time>2026-04-09T21:40:30.035Z</time></trkpt><trkpt lat="9.9753661" lon="-84.1523083"><ele>984.0</ele><time>2026-04-09T21:40:31.034Z</time></trkpt><trkpt lat="9.9753282" lon="-84.1522436"><ele>984.3333333333334</ele><time>2026-04-09T21:40:32.035Z</time></trkpt><trkpt lat="9.9752961" lon="-84.1521812"><ele>984.6666666666667</ele><time>2026-04-09T21:40:33.034Z</time></trkpt><trkpt lat="9.9752627" lon="-84.1521151"><ele>985.0</ele><time>2026-04-09T21:40:34.035Z</time></trkpt><trkpt lat="9.975221" lon="-84.1520493"><ele>985.3333333333334</ele><time>2026-04-09T21:40:35.033Z</time></trkpt><trkpt lat="9.9751591" lon="-84.1519395"><ele>985.6666666666667</ele><time>2026-04-09T21:40:37.033Z</time></trkpt><trkpt lat="9.9751172" lon="-84.1518606"><ele>986.0</ele><time>2026-04-09T21:40:39.034Z</time></trkpt><trkpt lat="9.9750688" lon="-84.1517847"><ele>985.5000000000001</ele><time>2026-04-09T21:40:41.034Z</time></trkpt><trkpt lat="9.9750184" lon="-84.1517015"><ele>985.0</ele><time>2026-04-09T21:40:43.034Z</time></trkpt><trkpt lat="9.9749829" lon="-84.1516473"><ele>984.5</ele><time>2026-04-09T21:40:44.034Z</time></trkpt><trkpt lat="9.9749517" lon="-84.1515801"><ele>984.0</ele><time>2026-04-09T21:40:45.035Z</time></trkpt><trkpt lat="9.974921" lon="-84.1515156"><ele>983.5000000000001</ele><time>2026-04-09T21:40:46.035Z</time></trkpt><trkpt lat="9.9748927" lon="-84.1514569"><ele>983.0</ele><time>2026-04-09T21:40:47.034Z</time></trkpt><trkpt lat="9.9748365" lon="-84.1513428"><ele>982.8333333333334</ele><time>2026-04-09T21:40:49.034Z</time></trkpt><trkpt lat="9.9747974" lon="-84.1512802"><ele>982.6666666666667</ele><time>2026-04-09T21:40:50.034Z</time></trkpt><trkpt lat="9.9747571" lon="-84.1512118"><ele>982.5</ele><time>2026-04-09T21:40:51.033Z</time></trkpt><trkpt lat="9.9747288" lon="-84.1511532"><ele>982.3333333333333</ele><time>2026-04-09T21:40:52.033Z</time></trkpt><trkpt lat="9.9746842" lon="-84.1510649"><ele>982.1666666666666</ele><time>2026-04-09T21:40:54.035Z</time></trkpt><trkpt lat="9.9746479" lon="-84.1509932"><ele>982.0</ele><time>2026-04-09T21:40:56.034Z</time></trkpt><trkpt lat="9.9746093" lon="-84.1509075"><ele>981.9999999999999</ele><time>2026-04-09T21:40:59.034Z</time></trkpt><trkpt lat="9.9745892" lon="-84.1508407"><ele>982.0</ele><time>2026-04-09T21:41:02.033Z</time></trkpt><trkpt lat="9.9745568" lon="-84.150771"><ele>982.0</ele><time>2026-04-09T21:41:04.035Z</time></trkpt><trkpt lat="9.9745136" lon="-84.1506844"><ele>982.0</ele><time>2026-04-09T21:41:06.033Z</time></trkpt><trkpt lat="9.9744532" lon="-84.1505709"><ele>981.9999999999999</ele><time>2026-04-09T21:41:08.034Z</time></trkpt><trkpt lat="9.9744239" lon="-84.1505099"><ele>982.0</ele><time>2026-04-09T21:41:09.033Z</time></trkpt><trkpt lat="9.9743865" lon="-84.1504167"><ele>982.3333333333333</ele><time>2026-04-09T21:41:10.034Z</time></trkpt><trkpt lat="9.9743451" lon="-84.150331"><ele>982.6666666666666</ele><time>2026-04-09T21:41:11.033Z</time></trkpt><trkpt lat="9.9743122" lon="-84.1502354"><ele>983.0</ele><time>2026-04-09T21:41:12.032Z</time></trkpt><trkpt lat="9.97427" lon="-84.1501546"><ele>983.3333333333333</ele><time>2026-04-09T21:41:13.033Z</time></trkpt><trkpt lat="9.9742489" lon="-84.1500867"><ele>983.6666666666666</ele><time>2026-04-09T21:41:14.033Z</time></trkpt><trkpt lat="9.9742121" lon="-84.1500198"><ele>984.0</ele><time>2026-04-09T21:41:15.033Z</time></trkpt><trkpt lat="9.9741884" lon="-84.1499601"><ele>984.8000000000001</ele><time>2026-04-09T21:41:16.034Z</time></trkpt><trkpt lat="9.9741386" lon="-84.149856"><ele>985.6000000000001</ele><time>2026-04-09T21:41:18.034Z</time></trkpt><trkpt lat="9.9741021" lon="-84.1497657"><ele>986.4</ele><time>2026-04-09T21:41:20.033Z</time></trkpt><trkpt lat="9.9740611" lon="-84.1496902"><ele>987.2</ele><time>2026-04-09T21:41:22.034Z</time></trkpt><trkpt lat="9.9740314" lon="-84.1496144"><ele>988.0</ele><time>2026-04-09T21:41:25.034Z</time></trkpt><trkpt lat="9.9739991" lon="-84.1495452"><ele>987.9999999999999</ele><time>2026-04-09T21:41:28.034Z</time></trkpt><trkpt lat="9.9739685" lon="-84.1494792"><ele>988.0</ele><time>2026-04-09T21:41:31.034Z</time></trkpt><trkpt lat="9.9739417" lon="-84.149415"><ele>988.0</ele><time>2026-04-09T21:41:34.033Z</time></trkpt><trkpt lat="9.9739143" lon="-84.1493481"><ele>988.0</ele><time>2026-04-09T21:41:37.033Z</time></trkpt><trkpt lat="9.9738762" lon="-84.1492591"><ele>987.9999999999999</ele><time>2026-04-09T21:41:40.034Z</time></trkpt><trkpt lat="9.9738432" lon="-84.1491774"><ele>988.0</ele><time>2026-04-09T21:41:43.033Z</time></trkpt><trkpt lat="9.9738124" lon="-84.1490984"><ele>988.8</ele><time>2026-04-09T21:41:46.035Z</time></trkpt><trkpt lat="9.9737801" lon="-84.1490125"><ele>989.5999999999999</ele><time>2026-04-09T21:41:49.033Z</time></trkpt><trkpt lat="9.973757" lon="-84.1489458"><ele>990.4000000000001</ele><time>2026-04-09T21:41:51.034Z</time></trkpt><trkpt lat="9.9737271" lon="-84.1488616"><ele>991.2</ele><time>2026-04-09T21:41:53.034Z</time></trkpt><trkpt lat="9.9736945" lon="-84.1487692"><ele>992.0</ele><time>2026-04-09T21:41:55.034Z</time></trkpt><trkpt lat="9.9736559" lon="-84.1486674"><ele>992.0</ele><time>2026-04-09T21:41:58.033Z</time></trkpt><trkpt lat="9.9736095" lon="-84.1485371"><ele>992.0</ele><time>2026-04-09T21:42:00.034Z</time></trkpt><trkpt lat="9.973579" lon="-84.1484606"><ele>992.0</ele><time>2026-04-09T21:42:01.034Z</time></trkpt><trkpt lat="9.9735456" lon="-84.1483775"><ele>992.0</ele><time>2026-04-09T21:42:02.034Z</time></trkpt><trkpt lat="9.9735104" lon="-84.1482913"><ele>992.0</ele><time>2026-04-09T21:42:03.035Z</time></trkpt><trkpt lat="9.9734733" lon="-84.1481944"><ele>992.0</ele><time>2026-04-09T21:42:04.034Z</time></trkpt><trkpt lat="9.9734343" lon="-84.1480943"><ele>992.0</ele><time>2026-04-09T21:42:05.034Z</time></trkpt><trkpt lat="9.9733952" lon="-84.1479942"><ele>992.0</ele><time>2026-04-09T21:42:06.033Z</time></trkpt><trkpt lat="9.9733594" lon="-84.1479023"><ele>992.0</ele><time>2026-04-09T21:42:07.034Z</time></trkpt><trkpt lat="9.9733299" lon="-84.1478158"><ele>992.0</ele><time>2026-04-09T21:42:08.034Z</time></trkpt><trkpt lat="9.9733005" lon="-84.1477308"><ele>992.0000000000001</ele><time>2026-04-09T21:42:09.034Z</time></trkpt><trkpt lat="9.9732668" lon="-84.1476488"><ele>992.0</ele><time>2026-04-09T21:42:10.034Z</time></trkpt><trkpt lat="9.9732373" lon="-84.1475682"><ele>992.0</ele><time>2026-04-09T21:42:11.034Z</time></trkpt><trkpt lat="9.9732092" lon="-84.1474887"><ele>992.0</ele><time>2026-04-09T21:42:12.033Z</time></trkpt><trkpt lat="9.9731845" lon="-84.1474221"><ele>992.0000000000001</ele><time>2026-04-09T21:42:13.034Z</time></trkpt><trkpt lat="9.9731564" lon="-84.1473485"><ele>992.0</ele><time>2026-04-09T21:42:14.034Z</time></trkpt><trkpt lat="9.9731262" lon="-84.1472725"><ele>993.2</ele><time>2026-04-09T21:42:15.033Z</time></trkpt><trkpt lat="9.9731036" lon="-84.1472007"><ele>994.4000000000001</ele><time>2026-04-09T21:42:16.033Z</time></trkpt><trkpt lat="9.9730762" lon="-84.1471346"><ele>995.5999999999999</ele><time>2026-04-09T21:42:17.033Z</time></trkpt><trkpt lat="9.9730363" lon="-84.1470294"><ele>996.8</ele><time>2026-04-09T21:42:19.034Z</time></trkpt><trkpt lat="9.9729957" lon="-84.1469393"><ele>998.0</ele><time>2026-04-09T21:42:21.033Z</time></trkpt><trkpt lat="9.9729672" lon="-84.1468413"><ele>998.0</ele><time>2026-04-09T21:42:23.033Z</time></trkpt><trkpt lat="9.972928" lon="-84.1467223"><ele>998.0</ele><time>2026-04-09T21:42:25.034Z</time></trkpt><trkpt lat="9.9728855" lon="-84.1466225"><ele>998.0</ele><time>2026-04-09T21:42:27.033Z</time></trkpt><trkpt lat="9.9728521" lon="-84.1465528"><ele>998.0</ele><time>2026-04-09T21:42:29.033Z</time></trkpt><trkpt lat="9.9728292" lon="-84.1464844"><ele>998.0</ele><time>2026-04-09T21:42:31.034Z</time></trkpt><trkpt lat="9.9727995" lon="-84.1463956"><ele>998.1666666666667</ele><time>2026-04-09T21:42:33.034Z</time></trkpt><trkpt lat="9.9727542" lon="-84.1462806"><ele>998.3333333333334</ele><time>2026-04-09T21:42:35.033Z</time></trkpt><trkpt lat="9.9727275" lon="-84.1462145"><ele>998.5</ele><time>2026-04-09T21:42:36.033Z</time></trkpt><trkpt lat="9.9726983" lon="-84.1461398"><ele>998.6666666666667</ele><time>2026-04-09T21:42:37.034Z</time></trkpt><trkpt lat="9.9726744" lon="-84.1460627"><ele>998.8333333333334</ele><time>2026-04-09T21:42:38.033Z</time></trkpt><trkpt lat="9.9726438" lon="-84.1459864"><ele>999.0</ele><time>2026-04-09T21:42:39.034Z</time></trkpt><trkpt lat="9.9726152" lon="-84.1459152"><ele>999.0</ele><time>2026-04-09T21:42:40.033Z</time></trkpt><trkpt lat="9.9725944" lon="-84.1458428"><ele>999.0</ele><time>2026-04-09T21:42:41.034Z</time></trkpt><trkpt lat="9.9725724" lon="-84.145771"><ele>999.0</ele><time>2026-04-09T21:42:42.034Z</time></trkpt><trkpt lat="9.972544" lon="-84.1456947"><ele>999.0</ele><time>2026-04-09T21:42:43.033Z</time></trkpt><trkpt lat="9.9725113" lon="-84.1456233"><ele>999.0</ele><time>2026-04-09T21:42:44.033Z</time></trkpt><trkpt lat="9.9724921" lon="-84.145562"><ele>999.0</ele><time>2026-04-09T21:42:45.033Z</time></trkpt><trkpt lat="9.9724622" lon="-84.1454824"><ele>998.1666666666666</ele><time>2026-04-09T21:42:47.034Z</time></trkpt><trkpt lat="9.9724338" lon="-84.1454102"><ele>997.3333333333333</ele><time>2026-04-09T21:42:51.033Z</time></trkpt><trkpt lat="9.9724095" lon="-84.1453492"><ele>996.5</ele><time>2026-04-09T21:42:53.034Z</time></trkpt><trkpt lat="9.9723813" lon="-84.1452748"><ele>995.6666666666666</ele><time>2026-04-09T21:42:56.033Z</time></trkpt><trkpt lat="9.9723542" lon="-84.1451946"><ele>994.8333333333333</ele><time>2026-04-09T21:43:05.034Z</time></trkpt><trkpt lat="9.9723092" lon="-84.1450801"><ele>994.0</ele><time>2026-04-09T21:43:07.033Z</time></trkpt><trkpt lat="9.9722662" lon="-84.1449646"><ele>994.0</ele><time>2026-04-09T21:43:09.034Z</time></trkpt><trkpt lat="9.9722244" lon="-84.1448458"><ele>994.0</ele><time>2026-04-09T21:43:11.034Z</time></trkpt><trkpt lat="9.9721814" lon="-84.1447241"><ele>994.0</ele><time>2026-04-09T21:43:13.034Z</time></trkpt><trkpt lat="9.9721417" lon="-84.1446106"><ele>994.0</ele><time>2026-04-09T21:43:15.034Z</time></trkpt><trkpt lat="9.9721061" lon="-84.1445153"><ele>994.0</ele><time>2026-04-09T21:43:17.034Z</time></trkpt><trkpt lat="9.972078" lon="-84.1444363"><ele>994.0</ele><time>2026-04-09T21:43:19.033Z</time></trkpt><trkpt lat="9.9720391" lon="-84.1443625"><ele>994.0</ele><time>2026-04-09T21:43:22.034Z</time></trkpt><trkpt lat="9.9720127" lon="-84.144295"><ele>994.0</ele><time>2026-04-09T21:43:24.034Z</time></trkpt><trkpt lat="9.9719869" lon="-84.1442364"><ele>994.0</ele><time>2026-04-09T21:43:26.034Z</time></trkpt><trkpt lat="9.9719661" lon="-84.1441737"><ele>994.0</ele><time>2026-04-09T21:43:28.034Z</time></trkpt><trkpt lat="9.9719446" lon="-84.1441071"><ele>994.0</ele><time>2026-04-09T21:43:30.034Z</time></trkpt><trkpt lat="9.9719056" lon="-84.1440039"><ele>993.4000000000001</ele><time>2026-04-09T21:43:32.033Z</time></trkpt><trkpt lat="9.9718647" lon="-84.1438931"><ele>992.8000000000001</ele><time>2026-04-09T21:43:34.034Z</time></trkpt><trkpt lat="9.9718264" lon="-84.1437805"><ele>992.1999999999999</ele><time>2026-04-09T21:43:36.034Z</time></trkpt><trkpt lat="9.9717713" lon="-84.1436543"><ele>991.5999999999999</ele><time>2026-04-09T21:43:38.033Z</time></trkpt><trkpt lat="9.9717453" lon="-84.1435794"><ele>991.0</ele><time>2026-04-09T21:43:39.033Z</time></trkpt><trkpt lat="9.9717031" lon="-84.1434655"><ele>991.0000000000001</ele><time>2026-04-09T21:43:41.034Z</time></trkpt><trkpt lat="9.9716741" lon="-84.1433994"><ele>991.0</ele><time>2026-04-09T21:43:42.033Z</time></trkpt><trkpt lat="9.9716513" lon="-84.1433336"><ele>991.0000000000001</ele><time>2026-04-09T21:43:43.034Z</time></trkpt><trkpt lat="9.9716247" lon="-84.1432577"><ele>991.0000000000001</ele><time>2026-04-09T21:43:44.033Z</time></trkpt><trkpt lat="9.9715937" lon="-84.1431894"><ele>991.0</ele><time>2026-04-09T21:43:45.034Z</time></trkpt><trkpt lat="9.9715594" lon="-84.1431066"><ele>991.0000000000001</ele><time>2026-04-09T21:43:47.034Z</time></trkpt><trkpt lat="9.9715422" lon="-84.1430428"><ele>991.0000000000001</ele><time>2026-04-09T21:43:51.033Z</time></trkpt><trkpt lat="9.9715141" lon="-84.1429815"><ele>991.0</ele><time>2026-04-09T21:43:53.034Z</time></trkpt><trkpt lat="9.9714706" lon="-84.1428659"><ele>990.9999999999999</ele><time>2026-04-09T21:43:55.034Z</time></trkpt><trkpt lat="9.9714469" lon="-84.142792"><ele>990.9999999999999</ele><time>2026-04-09T21:43:57.034Z</time></trkpt><trkpt lat="9.9714221" lon="-84.142726"><ele>991.0</ele><time>2026-04-09T21:43:59.033Z</time></trkpt><trkpt lat="9.9713826" lon="-84.1426165"><ele>991.0</ele><time>2026-04-09T21:44:01.033Z</time></trkpt><trkpt lat="9.9713461" lon="-84.1425192"><ele>991.0</ele><time>2026-04-09T21:44:03.034Z</time></trkpt><trkpt lat="9.9713119" lon="-84.1424334"><ele>990.9999999999999</ele><time>2026-04-09T21:44:05.034Z</time></trkpt><trkpt lat="9.9712701" lon="-84.1423331"><ele>990.9999999999999</ele><time>2026-04-09T21:44:07.034Z</time></trkpt><trkpt lat="9.9712347" lon="-84.1422433"><ele>991.0</ele><time>2026-04-09T21:44:09.032Z</time></trkpt><trkpt lat="9.9712072" lon="-84.1421655"><ele>991.0</ele><time>2026-04-09T21:44:12.033Z</time></trkpt><trkpt lat="9.9711762" lon="-84.1420711"><ele>991.8</ele><time>2026-04-09T21:44:15.033Z</time></trkpt><trkpt lat="9.9711335" lon="-84.1419802"><ele>992.5999999999999</ele><time>2026-04-09T21:44:17.034Z</time></trkpt><trkpt lat="9.9710947" lon="-84.1418639"><ele>993.4</ele><time>2026-04-09T21:44:19.033Z</time></trkpt><trkpt lat="9.9710538" lon="-84.1417634"><ele>994.2</ele><time>2026-04-09T21:44:21.033Z</time></trkpt><trkpt lat="9.9710261" lon="-84.1416904"><ele>995.0</ele><time>2026-04-09T21:44:23.034Z</time></trkpt><trkpt lat="9.9709951" lon="-84.1416029"><ele>995.1666666666667</ele><time>2026-04-09T21:44:26.033Z</time></trkpt><trkpt lat="9.9709619" lon="-84.1415252"><ele>995.3333333333334</ele><time>2026-04-09T21:44:29.034Z</time></trkpt><trkpt lat="9.9709259" lon="-84.1414459"><ele>995.5</ele><time>2026-04-09T21:44:32.034Z</time></trkpt><trkpt lat="9.9708936" lon="-84.141371"><ele>995.6666666666667</ele><time>2026-04-09T21:44:36.034Z</time></trkpt><trkpt lat="9.9708603" lon="-84.1413004"><ele>995.8333333333334</ele><time>2026-04-09T21:44:39.033Z</time></trkpt><trkpt lat="9.9708262" lon="-84.1412244"><ele>996.0</ele><time>2026-04-09T21:44:41.034Z</time></trkpt><trkpt lat="9.97079" lon="-84.1411372"><ele>998.6666666666666</ele><time>2026-04-09T21:44:44.033Z</time></trkpt><trkpt lat="9.9707528" lon="-84.1410501"><ele>1001.3333333333333</ele><time>2026-04-09T21:44:46.032Z</time></trkpt><trkpt lat="9.9707154" lon="-84.1409775"><ele>1004.0</ele><time>2026-04-09T21:44:49.034Z</time></trkpt><trkpt lat="9.9706934" lon="-84.1409116"><ele>1006.6666666666666</ele><time>2026-04-09T21:44:55.032Z</time></trkpt><trkpt lat="9.970671" lon="-84.1408434"><ele>1009.3333333333333</ele><time>2026-04-09T21:45:10.034Z</time></trkpt><trkpt lat="9.9706477" lon="-84.1407811"><ele>1012.0</ele><time>2026-04-09T21:45:16.032Z</time></trkpt><trkpt lat="9.970616" lon="-84.140715"><ele>1012.0</ele><time>2026-04-09T21:45:23.032Z</time></trkpt><trkpt lat="9.9705787" lon="-84.1406593"><ele>1012.0</ele><time>2026-04-09T21:45:42.033Z</time></trkpt><trkpt lat="9.9705414" lon="-84.1405662"><ele>1012.0</ele><time>2026-04-09T21:45:46.034Z</time></trkpt><trkpt lat="9.9704874" lon="-84.1404487"><ele>1012.0</ele><time>2026-04-09T21:45:48.033Z</time></trkpt><trkpt lat="9.9704582" lon="-84.1403888"><ele>1012.0</ele><time>2026-04-09T21:45:49.032Z</time></trkpt><trkpt lat="9.9704043" lon="-84.140278"><ele>1012.0</ele><time>2026-04-09T21:45:51.034Z</time></trkpt><trkpt lat="9.9703422" lon="-84.1401603"><ele>1012.0</ele><time>2026-04-09T21:45:53.033Z</time></trkpt><trkpt lat="9.9702831" lon="-84.140058"><ele>1012.0</ele><time>2026-04-09T21:45:55.032Z</time></trkpt><trkpt lat="9.9702325" lon="-84.1399551"><ele>1012.0</ele><time>2026-04-09T21:45:57.033Z</time></trkpt><trkpt lat="9.9701968" lon="-84.1398895"><ele>1012.0</ele><time>2026-04-09T21:45:58.033Z</time></trkpt><trkpt lat="9.9701541" lon="-84.1398076"><ele>1012.1666666666666</ele><time>2026-04-09T21:46:00.032Z</time></trkpt><trkpt lat="9.9701196" lon="-84.1397491"><ele>1012.3333333333333</ele><time>2026-04-09T21:46:02.033Z</time></trkpt><trkpt lat="9.9700914" lon="-84.1396885"><ele>1012.5</ele><time>2026-04-09T21:46:04.033Z</time></trkpt><trkpt lat="9.9700623" lon="-84.1396219"><ele>1012.6666666666667</ele><time>2026-04-09T21:46:08.033Z</time></trkpt><trkpt lat="9.9700268" lon="-84.1395581"><ele>1012.8333333333334</ele><time>2026-04-09T21:46:12.034Z</time></trkpt><trkpt lat="9.9699812" lon="-84.1394764"><ele>1013.0</ele><time>2026-04-09T21:46:15.033Z</time></trkpt><trkpt lat="9.9699364" lon="-84.1393959"><ele>1014.0000000000001</ele><time>2026-04-09T21:46:17.033Z</time></trkpt><trkpt lat="9.9699036" lon="-84.1393288"><ele>1015.0</ele><time>2026-04-09T21:46:19.033Z</time></trkpt><trkpt lat="9.9698592" lon="-84.1392615"><ele>1016.0</ele><time>2026-04-09T21:46:22.033Z</time></trkpt><trkpt lat="9.9698204" lon="-84.1391913"><ele>1017.0</ele><time>2026-04-09T21:46:26.033Z</time></trkpt><trkpt lat="9.9697856" lon="-84.1391345"><ele>1018.0000000000001</ele><time>2026-04-09T21:46:29.033Z</time></trkpt><trkpt lat="9.9697552" lon="-84.1390745"><ele>1019.0</ele><time>2026-04-09T21:46:32.033Z</time></trkpt><trkpt lat="9.9697125" lon="-84.1389941"><ele>1019.6666666666667</ele><time>2026-04-09T21:46:35.033Z</time></trkpt><trkpt lat="9.9696759" lon="-84.138926"><ele>1020.3333333333334</ele><time>2026-04-09T21:46:38.033Z</time></trkpt><trkpt lat="9.9696337" lon="-84.1388511"><ele>1021.0</ele><time>2026-04-09T21:46:42.032Z</time></trkpt><trkpt lat="9.9695995" lon="-84.1387848"><ele>1021.6666666666667</ele><time>2026-04-09T21:46:45.033Z</time></trkpt><trkpt lat="9.9695696" lon="-84.1387186"><ele>1022.3333333333334</ele><time>2026-04-09T21:46:48.033Z</time></trkpt><trkpt lat="9.9695377" lon="-84.1386532"><ele>1023.0</ele><time>2026-04-09T21:46:51.033Z</time></trkpt><trkpt lat="9.9695023" lon="-84.1385799"><ele>1023.0</ele><time>2026-04-09T21:46:54.033Z</time></trkpt><trkpt lat="9.9694567" lon="-84.1385122"><ele>1023.0</ele><time>2026-04-09T21:46:56.033Z</time></trkpt><trkpt lat="9.9694215" lon="-84.1384496"><ele>1023.0</ele><time>2026-04-09T21:46:59.032Z</time></trkpt><trkpt lat="9.9693896" lon="-84.1383916"><ele>1023.0</ele><time>2026-04-09T21:47:04.032Z</time></trkpt><trkpt lat="9.9693569" lon="-84.1383321"><ele>1023.0</ele><time>2026-04-09T21:47:24.033Z</time></trkpt><trkpt lat="9.9693201" lon="-84.1382549"><ele>1023.0</ele><time>2026-04-09T21:47:28.032Z</time></trkpt><trkpt lat="9.9692901" lon="-84.1381931"><ele>1023.0</ele><time>2026-04-09T21:47:31.033Z</time></trkpt><trkpt lat="9.9692492" lon="-84.1381291"><ele>1023.3333333333334</ele><time>2026-04-09T21:47:35.032Z</time></trkpt><trkpt lat="9.9692096" lon="-84.1380658"><ele>1023.6666666666667</ele><time>2026-04-09T21:47:39.032Z</time></trkpt><trkpt lat="9.9691685" lon="-84.1379954"><ele>1024.0</ele><time>2026-04-09T21:47:42.033Z</time></trkpt><trkpt lat="9.9691323" lon="-84.1379284"><ele>1024.3333333333335</ele><time>2026-04-09T21:47:44.033Z</time></trkpt><trkpt lat="9.9690961" lon="-84.1378505"><ele>1024.6666666666667</ele><time>2026-04-09T21:47:45.033Z</time></trkpt><trkpt lat="9.9690576" lon="-84.1377835"><ele>1025.0</ele><time>2026-04-09T21:47:46.033Z</time></trkpt><trkpt lat="9.9690191" lon="-84.1377181"><ele>1024.6</ele><time>2026-04-09T21:47:47.032Z</time></trkpt><trkpt lat="9.9689887" lon="-84.1376541"><ele>1024.2</ele><time>2026-04-09T21:47:48.033Z</time></trkpt><trkpt lat="9.9689266" lon="-84.1375436"><ele>1023.8</ele><time>2026-04-09T21:47:50.031Z</time></trkpt><trkpt lat="9.9688709" lon="-84.137443"><ele>1023.4</ele><time>2026-04-09T21:47:52.033Z</time></trkpt><trkpt lat="9.9688105" lon="-84.1373397"><ele>1023.0</ele><time>2026-04-09T21:47:54.033Z</time></trkpt><trkpt lat="9.9687529" lon="-84.1372347"><ele>1023.0</ele><time>2026-04-09T21:47:56.033Z</time></trkpt><trkpt lat="9.9687174" lon="-84.1371629"><ele>1023.0</ele><time>2026-04-09T21:47:57.033Z</time></trkpt><trkpt lat="9.9686774" lon="-84.1371014"><ele>1023.0</ele><time>2026-04-09T21:47:58.033Z</time></trkpt><trkpt lat="9.9686395" lon="-84.1370383"><ele>1023.0</ele><time>2026-04-09T21:47:59.032Z</time></trkpt><trkpt lat="9.968607" lon="-84.1369693"><ele>1023.0</ele><time>2026-04-09T21:48:00.033Z</time></trkpt><trkpt lat="9.968579" lon="-84.1369074"><ele>1023.0</ele><time>2026-04-09T21:48:01.033Z</time></trkpt><trkpt lat="9.9685496" lon="-84.1368416"><ele>1023.0</ele><time>2026-04-09T21:48:02.032Z</time></trkpt><trkpt lat="9.968513" lon="-84.1367803"><ele>1023.0</ele><time>2026-04-09T21:48:03.033Z</time></trkpt><trkpt lat="9.9684782" lon="-84.1367159"><ele>1023.0</ele><time>2026-04-09T21:48:04.032Z</time></trkpt><trkpt lat="9.9684275" lon="-84.1366142"><ele>1023.0</ele><time>2026-04-09T21:48:06.032Z</time></trkpt><trkpt lat="9.9683911" lon="-84.1365387"><ele>1023.0</ele><time>2026-04-09T21:48:08.033Z</time></trkpt><trkpt lat="9.9683551" lon="-84.1364722"><ele>1023.0</ele><time>2026-04-09T21:48:10.033Z</time></trkpt><trkpt lat="9.9683182" lon="-84.1364117"><ele>1023.0</ele><time>2026-04-09T21:48:12.032Z</time></trkpt><trkpt lat="9.9682827" lon="-84.1363425"><ele>1022.8</ele><time>2026-04-09T21:48:14.033Z</time></trkpt><trkpt lat="9.9682179" lon="-84.1362307"><ele>1022.5999999999999</ele><time>2026-04-09T21:48:16.033Z</time></trkpt><trkpt lat="9.9681829" lon="-84.1361732"><ele>1022.4000000000001</ele><time>2026-04-09T21:48:17.032Z</time></trkpt><trkpt lat="9.9681232" lon="-84.1360561"><ele>1022.2</ele><time>2026-04-09T21:48:19.033Z</time></trkpt><trkpt lat="9.9680863" lon="-84.1359949"><ele>1022.0</ele><time>2026-04-09T21:48:20.032Z</time></trkpt><trkpt lat="9.9680509" lon="-84.1359335"><ele>1022.0000000000001</ele><time>2026-04-09T21:48:21.033Z</time></trkpt><trkpt lat="9.9680165" lon="-84.1358766"><ele>1022.0</ele><time>2026-04-09T21:48:22.033Z</time></trkpt><trkpt lat="9.9679769" lon="-84.1357991"><ele>1022.0</ele><time>2026-04-09T21:48:24.033Z</time></trkpt><trkpt lat="9.9679344" lon="-84.1357167"><ele>1022.0</ele><time>2026-04-09T21:48:27.033Z</time></trkpt><trkpt lat="9.9678818" lon="-84.1356261"><ele>1022.0000000000001</ele><time>2026-04-09T21:48:29.033Z</time></trkpt><trkpt lat="9.9678485" lon="-84.1355666"><ele>1022.0</ele><time>2026-04-09T21:48:31.033Z</time></trkpt><trkpt lat="9.9678012" lon="-84.1354707"><ele>1022.3333333333334</ele><time>2026-04-09T21:48:33.033Z</time></trkpt><trkpt lat="9.9677613" lon="-84.1354072"><ele>1022.6666666666667</ele><time>2026-04-09T21:48:34.033Z</time></trkpt><trkpt lat="9.9677298" lon="-84.1353499"><ele>1023.0</ele><time>2026-04-09T21:48:35.032Z</time></trkpt><trkpt lat="9.9676669" lon="-84.1352276"><ele>1023.3333333333333</ele><time>2026-04-09T21:48:37.033Z</time></trkpt><trkpt lat="9.9676297" lon="-84.1351657"><ele>1023.6666666666666</ele><time>2026-04-09T21:48:38.033Z</time></trkpt><trkpt lat="9.9675833" lon="-84.1350813"><ele>1024.0</ele><time>2026-04-09T21:48:40.032Z</time></trkpt><trkpt lat="9.9675439" lon="-84.135011"><ele>1020.8333333333333</ele><time>2026-04-09T21:48:43.033Z</time></trkpt><trkpt lat="9.96751" lon="-84.1349367"><ele>1017.6666666666666</ele><time>2026-04-09T21:48:48.032Z</time></trkpt><trkpt lat="9.9674731" lon="-84.134858"><ele>1014.5</ele><time>2026-04-09T21:48:51.033Z</time></trkpt><trkpt lat="9.9674391" lon="-84.1348027"><ele>1011.3333333333333</ele><time>2026-04-09T21:48:53.033Z</time></trkpt><trkpt lat="9.9674036" lon="-84.1347381"><ele>1008.1666666666666</ele><time>2026-04-09T21:48:56.033Z</time></trkpt><trkpt lat="9.9673682" lon="-84.1346661"><ele>1005.0</ele><time>2026-04-09T21:48:59.033Z</time></trkpt><trkpt lat="9.9673309" lon="-84.134599"><ele>1002.6666666666666</ele><time>2026-04-09T21:49:02.031Z</time></trkpt><trkpt lat="9.9672893" lon="-84.1345294"><ele>1000.3333333333333</ele><time>2026-04-09T21:49:06.033Z</time></trkpt><trkpt lat="9.9672516" lon="-84.134465"><ele>998.0</ele><time>2026-04-09T21:49:10.032Z</time></trkpt><trkpt lat="9.9672112" lon="-84.1343897"><ele>995.6666666666666</ele><time>2026-04-09T21:49:14.032Z</time></trkpt><trkpt lat="9.9671772" lon="-84.1343324"><ele>993.3333333333333</ele><time>2026-04-09T21:49:16.032Z</time></trkpt><trkpt lat="9.9671198" lon="-84.1342276"><ele>991.0</ele><time>2026-04-09T21:49:18.032Z</time></trkpt><trkpt lat="9.9670677" lon="-84.1341271"><ele>989.1999999999999</ele><time>2026-04-09T21:49:20.032Z</time></trkpt><trkpt lat="9.9670062" lon="-84.1340146"><ele>987.3999999999999</ele><time>2026-04-09T21:49:22.031Z</time></trkpt><trkpt lat="9.9669747" lon="-84.1339584"><ele>985.6</ele><time>2026-04-09T21:49:23.033Z</time></trkpt><trkpt lat="9.9669185" lon="-84.1338506"><ele>983.8</ele><time>2026-04-09T21:49:25.033Z</time></trkpt><trkpt lat="9.9668736" lon="-84.1337685"><ele>982.0</ele><time>2026-04-09T21:49:27.033Z</time></trkpt><trkpt lat="9.9668384" lon="-84.1336932"><ele>981.9999999999999</ele><time>2026-04-09T21:49:30.033Z</time></trkpt><trkpt lat="9.9667969" lon="-84.1336147"><ele>982.0</ele><time>2026-04-09T21:49:33.033Z</time></trkpt><trkpt lat="9.9667588" lon="-84.1335521"><ele>982.0</ele><time>2026-04-09T21:49:34.031Z</time></trkpt><trkpt lat="9.9667266" lon="-84.1334917"><ele>982.0</ele><time>2026-04-09T21:49:35.033Z</time></trkpt><trkpt lat="9.9666917" lon="-84.1334271"><ele>981.9999999999999</ele><time>2026-04-09T21:49:36.031Z</time></trkpt><trkpt lat="9.966658" lon="-84.1333685"><ele>982.0</ele><time>2026-04-09T21:49:37.032Z</time></trkpt><trkpt lat="9.9665982" lon="-84.1332681"><ele>983.9999999999999</ele><time>2026-04-09T21:49:39.031Z</time></trkpt><trkpt lat="9.9665352" lon="-84.1331506"><ele>986.0</ele><time>2026-04-09T21:49:41.032Z</time></trkpt><trkpt lat="9.9664992" lon="-84.1330905"><ele>988.0</ele><time>2026-04-09T21:49:42.033Z</time></trkpt><trkpt lat="9.9664679" lon="-84.133031"><ele>990.0</ele><time>2026-04-09T21:49:43.032Z</time></trkpt><trkpt lat="9.9664334" lon="-84.1329661"><ele>991.9999999999999</ele><time>2026-04-09T21:49:44.032Z</time></trkpt><trkpt lat="9.9664018" lon="-84.1329046"><ele>994.0</ele><time>2026-04-09T21:49:45.032Z</time></trkpt><trkpt lat="9.9663661" lon="-84.1328482"><ele>994.0</ele><time>2026-04-09T21:49:46.031Z</time></trkpt><trkpt lat="9.9663098" lon="-84.1327534"><ele>994.0000000000001</ele><time>2026-04-09T21:49:48.031Z</time></trkpt><trkpt lat="9.966269" lon="-84.1326492"><ele>994.0000000000001</ele><time>2026-04-09T21:49:50.032Z</time></trkpt><trkpt lat="9.9662267" lon="-84.1325776"><ele>994.0</ele><time>2026-04-09T21:49:51.031Z</time></trkpt><trkpt lat="9.9661852" lon="-84.132506"><ele>994.0</ele><time>2026-04-09T21:49:52.032Z</time></trkpt><trkpt lat="9.9661442" lon="-84.1324328"><ele>992.0</ele><time>2026-04-09T21:49:53.032Z</time></trkpt><trkpt lat="9.9661004" lon="-84.1323471"><ele>990.0000000000001</ele><time>2026-04-09T21:49:54.033Z</time></trkpt><trkpt lat="9.9660547" lon="-84.1322566"><ele>988.0000000000001</ele><time>2026-04-09T21:49:55.032Z</time></trkpt><trkpt lat="9.9660049" lon="-84.132168"><ele>986.0</ele><time>2026-04-09T21:49:56.031Z</time></trkpt><trkpt lat="9.965942" lon="-84.1320767"><ele>984.0</ele><time>2026-04-09T21:49:57.033Z</time></trkpt><trkpt lat="9.9658909" lon="-84.1319749"><ele>990.25</ele><time>2026-04-09T21:49:58.032Z</time></trkpt><trkpt lat="9.9658378" lon="-84.1318697"><ele>996.5</ele><time>2026-04-09T21:49:59.033Z</time></trkpt><trkpt lat="9.9657809" lon="-84.1317668"><ele>1002.75</ele><time>2026-04-09T21:50:00.033Z</time></trkpt><trkpt lat="9.9657286" lon="-84.1316655"><ele>1009.0</ele><time>2026-04-09T21:50:01.032Z</time></trkpt><trkpt lat="9.9656697" lon="-84.1315611"><ele>1005.5</ele><time>2026-04-09T21:50:02.032Z</time></trkpt><trkpt lat="9.9656127" lon="-84.1314554"><ele>1002.0</ele><time>2026-04-09T21:50:03.032Z</time></trkpt><trkpt lat="9.9655475" lon="-84.1313409"><ele>998.5</ele><time>2026-04-09T21:50:04.032Z</time></trkpt><trkpt lat="9.9654754" lon="-84.1312166"><ele>995.0</ele><time>2026-04-09T21:50:05.032Z</time></trkpt><trkpt lat="9.965401" lon="-84.1310885"><ele>995.0</ele><time>2026-04-09T21:50:06.032Z</time></trkpt><trkpt lat="9.9653357" lon="-84.13097"><ele>995.0</ele><time>2026-04-09T21:50:07.033Z</time></trkpt><trkpt lat="9.9652809" lon="-84.130859"><ele>995.0</ele><time>2026-04-09T21:50:08.031Z</time></trkpt><trkpt lat="9.9652203" lon="-84.1307486"><ele>995.0</ele><time>2026-04-09T21:50:09.033Z</time></trkpt><trkpt lat="9.9651602" lon="-84.1306363"><ele>994.25</ele><time>2026-04-09T21:50:10.031Z</time></trkpt><trkpt lat="9.9650966" lon="-84.130521"><ele>993.5</ele><time>2026-04-09T21:50:11.033Z</time></trkpt><trkpt lat="9.9650356" lon="-84.1304032"><ele>992.75</ele><time>2026-04-09T21:50:12.033Z</time></trkpt><trkpt lat="9.964979" lon="-84.1302864"><ele>992.0</ele><time>2026-04-09T21:50:13.031Z</time></trkpt><trkpt lat="9.964914" lon="-84.1301662"><ele>998.75</ele><time>2026-04-09T21:50:14.033Z</time></trkpt><trkpt lat="9.9648423" lon="-84.130048"><ele>1005.5</ele><time>2026-04-09T21:50:15.032Z</time></trkpt><trkpt lat="9.9647769" lon="-84.1299269"><ele>1012.25</ele><time>2026-04-09T21:50:16.032Z</time></trkpt><trkpt lat="9.9647135" lon="-84.1298076"><ele>1019.0</ele><time>2026-04-09T21:50:17.032Z</time></trkpt><trkpt lat="9.964646" lon="-84.1296857"><ele>1020.0</ele><time>2026-04-09T21:50:18.032Z</time></trkpt><trkpt lat="9.9645784" lon="-84.1295568"><ele>1021.0</ele><time>2026-04-09T21:50:19.032Z</time></trkpt><trkpt lat="9.96451" lon="-84.1294308"><ele>1022.0</ele><time>2026-04-09T21:50:20.031Z</time></trkpt><trkpt lat="9.9644493" lon="-84.129318"><ele>1023.0</ele><time>2026-04-09T21:50:21.032Z</time></trkpt><trkpt lat="9.964388" lon="-84.1292082"><ele>1023.0</ele><time>2026-04-09T21:50:22.033Z</time></trkpt><trkpt lat="9.9643317" lon="-84.1291105"><ele>1023.0</ele><time>2026-04-09T21:50:23.032Z</time></trkpt><trkpt lat="9.9642845" lon="-84.1290192"><ele>1023.0</ele><time>2026-04-09T21:50:24.031Z</time></trkpt><trkpt lat="9.9642389" lon="-84.1289443"><ele>1023.0</ele><time>2026-04-09T21:50:25.032Z</time></trkpt><trkpt lat="9.964202" lon="-84.1288816"><ele>1023.0</ele><time>2026-04-09T21:50:26.032Z</time></trkpt><trkpt lat="9.9641516" lon="-84.128786"><ele>1024.8333333333333</ele><time>2026-04-09T21:50:28.033Z</time></trkpt><trkpt lat="9.9641192" lon="-84.1287262"><ele>1026.6666666666667</ele><time>2026-04-09T21:50:30.032Z</time></trkpt><trkpt lat="9.964079" lon="-84.1286687"><ele>1028.5</ele><time>2026-04-09T21:50:32.032Z</time></trkpt><trkpt lat="9.9640394" lon="-84.1286005"><ele>1030.3333333333335</ele><time>2026-04-09T21:50:34.033Z</time></trkpt><trkpt lat="9.9639849" lon="-84.1284987"><ele>1032.1666666666667</ele><time>2026-04-09T21:50:36.033Z</time></trkpt><trkpt lat="9.9639554" lon="-84.1284414"><ele>1034.0</ele><time>2026-04-09T21:50:37.031Z</time></trkpt><trkpt lat="9.9638974" lon="-84.1283433"><ele>1034.0</ele><time>2026-04-09T21:50:39.033Z</time></trkpt><trkpt lat="9.9638504" lon="-84.1282564"><ele>1034.0</ele><time>2026-04-09T21:50:41.032Z</time></trkpt><trkpt lat="9.9638103" lon="-84.1281845"><ele>1034.0</ele><time>2026-04-09T21:50:43.031Z</time></trkpt><trkpt lat="9.9637668" lon="-84.1281037"><ele>1034.0</ele><time>2026-04-09T21:50:46.032Z</time></trkpt><trkpt lat="9.9637301" lon="-84.12803"><ele>1034.0</ele><time>2026-04-09T21:50:49.033Z</time></trkpt><trkpt lat="9.9636934" lon="-84.1279532"><ele>1034.0</ele><time>2026-04-09T21:50:53.031Z</time></trkpt><trkpt lat="9.9636515" lon="-84.1278814"><ele>1033.7142857142858</ele><time>2026-04-09T21:50:56.033Z</time></trkpt><trkpt lat="9.9636206" lon="-84.1278237"><ele>1033.4285714285716</ele><time>2026-04-09T21:50:59.032Z</time></trkpt><trkpt lat="9.963586" lon="-84.1277697"><ele>1033.142857142857</ele><time>2026-04-09T21:51:04.031Z</time></trkpt><trkpt lat="9.9635428" lon="-84.127703"><ele>1032.857142857143</ele><time>2026-04-09T21:51:08.032Z</time></trkpt><trkpt lat="9.9635103" lon="-84.1276328"><ele>1032.5714285714284</ele><time>2026-04-09T21:51:12.032Z</time></trkpt><trkpt lat="9.9634795" lon="-84.1275701"><ele>1032.2857142857142</ele><time>2026-04-09T21:51:16.032Z</time></trkpt><trkpt lat="9.9634447" lon="-84.1274962"><ele>1032.0</ele><time>2026-04-09T21:51:20.031Z</time></trkpt><trkpt lat="9.9634036" lon="-84.1274308"><ele>1032.9999999999998</ele><time>2026-04-09T21:51:23.032Z</time></trkpt><trkpt lat="9.9633614" lon="-84.1273513"><ele>1034.0</ele><time>2026-04-09T21:51:25.032Z</time></trkpt><trkpt lat="9.9633297" lon="-84.1272873"><ele>1035.0</ele><time>2026-04-09T21:51:27.031Z</time></trkpt><trkpt lat="9.9633001" lon="-84.127227"><ele>1036.0</ele><time>2026-04-09T21:51:29.033Z</time></trkpt><trkpt lat="9.9632688" lon="-84.1271681"><ele>1037.0</ele><time>2026-04-09T21:51:32.032Z</time></trkpt><trkpt lat="9.9632246" lon="-84.1270853"><ele>1037.9999999999998</ele><time>2026-04-09T21:51:35.032Z</time></trkpt><trkpt lat="9.9631883" lon="-84.1270308"><ele>1039.0</ele><time>2026-04-09T21:51:37.032Z</time></trkpt><trkpt lat="9.9631521" lon="-84.1269637"><ele>1038.9999999999998</ele><time>2026-04-09T21:51:40.031Z</time></trkpt><trkpt lat="9.9631143" lon="-84.1269004"><ele>1039.0</ele><time>2026-04-09T21:51:43.032Z</time></trkpt><trkpt lat="9.9630759" lon="-84.1268389"><ele>1039.0</ele><time>2026-04-09T21:51:46.032Z</time></trkpt><trkpt lat="9.9630398" lon="-84.126786"><ele>1039.0</ele><time>2026-04-09T21:51:49.032Z</time></trkpt><trkpt lat="9.9629982" lon="-84.1267232"><ele>1039.0</ele><time>2026-04-09T21:51:53.033Z</time></trkpt><trkpt lat="9.9629683" lon="-84.1266568"><ele>1038.9999999999998</ele><time>2026-04-09T21:51:58.031Z</time></trkpt><trkpt lat="9.962936" lon="-84.1266019"><ele>1039.0</ele><time>2026-04-09T21:52:02.031Z</time></trkpt><trkpt lat="9.9628925" lon="-84.1265198"><ele>1038.8</ele><time>2026-04-09T21:52:05.031Z</time></trkpt><trkpt lat="9.9628466" lon="-84.1264319"><ele>1038.6000000000001</ele><time>2026-04-09T21:52:07.032Z</time></trkpt><trkpt lat="9.9628079" lon="-84.1263315"><ele>1038.4</ele><time>2026-04-09T21:52:09.031Z</time></trkpt><trkpt lat="9.9627504" lon="-84.1262513"><ele>1038.2</ele><time>2026-04-09T21:52:11.031Z</time></trkpt><trkpt lat="9.9627166" lon="-84.1261813"><ele>1038.0</ele><time>2026-04-09T21:52:13.032Z</time></trkpt><trkpt lat="9.9626758" lon="-84.1261096"><ele>1038.0</ele><time>2026-04-09T21:52:16.032Z</time></trkpt><trkpt lat="9.9626255" lon="-84.1260111"><ele>1038.0</ele><time>2026-04-09T21:52:18.032Z</time></trkpt><trkpt lat="9.9625625" lon="-84.1258998"><ele>1038.0</ele><time>2026-04-09T21:52:20.032Z</time></trkpt><trkpt lat="9.9625322" lon="-84.1258373"><ele>1038.0</ele><time>2026-04-09T21:52:21.032Z</time></trkpt><trkpt lat="9.962501" lon="-84.1257804"><ele>1038.0</ele><time>2026-04-09T21:52:22.032Z</time></trkpt><trkpt lat="9.9624395" lon="-84.1256747"><ele>1038.6666666666667</ele><time>2026-04-09T21:52:24.032Z</time></trkpt><trkpt lat="9.9624115" lon="-84.1256165"><ele>1039.3333333333333</ele><time>2026-04-09T21:52:25.032Z</time></trkpt><trkpt lat="9.9623644" lon="-84.1255253"><ele>1040.0</ele><time>2026-04-09T21:52:27.032Z</time></trkpt><trkpt lat="9.9623136" lon="-84.125438"><ele>1040.6666666666665</ele><time>2026-04-09T21:52:29.032Z</time></trkpt><trkpt lat="9.9622832" lon="-84.1253797"><ele>1041.3333333333333</ele><time>2026-04-09T21:52:30.032Z</time></trkpt><trkpt lat="9.9622506" lon="-84.1253125"><ele>1042.0</ele><time>2026-04-09T21:52:31.031Z</time></trkpt><trkpt lat="9.9622142" lon="-84.1252413"><ele>1042.0</ele><time>2026-04-09T21:52:32.032Z</time></trkpt><trkpt lat="9.9621775" lon="-84.1251731"><ele>1042.0</ele><time>2026-04-09T21:52:33.032Z</time></trkpt><trkpt lat="9.9621424" lon="-84.1251112"><ele>1042.0</ele><time>2026-04-09T21:52:34.032Z</time></trkpt><trkpt lat="9.9620998" lon="-84.1250458"><ele>1042.0</ele><time>2026-04-09T21:52:35.032Z</time></trkpt><trkpt lat="9.9620632" lon="-84.1249774"><ele>1042.0</ele><time>2026-04-09T21:52:36.03Z</time></trkpt><trkpt lat="9.9620262" lon="-84.1249116"><ele>1042.0</ele><time>2026-04-09T21:52:37.031Z</time></trkpt><trkpt lat="9.9619874" lon="-84.1248357"><ele>1042.3333333333333</ele><time>2026-04-09T21:52:38.031Z</time></trkpt><trkpt lat="9.9619476" lon="-84.124766"><ele>1042.6666666666665</ele><time>2026-04-09T21:52:39.032Z</time></trkpt><trkpt lat="9.9619167" lon="-84.1247033"><ele>1043.0</ele><time>2026-04-09T21:52:40.031Z</time></trkpt><trkpt lat="9.9618815" lon="-84.124648"><ele>1043.3333333333333</ele><time>2026-04-09T21:52:41.031Z</time></trkpt><trkpt lat="9.9618481" lon="-84.1245932"><ele>1043.6666666666667</ele><time>2026-04-09T21:52:42.031Z</time></trkpt><trkpt lat="9.9617949" lon="-84.124493"><ele>1044.0</ele><time>2026-04-09T21:52:44.032Z</time></trkpt><trkpt lat="9.9617459" lon="-84.1244083"><ele>1044.0</ele><time>2026-04-09T21:52:46.032Z</time></trkpt><trkpt lat="9.9617088" lon="-84.1243354"><ele>1044.0</ele><time>2026-04-09T21:52:48.031Z</time></trkpt><trkpt lat="9.9616709" lon="-84.124263"><ele>1044.0</ele><time>2026-04-09T21:52:50.032Z</time></trkpt><trkpt lat="9.9616218" lon="-84.12417"><ele>1044.0</ele><time>2026-04-09T21:52:52.03Z</time></trkpt><trkpt lat="9.9615883" lon="-84.1240997"><ele>1044.0</ele><time>2026-04-09T21:52:54.031Z</time></trkpt><trkpt lat="9.9615455" lon="-84.1240163"><ele>1044.0</ele><time>2026-04-09T21:52:57.03Z</time></trkpt><trkpt lat="9.9614899" lon="-84.1239248"><ele>1044.1666666666667</ele><time>2026-04-09T21:52:59.032Z</time></trkpt><trkpt lat="9.9614437" lon="-84.1238414"><ele>1044.3333333333333</ele><time>2026-04-09T21:53:01.03Z</time></trkpt><trkpt lat="9.9614163" lon="-84.1237829"><ele>1044.5</ele><time>2026-04-09T21:53:03.032Z</time></trkpt><trkpt lat="9.9613849" lon="-84.123717"><ele>1044.6666666666665</ele><time>2026-04-09T21:53:05.032Z</time></trkpt><trkpt lat="9.9613261" lon="-84.1236164"><ele>1044.8333333333333</ele><time>2026-04-09T21:53:07.032Z</time></trkpt><trkpt lat="9.9612861" lon="-84.1235606"><ele>1045.0</ele><time>2026-04-09T21:53:08.031Z</time></trkpt><trkpt lat="9.961253" lon="-84.1235052"><ele>1045.0</ele><time>2026-04-09T21:53:09.032Z</time></trkpt><trkpt lat="9.9612179" lon="-84.1234444"><ele>1045.0</ele><time>2026-04-09T21:53:10.032Z</time></trkpt><trkpt lat="9.9611857" lon="-84.1233811"><ele>1045.0</ele><time>2026-04-09T21:53:11.032Z</time></trkpt><trkpt lat="9.9611555" lon="-84.123323"><ele>1045.0</ele><time>2026-04-09T21:53:12.031Z</time></trkpt><trkpt lat="9.961089" lon="-84.1232162"><ele>1045.0</ele><time>2026-04-09T21:53:14.031Z</time></trkpt><trkpt lat="9.9610508" lon="-84.1231427"><ele>1045.0</ele><time>2026-04-09T21:53:16.032Z</time></trkpt><trkpt lat="9.9610103" lon="-84.1230585"><ele>1045.0</ele><time>2026-04-09T21:53:19.031Z</time></trkpt><trkpt lat="9.9609714" lon="-84.1229844"><ele>1045.0</ele><time>2026-04-09T21:53:21.032Z</time></trkpt><trkpt lat="9.9609285" lon="-84.1228974"><ele>1045.0</ele><time>2026-04-09T21:53:23.032Z</time></trkpt><trkpt lat="9.9608857" lon="-84.1228183"><ele>1045.0</ele><time>2026-04-09T21:53:25.031Z</time></trkpt><trkpt lat="9.9608291" lon="-84.1227299"><ele>1045.0</ele><time>2026-04-09T21:53:27.031Z</time></trkpt><trkpt lat="9.9607786" lon="-84.1226354"><ele>1045.0</ele><time>2026-04-09T21:53:29.032Z</time></trkpt><trkpt lat="9.9607305" lon="-84.1225439"><ele>1045.0</ele><time>2026-04-09T21:53:31.032Z</time></trkpt><trkpt lat="9.9606769" lon="-84.122443"><ele>1045.0</ele><time>2026-04-09T21:53:33.031Z</time></trkpt><trkpt lat="9.9606454" lon="-84.1223852"><ele>1045.0</ele><time>2026-04-09T21:53:34.031Z</time></trkpt><trkpt lat="9.960585" lon="-84.1222817"><ele>1045.0</ele><time>2026-04-09T21:53:36.032Z</time></trkpt><trkpt lat="9.9605477" lon="-84.1222139"><ele>1044.6</ele><time>2026-04-09T21:53:38.03Z</time></trkpt><trkpt lat="9.9605049" lon="-84.1221574"><ele>1044.2</ele><time>2026-04-09T21:53:41.031Z</time></trkpt><trkpt lat="9.9604814" lon="-84.1220943"><ele>1043.8</ele><time>2026-04-09T21:53:43.03Z</time></trkpt><trkpt lat="9.9604459" lon="-84.1220173"><ele>1043.4</ele><time>2026-04-09T21:53:45.031Z</time></trkpt><trkpt lat="9.9604022" lon="-84.1219187"><ele>1043.0</ele><time>2026-04-09T21:53:47.032Z</time></trkpt><trkpt lat="9.9603335" lon="-84.1218084"><ele>1043.0</ele><time>2026-04-09T21:53:49.032Z</time></trkpt><trkpt lat="9.9603056" lon="-84.1217505"><ele>1043.0</ele><time>2026-04-09T21:53:50.031Z</time></trkpt><trkpt lat="9.9602566" lon="-84.1216583"><ele>1043.0</ele><time>2026-04-09T21:53:52.029Z</time></trkpt><trkpt lat="9.960215" lon="-84.1215825"><ele>1043.0</ele><time>2026-04-09T21:53:54.032Z</time></trkpt><trkpt lat="9.9601823" lon="-84.1215047"><ele>1043.0</ele><time>2026-04-09T21:53:56.031Z</time></trkpt><trkpt lat="9.9601426" lon="-84.1214389"><ele>1043.0</ele><time>2026-04-09T21:53:58.031Z</time></trkpt><trkpt lat="9.9600939" lon="-84.1213572"><ele>1043.4</ele><time>2026-04-09T21:54:00.03Z</time></trkpt><trkpt lat="9.9600351" lon="-84.1212467"><ele>1043.8</ele><time>2026-04-09T21:54:02.032Z</time></trkpt><trkpt lat="9.9600107" lon="-84.1211867"><ele>1044.2</ele><time>2026-04-09T21:54:03.03Z</time></trkpt><trkpt lat="9.9599542" lon="-84.1210812"><ele>1044.6</ele><time>2026-04-09T21:54:05.031Z</time></trkpt><trkpt lat="9.9598973" lon="-84.1209617"><ele>1045.0</ele><time>2026-04-09T21:54:07.031Z</time></trkpt><trkpt lat="9.959863" lon="-84.1209036"><ele>1046.2</ele><time>2026-04-09T21:54:08.03Z</time></trkpt><trkpt lat="9.9598213" lon="-84.1208428"><ele>1047.4</ele><time>2026-04-09T21:54:09.032Z</time></trkpt><trkpt lat="9.9597611" lon="-84.1207422"><ele>1048.6</ele><time>2026-04-09T21:54:11.032Z</time></trkpt><trkpt lat="9.9597061" lon="-84.1206395"><ele>1049.8</ele><time>2026-04-09T21:54:13.032Z</time></trkpt><trkpt lat="9.9596559" lon="-84.1205336"><ele>1051.0</ele><time>2026-04-09T21:54:15.032Z</time></trkpt><trkpt lat="9.959622" lon="-84.1204658"><ele>1051.3999999999999</ele><time>2026-04-09T21:54:17.03Z</time></trkpt><trkpt lat="9.9595736" lon="-84.1203724"><ele>1051.8</ele><time>2026-04-09T21:54:19.032Z</time></trkpt><trkpt lat="9.959503" lon="-84.1202568"><ele>1052.1999999999998</ele><time>2026-04-09T21:54:21.031Z</time></trkpt><trkpt lat="9.9594649" lon="-84.1201876"><ele>1052.6</ele><time>2026-04-09T21:54:22.032Z</time></trkpt><trkpt lat="9.9594316" lon="-84.1201194"><ele>1053.0</ele><time>2026-04-09T21:54:23.031Z</time></trkpt><trkpt lat="9.9593876" lon="-84.1200502"><ele>1052.9999999999998</ele><time>2026-04-09T21:54:24.031Z</time></trkpt><trkpt lat="9.9593513" lon="-84.1199834"><ele>1053.0</ele><time>2026-04-09T21:54:25.032Z</time></trkpt><trkpt lat="9.9593199" lon="-84.1199196"><ele>1053.0</ele><time>2026-04-09T21:54:26.031Z</time></trkpt><trkpt lat="9.9592933" lon="-84.1198594"><ele>1053.0</ele><time>2026-04-09T21:54:27.031Z</time></trkpt><trkpt lat="9.9592535" lon="-84.1197935"><ele>1053.0</ele><time>2026-04-09T21:54:28.031Z</time></trkpt><trkpt lat="9.95922" lon="-84.1197262"><ele>1052.9999999999998</ele><time>2026-04-09T21:54:29.03Z</time></trkpt><trkpt lat="9.959178" lon="-84.1196558"><ele>1053.0</ele><time>2026-04-09T21:54:30.03Z</time></trkpt><trkpt lat="9.9591373" lon="-84.1195804"><ele>1053.6666666666667</ele><time>2026-04-09T21:54:31.032Z</time></trkpt><trkpt lat="9.9591005" lon="-84.1195118"><ele>1054.3333333333333</ele><time>2026-04-09T21:54:32.032Z</time></trkpt><trkpt lat="9.9590659" lon="-84.119449"><ele>1055.0</ele><time>2026-04-09T21:54:33.032Z</time></trkpt><trkpt lat="9.9590333" lon="-84.1193942"><ele>1055.6666666666665</ele><time>2026-04-09T21:54:34.032Z</time></trkpt><trkpt lat="9.9589824" lon="-84.1192965"><ele>1056.3333333333333</ele><time>2026-04-09T21:54:36.031Z</time></trkpt><trkpt lat="9.958942" lon="-84.1192166"><ele>1057.0</ele><time>2026-04-09T21:54:38.031Z</time></trkpt><trkpt lat="9.9588838" lon="-84.1191286"><ele>1057.1666666666665</ele><time>2026-04-09T21:54:41.03Z</time></trkpt><trkpt lat="9.9588444" lon="-84.1190472"><ele>1057.3333333333333</ele><time>2026-04-09T21:54:43.031Z</time></trkpt><trkpt lat="9.958809" lon="-84.1189756"><ele>1057.5</ele><time>2026-04-09T21:54:45.031Z</time></trkpt><trkpt lat="9.9587697" lon="-84.1189083"><ele>1057.6666666666667</ele><time>2026-04-09T21:54:47.031Z</time></trkpt><trkpt lat="9.9587385" lon="-84.1188506"><ele>1057.8333333333335</ele><time>2026-04-09T21:54:50.03Z</time></trkpt><trkpt lat="9.9587011" lon="-84.1187883"><ele>1058.0</ele><time>2026-04-09T21:54:55.031Z</time></trkpt><trkpt lat="9.9586605" lon="-84.118714"><ele>1058.0</ele><time>2026-04-09T21:55:00.031Z</time></trkpt><trkpt lat="9.9586191" lon="-84.118642"><ele>1058.0</ele><time>2026-04-09T21:55:03.032Z</time></trkpt><trkpt lat="9.9585718" lon="-84.1185667"><ele>1058.0</ele><time>2026-04-09T21:55:06.032Z</time></trkpt><trkpt lat="9.9585325" lon="-84.1184994"><ele>1058.0</ele><time>2026-04-09T21:55:09.03Z</time></trkpt><trkpt lat="9.9585061" lon="-84.1184406"><ele>1058.0</ele><time>2026-04-09T21:55:11.031Z</time></trkpt><trkpt lat="9.9584517" lon="-84.1183647"><ele>1058.0</ele><time>2026-04-09T21:55:13.031Z</time></trkpt><trkpt lat="9.9584125" lon="-84.1183044"><ele>1058.0</ele><time>2026-04-09T21:55:15.031Z</time></trkpt><trkpt lat="9.9583723" lon="-84.1182416"><ele>1058.0</ele><time>2026-04-09T21:55:17.031Z</time></trkpt><trkpt lat="9.9583158" lon="-84.1181655"><ele>1058.0</ele><time>2026-04-09T21:55:19.032Z</time></trkpt><trkpt lat="9.9582628" lon="-84.1180848"><ele>1058.0</ele><time>2026-04-09T21:55:21.031Z</time></trkpt><trkpt lat="9.9582241" lon="-84.1180249"><ele>1058.0</ele><time>2026-04-09T21:55:23.031Z</time></trkpt><trkpt lat="9.9581846" lon="-84.1179556"><ele>1058.0</ele><time>2026-04-09T21:55:26.031Z</time></trkpt><trkpt lat="9.9581379" lon="-84.1179035"><ele>1058.4</ele><time>2026-04-09T21:55:30.032Z</time></trkpt><trkpt lat="9.9580916" lon="-84.117847"><ele>1058.8</ele><time>2026-04-09T21:55:32.031Z</time></trkpt><trkpt lat="9.9580123" lon="-84.1177508"><ele>1059.2</ele><time>2026-04-09T21:55:34.031Z</time></trkpt><trkpt lat="9.9579422" lon="-84.1176569"><ele>1059.6</ele><time>2026-04-09T21:55:36.03Z</time></trkpt><trkpt lat="9.9578833" lon="-84.1175831"><ele>1060.0</ele><time>2026-04-09T21:55:38.03Z</time></trkpt><trkpt lat="9.9578168" lon="-84.1175071"><ele>1060.0</ele><time>2026-04-09T21:55:40.031Z</time></trkpt><trkpt lat="9.957763" lon="-84.1174485"><ele>1060.0</ele><time>2026-04-09T21:55:43.031Z</time></trkpt><trkpt lat="9.957707" lon="-84.1173814"><ele>1060.0</ele><time>2026-04-09T21:55:46.03Z</time></trkpt><trkpt lat="9.957639" lon="-84.117298"><ele>1060.0</ele><time>2026-04-09T21:55:49.031Z</time></trkpt><trkpt lat="9.957562" lon="-84.1172009"><ele>1060.0</ele><time>2026-04-09T21:55:51.031Z</time></trkpt><trkpt lat="9.9575066" lon="-84.1171496"><ele>1060.5</ele><time>2026-04-09T21:55:52.031Z</time></trkpt><trkpt lat="9.9574515" lon="-84.1170909"><ele>1061.0</ele><time>2026-04-09T21:55:53.031Z</time></trkpt><trkpt lat="9.95739" lon="-84.117029"><ele>1061.5</ele><time>2026-04-09T21:55:54.032Z</time></trkpt><trkpt lat="9.95732" lon="-84.1169591"><ele>1062.0</ele><time>2026-04-09T21:55:55.031Z</time></trkpt><trkpt lat="9.957254" lon="-84.1168944"><ele>1062.5</ele><time>2026-04-09T21:55:56.032Z</time></trkpt><trkpt lat="9.9571964" lon="-84.1168365"><ele>1063.0</ele><time>2026-04-09T21:55:57.031Z</time></trkpt><trkpt lat="9.9571434" lon="-84.1167854"><ele>1063.0</ele><time>2026-04-09T21:55:58.032Z</time></trkpt><trkpt lat="9.9570907" lon="-84.1167336"><ele>1063.0</ele><time>2026-04-09T21:55:59.031Z</time></trkpt><trkpt lat="9.9570433" lon="-84.1166878"><ele>1063.0</ele><time>2026-04-09T21:56:00.032Z</time></trkpt><trkpt lat="9.9569955" lon="-84.1166448"><ele>1063.0</ele><time>2026-04-09T21:56:01.03Z</time></trkpt><trkpt lat="9.9569027" lon="-84.1165587"><ele>1063.0</ele><time>2026-04-09T21:56:03.031Z</time></trkpt><trkpt lat="9.956846" lon="-84.1165013"><ele>1063.0</ele><time>2026-04-09T21:56:04.032Z</time></trkpt><trkpt lat="9.9567789" lon="-84.1164416"><ele>1063.8</ele><time>2026-04-09T21:56:05.031Z</time></trkpt><trkpt lat="9.9567024" lon="-84.1163811"><ele>1064.6</ele><time>2026-04-09T21:56:06.03Z</time></trkpt><trkpt lat="9.9566239" lon="-84.1163188"><ele>1065.4</ele><time>2026-04-09T21:56:07.031Z</time></trkpt><trkpt lat="9.9565437" lon="-84.1162513"><ele>1066.2</ele><time>2026-04-09T21:56:08.031Z</time></trkpt><trkpt lat="9.9564662" lon="-84.1161897"><ele>1067.0</ele><time>2026-04-09T21:56:09.03Z</time></trkpt><trkpt lat="9.9563862" lon="-84.1161278"><ele>1067.0</ele><time>2026-04-09T21:56:10.031Z</time></trkpt><trkpt lat="9.9563154" lon="-84.1160713"><ele>1067.0</ele><time>2026-04-09T21:56:11.031Z</time></trkpt><trkpt lat="9.9562543" lon="-84.1160187"><ele>1067.0</ele><time>2026-04-09T21:56:12.032Z</time></trkpt><trkpt lat="9.9561891" lon="-84.1159699"><ele>1067.0</ele><time>2026-04-09T21:56:13.031Z</time></trkpt><trkpt lat="9.9561207" lon="-84.1159205"><ele>1067.0</ele><time>2026-04-09T21:56:14.031Z</time></trkpt><trkpt lat="9.9560516" lon="-84.1158729"><ele>1067.0</ele><time>2026-04-09T21:56:15.031Z</time></trkpt><trkpt lat="9.9559649" lon="-84.1158157"><ele>1067.0</ele><time>2026-04-09T21:56:16.031Z</time></trkpt><trkpt lat="9.9558826" lon="-84.1157583"><ele>1067.0</ele><time>2026-04-09T21:56:17.029Z</time></trkpt><trkpt lat="9.9557969" lon="-84.115702"><ele>1067.0</ele><time>2026-04-09T21:56:18.032Z</time></trkpt><trkpt lat="9.9557231" lon="-84.1156461"><ele>1067.0</ele><time>2026-04-09T21:56:19.031Z</time></trkpt><trkpt lat="9.9556485" lon="-84.1155922"><ele>1067.0</ele><time>2026-04-09T21:56:20.032Z</time></trkpt><trkpt lat="9.9555725" lon="-84.1155421"><ele>1067.5</ele><time>2026-04-09T21:56:21.031Z</time></trkpt><trkpt lat="9.9555032" lon="-84.1154862"><ele>1068.0</ele><time>2026-04-09T21:56:22.03Z</time></trkpt><trkpt lat="9.9554389" lon="-84.1154412"><ele>1068.5</ele><time>2026-04-09T21:56:23.031Z</time></trkpt><trkpt lat="9.9553737" lon="-84.1153948"><ele>1069.0</ele><time>2026-04-09T21:56:24.031Z</time></trkpt><trkpt lat="9.9552958" lon="-84.1153471"><ele>1069.5</ele><time>2026-04-09T21:56:25.03Z</time></trkpt><trkpt lat="9.9552202" lon="-84.1152965"><ele>1070.0</ele><time>2026-04-09T21:56:26.031Z</time></trkpt><trkpt lat="9.9551319" lon="-84.1152336"><ele>1070.0</ele><time>2026-04-09T21:56:27.03Z</time></trkpt><trkpt lat="9.9550379" lon="-84.1151717"><ele>1070.0</ele><time>2026-04-09T21:56:28.03Z</time></trkpt><trkpt lat="9.9549417" lon="-84.1151057"><ele>1070.0</ele><time>2026-04-09T21:56:29.031Z</time></trkpt><trkpt lat="9.9548506" lon="-84.1150397"><ele>1070.0</ele><time>2026-04-09T21:56:30.032Z</time></trkpt><trkpt lat="9.9547689" lon="-84.1149782"><ele>1070.0</ele><time>2026-04-09T21:56:31.031Z</time></trkpt><trkpt lat="9.9546912" lon="-84.11493"><ele>1070.2</ele><time>2026-04-09T21:56:32.031Z</time></trkpt><trkpt lat="9.9546148" lon="-84.1148717"><ele>1070.4</ele><time>2026-04-09T21:56:33.031Z</time></trkpt><trkpt lat="9.9545281" lon="-84.1148102"><ele>1070.6</ele><time>2026-04-09T21:56:34.03Z</time></trkpt><trkpt lat="9.9544438" lon="-84.1147501"><ele>1070.8</ele><time>2026-04-09T21:56:35.031Z</time></trkpt><trkpt lat="9.9543613" lon="-84.1146888"><ele>1071.0</ele><time>2026-04-09T21:56:36.031Z</time></trkpt><trkpt lat="9.9542848" lon="-84.1146358"><ele>1071.0</ele><time>2026-04-09T21:56:37.03Z</time></trkpt><trkpt lat="9.9542101" lon="-84.1145843"><ele>1071.0</ele><time>2026-04-09T21:56:38.031Z</time></trkpt><trkpt lat="9.9541269" lon="-84.114529"><ele>1071.0</ele><time>2026-04-09T21:56:39.031Z</time></trkpt><trkpt lat="9.9540253" lon="-84.114459"><ele>1071.0</ele><time>2026-04-09T21:56:40.031Z</time></trkpt><trkpt lat="9.953938" lon="-84.1144016"><ele>1071.0</ele><time>2026-04-09T21:56:41.031Z</time></trkpt><trkpt lat="9.9538625" lon="-84.1143483"><ele>1071.1666666666667</ele><time>2026-04-09T21:56:42.031Z</time></trkpt><trkpt lat="9.9537928" lon="-84.1142981"><ele>1071.3333333333333</ele><time>2026-04-09T21:56:43.03Z</time></trkpt><trkpt lat="9.9537329" lon="-84.114255"><ele>1071.5</ele><time>2026-04-09T21:56:44.031Z</time></trkpt><trkpt lat="9.953663" lon="-84.1142055"><ele>1071.6666666666665</ele><time>2026-04-09T21:56:45.03Z</time></trkpt><trkpt lat="9.9535853" lon="-84.1141522"><ele>1071.8333333333333</ele><time>2026-04-09T21:56:46.031Z</time></trkpt><trkpt lat="9.9534955" lon="-84.1140961"><ele>1072.0</ele><time>2026-04-09T21:56:47.03Z</time></trkpt><trkpt lat="9.9534042" lon="-84.1140351"><ele>1072.6</ele><time>2026-04-09T21:56:48.031Z</time></trkpt><trkpt lat="9.953322" lon="-84.1139767"><ele>1073.2</ele><time>2026-04-09T21:56:49.031Z</time></trkpt><trkpt lat="9.9532445" lon="-84.1139249"><ele>1073.8</ele><time>2026-04-09T21:56:50.031Z</time></trkpt><trkpt lat="9.9531671" lon="-84.1138678"><ele>1074.4</ele><time>2026-04-09T21:56:51.031Z</time></trkpt><trkpt lat="9.9530992" lon="-84.1138143"><ele>1075.0</ele><time>2026-04-09T21:56:52.03Z</time></trkpt><trkpt lat="9.9530234" lon="-84.113756"><ele>1075.0</ele><time>2026-04-09T21:56:53.031Z</time></trkpt><trkpt lat="9.9529321" lon="-84.1137014"><ele>1075.0</ele><time>2026-04-09T21:56:54.03Z</time></trkpt><trkpt lat="9.9528336" lon="-84.1136352"><ele>1075.0</ele><time>2026-04-09T21:56:55.031Z</time></trkpt><trkpt lat="9.9527227" lon="-84.11356"><ele>1075.0</ele><time>2026-04-09T21:56:56.031Z</time></trkpt><trkpt lat="9.9526207" lon="-84.1134821"><ele>1075.0</ele><time>2026-04-09T21:56:57.031Z</time></trkpt><trkpt lat="9.9525168" lon="-84.1134142"><ele>1075.0</ele><time>2026-04-09T21:56:58.031Z</time></trkpt><trkpt lat="9.952426" lon="-84.1133446"><ele>1075.0</ele><time>2026-04-09T21:56:59.031Z</time></trkpt><trkpt lat="9.9523371" lon="-84.1132853"><ele>1075.0</ele><time>2026-04-09T21:57:00.031Z</time></trkpt><trkpt lat="9.9522492" lon="-84.1132293"><ele>1075.0</ele><time>2026-04-09T21:57:01.031Z</time></trkpt><trkpt lat="9.952178" lon="-84.1131794"><ele>1075.0</ele><time>2026-04-09T21:57:02.031Z</time></trkpt><trkpt lat="9.9521056" lon="-84.1131287"><ele>1075.0</ele><time>2026-04-09T21:57:03.031Z</time></trkpt><trkpt lat="9.9520373" lon="-84.1130807"><ele>1075.0</ele><time>2026-04-09T21:57:04.031Z</time></trkpt><trkpt lat="9.9519789" lon="-84.1130265"><ele>1075.0</ele><time>2026-04-09T21:57:05.031Z</time></trkpt><trkpt lat="9.9518995" lon="-84.1129789"><ele>1075.0</ele><time>2026-04-09T21:57:06.031Z</time></trkpt><trkpt lat="9.9518291" lon="-84.112927"><ele>1075.0</ele><time>2026-04-09T21:57:07.031Z</time></trkpt><trkpt lat="9.9517637" lon="-84.1128766"><ele>1075.5</ele><time>2026-04-09T21:57:08.031Z</time></trkpt><trkpt lat="9.9517001" lon="-84.1128343"><ele>1076.0</ele><time>2026-04-09T21:57:09.031Z</time></trkpt><trkpt lat="9.9516286" lon="-84.1127868"><ele>1076.5</ele><time>2026-04-09T21:57:10.031Z</time></trkpt><trkpt lat="9.9515515" lon="-84.1127306"><ele>1077.0</ele><time>2026-04-09T21:57:11.031Z</time></trkpt><trkpt lat="9.9514717" lon="-84.1126781"><ele>1077.5</ele><time>2026-04-09T21:57:12.03Z</time></trkpt><trkpt lat="9.9513905" lon="-84.1126314"><ele>1078.0</ele><time>2026-04-09T21:57:13.031Z</time></trkpt><trkpt lat="9.9513254" lon="-84.1125878"><ele>1078.0</ele><time>2026-04-09T21:57:14.031Z</time></trkpt><trkpt lat="9.951254" lon="-84.1125355"><ele>1078.0</ele><time>2026-04-09T21:57:15.03Z</time></trkpt><trkpt lat="9.951182" lon="-84.11248"><ele>1078.0</ele><time>2026-04-09T21:57:16.031Z</time></trkpt><trkpt lat="9.9511126" lon="-84.1124309"><ele>1078.0</ele><time>2026-04-09T21:57:17.031Z</time></trkpt><trkpt lat="9.9510462" lon="-84.1123883"><ele>1078.0</ele><time>2026-04-09T21:57:18.031Z</time></trkpt><trkpt lat="9.950981" lon="-84.112344"><ele>1078.0</ele><time>2026-04-09T21:57:19.031Z</time></trkpt><trkpt lat="9.9509175" lon="-84.1122988"><ele>1078.8333333333333</ele><time>2026-04-09T21:57:20.03Z</time></trkpt><trkpt lat="9.9508617" lon="-84.1122601"><ele>1079.6666666666665</ele><time>2026-04-09T21:57:21.031Z</time></trkpt><trkpt lat="9.9508032" lon="-84.1122157"><ele>1080.5</ele><time>2026-04-09T21:57:22.031Z</time></trkpt><trkpt lat="9.9507479" lon="-84.1121725"><ele>1081.3333333333333</ele><time>2026-04-09T21:57:23.031Z</time></trkpt><trkpt lat="9.9506813" lon="-84.1121332"><ele>1082.1666666666667</ele><time>2026-04-09T21:57:24.03Z</time></trkpt><trkpt lat="9.950613" lon="-84.1120848"><ele>1083.0</ele><time>2026-04-09T21:57:25.031Z</time></trkpt><trkpt lat="9.9505323" lon="-84.1120323"><ele>1083.0</ele><time>2026-04-09T21:57:26.03Z</time></trkpt><trkpt lat="9.9504652" lon="-84.1119735"><ele>1083.0</ele><time>2026-04-09T21:57:27.03Z</time></trkpt><trkpt lat="9.9503687" lon="-84.1119158"><ele>1083.0</ele><time>2026-04-09T21:57:28.031Z</time></trkpt><trkpt lat="9.9502978" lon="-84.1118684"><ele>1083.0</ele><time>2026-04-09T21:57:29.031Z</time></trkpt><trkpt lat="9.9502365" lon="-84.1118177"><ele>1083.0</ele><time>2026-04-09T21:57:30.029Z</time></trkpt><trkpt lat="9.9501742" lon="-84.1117727"><ele>1083.0</ele><time>2026-04-09T21:57:31.03Z</time></trkpt><trkpt lat="9.9501112" lon="-84.1117279"><ele>1083.0</ele><time>2026-04-09T21:57:32.03Z</time></trkpt><trkpt lat="9.9500544" lon="-84.1116887"><ele>1083.0</ele><time>2026-04-09T21:57:33.031Z</time></trkpt><trkpt lat="9.9499515" lon="-84.1116147"><ele>1083.0</ele><time>2026-04-09T21:57:35.03Z</time></trkpt><trkpt lat="9.9498973" lon="-84.1115774"><ele>1083.0</ele><time>2026-04-09T21:57:36.031Z</time></trkpt><trkpt lat="9.9498426" lon="-84.1115406"><ele>1083.0</ele><time>2026-04-09T21:57:37.03Z</time></trkpt><trkpt lat="9.9497841" lon="-84.1115094"><ele>1083.0</ele><time>2026-04-09T21:57:38.031Z</time></trkpt><trkpt lat="9.9497341" lon="-84.1114673"><ele>1083.8</ele><time>2026-04-09T21:57:39.031Z</time></trkpt><trkpt lat="9.9496755" lon="-84.1114276"><ele>1084.6</ele><time>2026-04-09T21:57:40.03Z</time></trkpt><trkpt lat="9.9495748" lon="-84.1113649"><ele>1085.4</ele><time>2026-04-09T21:57:42.03Z</time></trkpt><trkpt lat="9.949498" lon="-84.1113085"><ele>1086.2</ele><time>2026-04-09T21:57:44.031Z</time></trkpt><trkpt lat="9.9494062" lon="-84.1112474"><ele>1087.0</ele><time>2026-04-09T21:57:46.03Z</time></trkpt><trkpt lat="9.9493263" lon="-84.1111937"><ele>1087.0</ele><time>2026-04-09T21:57:48.03Z</time></trkpt><trkpt lat="9.9492431" lon="-84.1111364"><ele>1087.0</ele><time>2026-04-09T21:57:50.031Z</time></trkpt><trkpt lat="9.9491871" lon="-84.1111016"><ele>1087.0</ele><time>2026-04-09T21:57:51.031Z</time></trkpt><trkpt lat="9.9490717" lon="-84.111021"><ele>1087.0</ele><time>2026-04-09T21:57:53.031Z</time></trkpt><trkpt lat="9.9490076" lon="-84.1109804"><ele>1087.0</ele><time>2026-04-09T21:57:54.031Z</time></trkpt><trkpt lat="9.9489416" lon="-84.1109315"><ele>1087.6666666666665</ele><time>2026-04-09T21:57:55.03Z</time></trkpt><trkpt lat="9.9488777" lon="-84.110884"><ele>1088.3333333333333</ele><time>2026-04-09T21:57:56.03Z</time></trkpt><trkpt lat="9.9488112" lon="-84.110843"><ele>1089.0</ele><time>2026-04-09T21:57:57.03Z</time></trkpt><trkpt lat="9.948752" lon="-84.1108009"><ele>1089.6666666666667</ele><time>2026-04-09T21:57:58.031Z</time></trkpt><trkpt lat="9.9486667" lon="-84.1107521"><ele>1090.3333333333335</ele><time>2026-04-09T21:57:59.031Z</time></trkpt><trkpt lat="9.9485746" lon="-84.1107"><ele>1091.0</ele><time>2026-04-09T21:58:00.031Z</time></trkpt><trkpt lat="9.9484596" lon="-84.1106387"><ele>1092.25</ele><time>2026-04-09T21:58:01.031Z</time></trkpt><trkpt lat="9.9483474" lon="-84.1105716"><ele>1093.5</ele><time>2026-04-09T21:58:02.031Z</time></trkpt><trkpt lat="9.9482378" lon="-84.1104928"><ele>1094.75</ele><time>2026-04-09T21:58:03.03Z</time></trkpt><trkpt lat="9.9481219" lon="-84.1104165"><ele>1096.0</ele><time>2026-04-09T21:58:04.03Z</time></trkpt><trkpt lat="9.9480035" lon="-84.1103308"><ele>1096.0</ele><time>2026-04-09T21:58:05.03Z</time></trkpt><trkpt lat="9.9478897" lon="-84.1102525"><ele>1096.0</ele><time>2026-04-09T21:58:06.03Z</time></trkpt><trkpt lat="9.9477801" lon="-84.1101791"><ele>1096.0</ele><time>2026-04-09T21:58:07.03Z</time></trkpt><trkpt lat="9.9476728" lon="-84.1101069"><ele>1096.0</ele><time>2026-04-09T21:58:08.03Z</time></trkpt><trkpt lat="9.9475628" lon="-84.1100384"><ele>1096.3999999999999</ele><time>2026-04-09T21:58:09.031Z</time></trkpt><trkpt lat="9.9474561" lon="-84.1099837"><ele>1096.8</ele><time>2026-04-09T21:58:10.03Z</time></trkpt><trkpt lat="9.947349" lon="-84.1099516"><ele>1097.1999999999998</ele><time>2026-04-09T21:58:11.03Z</time></trkpt><trkpt lat="9.9472426" lon="-84.1099396"><ele>1097.6</ele><time>2026-04-09T21:58:12.03Z</time></trkpt><trkpt lat="9.9471378" lon="-84.1099566"><ele>1098.0</ele><time>2026-04-09T21:58:13.031Z</time></trkpt><trkpt lat="9.9470372" lon="-84.1099903"><ele>1098.0</ele><time>2026-04-09T21:58:14.031Z</time></trkpt><trkpt lat="9.9469317" lon="-84.1100324"><ele>1098.0</ele><time>2026-04-09T21:58:15.031Z</time></trkpt><trkpt lat="9.9468201" lon="-84.1100936"><ele>1098.0</ele><time>2026-04-09T21:58:16.031Z</time></trkpt><trkpt lat="9.9467044" lon="-84.1101606"><ele>1098.0</ele><time>2026-04-09T21:58:17.031Z</time></trkpt><trkpt lat="9.9465947" lon="-84.1102219"><ele>1098.8</ele><time>2026-04-09T21:58:18.031Z</time></trkpt><trkpt lat="9.9464887" lon="-84.1102823"><ele>1099.6</ele><time>2026-04-09T21:58:19.031Z</time></trkpt><trkpt lat="9.9463918" lon="-84.1103354"><ele>1100.4</ele><time>2026-04-09T21:58:20.031Z</time></trkpt><trkpt lat="9.9463001" lon="-84.1103863"><ele>1101.2</ele><time>2026-04-09T21:58:21.031Z</time></trkpt><trkpt lat="9.9462182" lon="-84.1104375"><ele>1102.0</ele><time>2026-04-09T21:58:22.031Z</time></trkpt><trkpt lat="9.9461544" lon="-84.1104983"><ele>1102.0</ele><time>2026-04-09T21:58:23.031Z</time></trkpt><trkpt lat="9.9461025" lon="-84.1105616"><ele>1102.0</ele><time>2026-04-09T21:58:24.031Z</time></trkpt><trkpt lat="9.9460725" lon="-84.1106252"><ele>1102.0</ele><time>2026-04-09T21:58:25.03Z</time></trkpt><trkpt lat="9.9460492" lon="-84.1107074"><ele>1102.0</ele><time>2026-04-09T21:58:26.031Z</time></trkpt><trkpt lat="9.9460339" lon="-84.1108141"><ele>1102.0</ele><time>2026-04-09T21:58:27.031Z</time></trkpt><trkpt lat="9.9460215" lon="-84.1109428"><ele>1101.25</ele><time>2026-04-09T21:58:28.031Z</time></trkpt><trkpt lat="9.946009" lon="-84.1110841"><ele>1100.5</ele><time>2026-04-09T21:58:29.031Z</time></trkpt><trkpt lat="9.9459968" lon="-84.1112178"><ele>1099.75</ele><time>2026-04-09T21:58:30.031Z</time></trkpt><trkpt lat="9.9459824" lon="-84.1113469"><ele>1099.0</ele><time>2026-04-09T21:58:31.03Z</time></trkpt><trkpt lat="9.945968" lon="-84.1114723"><ele>1099.4</ele><time>2026-04-09T21:58:32.03Z</time></trkpt><trkpt lat="9.9459499" lon="-84.1115835"><ele>1099.8000000000002</ele><time>2026-04-09T21:58:33.031Z</time></trkpt><trkpt lat="9.9459348" lon="-84.1116965"><ele>1100.1999999999998</ele><time>2026-04-09T21:58:34.029Z</time></trkpt><trkpt lat="9.9459208" lon="-84.1117979"><ele>1100.6</ele><time>2026-04-09T21:58:35.031Z</time></trkpt><trkpt lat="9.9459103" lon="-84.1118891"><ele>1101.0</ele><time>2026-04-09T21:58:36.03Z</time></trkpt><trkpt lat="9.9458983" lon="-84.1119753"><ele>1101.0</ele><time>2026-04-09T21:58:37.03Z</time></trkpt><trkpt lat="9.9458889" lon="-84.1120501"><ele>1101.0</ele><time>2026-04-09T21:58:38.031Z</time></trkpt><trkpt lat="9.9458764" lon="-84.1121317"><ele>1101.0</ele><time>2026-04-09T21:58:39.031Z</time></trkpt><trkpt lat="9.9458735" lon="-84.1122156"><ele>1101.0</ele><time>2026-04-09T21:58:40.029Z</time></trkpt><trkpt lat="9.9458707" lon="-84.1122975"><ele>1101.0</ele><time>2026-04-09T21:58:41.031Z</time></trkpt><trkpt lat="9.9458633" lon="-84.1123785"><ele>1101.0</ele><time>2026-04-09T21:58:42.03Z</time></trkpt><trkpt lat="9.9458556" lon="-84.1124447"><ele>1098.3999999999999</ele><time>2026-04-09T21:58:43.03Z</time></trkpt><trkpt lat="9.9458452" lon="-84.1125413"><ele>1095.8</ele><time>2026-04-09T21:58:45.03Z</time></trkpt><trkpt lat="9.9458393" lon="-84.1126186"><ele>1093.1999999999998</ele><time>2026-04-09T21:58:47.031Z</time></trkpt><trkpt lat="9.9458327" lon="-84.1126901"><ele>1090.6</ele><time>2026-04-09T21:58:49.03Z</time></trkpt><trkpt lat="9.9458204" lon="-84.11278"><ele>1088.0</ele><time>2026-04-09T21:58:51.03Z</time></trkpt><trkpt lat="9.9457937" lon="-84.1129115"><ele>1088.0</ele><time>2026-04-09T21:58:53.03Z</time></trkpt><trkpt lat="9.9457721" lon="-84.1130089"><ele>1088.0</ele><time>2026-04-09T21:58:54.03Z</time></trkpt><trkpt lat="9.9457537" lon="-84.1131105"><ele>1088.0</ele><time>2026-04-09T21:58:55.031Z</time></trkpt><trkpt lat="9.9457304" lon="-84.1132357"><ele>1088.0</ele><time>2026-04-09T21:58:56.031Z</time></trkpt><trkpt lat="9.9457026" lon="-84.1133518"><ele>1088.0</ele><time>2026-04-09T21:58:57.031Z</time></trkpt><trkpt lat="9.9456748" lon="-84.1134635"><ele>1087.6</ele><time>2026-04-09T21:58:58.029Z</time></trkpt><trkpt lat="9.9456442" lon="-84.1135681"><ele>1087.1999999999998</ele><time>2026-04-09T21:58:59.029Z</time></trkpt><trkpt lat="9.9456143" lon="-84.1136714"><ele>1086.8</ele><time>2026-04-09T21:59:00.03Z</time></trkpt><trkpt lat="9.9455723" lon="-84.1137771"><ele>1086.3999999999999</ele><time>2026-04-09T21:59:01.03Z</time></trkpt><trkpt lat="9.9455331" lon="-84.1138842"><ele>1086.0</ele><time>2026-04-09T21:59:02.03Z</time></trkpt><trkpt lat="9.9454916" lon="-84.1139809"><ele>1083.5</ele><time>2026-04-09T21:59:03.03Z</time></trkpt><trkpt lat="9.9454489" lon="-84.114072"><ele>1081.0</ele><time>2026-04-09T21:59:04.03Z</time></trkpt><trkpt lat="9.9454095" lon="-84.114151"><ele>1078.5</ele><time>2026-04-09T21:59:05.03Z</time></trkpt><trkpt lat="9.9453733" lon="-84.1142188"><ele>1076.0</ele><time>2026-04-09T21:59:06.03Z</time></trkpt><trkpt lat="9.9453357" lon="-84.1142826"><ele>1073.5</ele><time>2026-04-09T21:59:07.031Z</time></trkpt><trkpt lat="9.9452981" lon="-84.1143464"><ele>1071.0</ele><time>2026-04-09T21:59:08.03Z</time></trkpt><trkpt lat="9.9452299" lon="-84.11444"><ele>1071.0</ele><time>2026-04-09T21:59:10.03Z</time></trkpt><trkpt lat="9.9451704" lon="-84.1145098"><ele>1071.0</ele><time>2026-04-09T21:59:12.029Z</time></trkpt><trkpt lat="9.9450953" lon="-84.1145977"><ele>1071.0</ele><time>2026-04-09T21:59:14.03Z</time></trkpt><trkpt lat="9.9450563" lon="-84.1146479"><ele>1071.0</ele><time>2026-04-09T21:59:15.03Z</time></trkpt><trkpt lat="9.9450078" lon="-84.1147095"><ele>1071.0</ele><time>2026-04-09T21:59:16.03Z</time></trkpt><trkpt lat="9.9449532" lon="-84.1147886"><ele>1071.0</ele><time>2026-04-09T21:59:17.03Z</time></trkpt><trkpt lat="9.9448953" lon="-84.1148671"><ele>1073.0</ele><time>2026-04-09T21:59:18.031Z</time></trkpt><trkpt lat="9.9448371" lon="-84.11495"><ele>1075.0</ele><time>2026-04-09T21:59:19.031Z</time></trkpt><trkpt lat="9.9447835" lon="-84.1150303"><ele>1077.0</ele><time>2026-04-09T21:59:20.03Z</time></trkpt><trkpt lat="9.9447272" lon="-84.115114"><ele>1079.0</ele><time>2026-04-09T21:59:21.031Z</time></trkpt><trkpt lat="9.944671" lon="-84.1151882"><ele>1081.0</ele><time>2026-04-09T21:59:22.03Z</time></trkpt><trkpt lat="9.9446147" lon="-84.1152522"><ele>1081.0</ele><time>2026-04-09T21:59:23.028Z</time></trkpt><trkpt lat="9.9445544" lon="-84.1153151"><ele>1081.0</ele><time>2026-04-09T21:59:24.03Z</time></trkpt><trkpt lat="9.9444979" lon="-84.1153794"><ele>1081.0</ele><time>2026-04-09T21:59:25.031Z</time></trkpt><trkpt lat="9.9444466" lon="-84.1154382"><ele>1081.0</ele><time>2026-04-09T21:59:26.03Z</time></trkpt><trkpt lat="9.9444008" lon="-84.1154855"><ele>1081.0</ele><time>2026-04-09T21:59:27.03Z</time></trkpt><trkpt lat="9.9443341" lon="-84.1155477"><ele>1081.0</ele><time>2026-04-09T21:59:29.03Z</time></trkpt><trkpt lat="9.944292" lon="-84.1155985"><ele>1081.0</ele><time>2026-04-09T21:59:31.031Z</time></trkpt><trkpt lat="9.9442299" lon="-84.1156706"><ele>1081.0</ele><time>2026-04-09T21:59:35.03Z</time></trkpt><trkpt lat="9.9441517" lon="-84.1157554"><ele>1081.0</ele><time>2026-04-09T21:59:37.03Z</time></trkpt><trkpt lat="9.9441032" lon="-84.1158075"><ele>1081.0</ele><time>2026-04-09T21:59:38.03Z</time></trkpt><trkpt lat="9.9440437" lon="-84.1158643"><ele>1081.0</ele><time>2026-04-09T21:59:39.03Z</time></trkpt><trkpt lat="9.9439833" lon="-84.1159242"><ele>1081.0</ele><time>2026-04-09T21:59:40.03Z</time></trkpt><trkpt lat="9.9439235" lon="-84.1159839"><ele>1082.5</ele><time>2026-04-09T21:59:41.03Z</time></trkpt><trkpt lat="9.9438662" lon="-84.1160408"><ele>1084.0</ele><time>2026-04-09T21:59:42.031Z</time></trkpt><trkpt lat="9.9438141" lon="-84.1160939"><ele>1085.5</ele><time>2026-04-09T21:59:43.03Z</time></trkpt><trkpt lat="9.9437573" lon="-84.1161545"><ele>1087.0</ele><time>2026-04-09T21:59:44.028Z</time></trkpt><trkpt lat="9.9436873" lon="-84.1162191"><ele>1088.5</ele><time>2026-04-09T21:59:45.029Z</time></trkpt><trkpt lat="9.9436219" lon="-84.1162898"><ele>1090.0</ele><time>2026-04-09T21:59:46.031Z</time></trkpt><trkpt lat="9.9435542" lon="-84.1163584"><ele>1090.0</ele><time>2026-04-09T21:59:47.029Z</time></trkpt><trkpt lat="9.9434796" lon="-84.1164282"><ele>1090.0</ele><time>2026-04-09T21:59:48.029Z</time></trkpt><trkpt lat="9.9434123" lon="-84.1164874"><ele>1090.0</ele><time>2026-04-09T21:59:49.03Z</time></trkpt><trkpt lat="9.9433417" lon="-84.1165499"><ele>1090.0</ele><time>2026-04-09T21:59:50.031Z</time></trkpt><trkpt lat="9.9432697" lon="-84.1166005"><ele>1090.0</ele><time>2026-04-09T21:59:51.03Z</time></trkpt><trkpt lat="9.9432048" lon="-84.1166528"><ele>1090.5</ele><time>2026-04-09T21:59:52.031Z</time></trkpt><trkpt lat="9.9431325" lon="-84.1167004"><ele>1091.0</ele><time>2026-04-09T21:59:53.03Z</time></trkpt><trkpt lat="9.9430408" lon="-84.1167529"><ele>1091.5</ele><time>2026-04-09T21:59:54.03Z</time></trkpt><trkpt lat="9.9429591" lon="-84.116802"><ele>1092.0</ele><time>2026-04-09T21:59:55.031Z</time></trkpt><trkpt lat="9.9428797" lon="-84.1168386"><ele>1092.5</ele><time>2026-04-09T21:59:56.03Z</time></trkpt><trkpt lat="9.9428188" lon="-84.1168667"><ele>1093.0</ele><time>2026-04-09T21:59:57.031Z</time></trkpt><trkpt lat="9.9427302" lon="-84.1168956"><ele>1093.0</ele><time>2026-04-09T21:59:59.031Z</time></trkpt><trkpt lat="9.9426678" lon="-84.1169179"><ele>1093.0</ele><time>2026-04-09T22:00:01.03Z</time></trkpt><trkpt lat="9.9425954" lon="-84.1169438"><ele>1093.0</ele><time>2026-04-09T22:00:04.03Z</time></trkpt><trkpt lat="9.9425214" lon="-84.1169644"><ele>1093.0</ele><time>2026-04-09T22:00:07.028Z</time></trkpt><trkpt lat="9.9424221" lon="-84.1169847"><ele>1093.0</ele><time>2026-04-09T22:00:10.029Z</time></trkpt><trkpt lat="9.9423579" lon="-84.1170029"><ele>1093.0</ele><time>2026-04-09T22:00:11.03Z</time></trkpt><trkpt lat="9.9422798" lon="-84.1170189"><ele>1094.0</ele><time>2026-04-09T22:00:12.03Z</time></trkpt><trkpt lat="9.9421879" lon="-84.1170426"><ele>1095.0</ele><time>2026-04-09T22:00:13.03Z</time></trkpt><trkpt lat="9.9420918" lon="-84.1170707"><ele>1096.0</ele><time>2026-04-09T22:00:14.03Z</time></trkpt><trkpt lat="9.9419983" lon="-84.1170903"><ele>1097.0</ele><time>2026-04-09T22:00:15.03Z</time></trkpt><trkpt lat="9.9419079" lon="-84.1171064"><ele>1098.0</ele><time>2026-04-09T22:00:16.03Z</time></trkpt><trkpt lat="9.941825" lon="-84.1171188"><ele>1098.0</ele><time>2026-04-09T22:00:17.03Z</time></trkpt><trkpt lat="9.9417349" lon="-84.1171317"><ele>1098.0</ele><time>2026-04-09T22:00:18.029Z</time></trkpt><trkpt lat="9.9416376" lon="-84.1171397"><ele>1098.0</ele><time>2026-04-09T22:00:19.029Z</time></trkpt><trkpt lat="9.9415349" lon="-84.1171524"><ele>1098.0</ele><time>2026-04-09T22:00:20.031Z</time></trkpt><trkpt lat="9.941431" lon="-84.1171589"><ele>1098.0</ele><time>2026-04-09T22:00:21.029Z</time></trkpt><trkpt lat="9.94133" lon="-84.1171635"><ele>1098.0</ele><time>2026-04-09T22:00:22.03Z</time></trkpt><trkpt lat="9.941237" lon="-84.1171633"><ele>1098.0</ele><time>2026-04-09T22:00:23.03Z</time></trkpt><trkpt lat="9.9411539" lon="-84.1171638"><ele>1098.0</ele><time>2026-04-09T22:00:24.03Z</time></trkpt><trkpt lat="9.9410632" lon="-84.1171655"><ele>1098.0</ele><time>2026-04-09T22:00:25.031Z</time></trkpt><trkpt lat="9.9409674" lon="-84.117163"><ele>1098.0</ele><time>2026-04-09T22:00:26.031Z</time></trkpt><trkpt lat="9.9408687" lon="-84.1171601"><ele>1098.3333333333333</ele><time>2026-04-09T22:00:27.03Z</time></trkpt><trkpt lat="9.9407668" lon="-84.1171511"><ele>1098.6666666666667</ele><time>2026-04-09T22:00:28.029Z</time></trkpt><trkpt lat="9.9406728" lon="-84.1171425"><ele>1099.0</ele><time>2026-04-09T22:00:29.029Z</time></trkpt><trkpt lat="9.9405873" lon="-84.1171355"><ele>1099.3333333333335</ele><time>2026-04-09T22:00:30.03Z</time></trkpt><trkpt lat="9.9405113" lon="-84.1171274"><ele>1099.6666666666667</ele><time>2026-04-09T22:00:31.03Z</time></trkpt><trkpt lat="9.9404328" lon="-84.1171167"><ele>1100.0</ele><time>2026-04-09T22:00:32.03Z</time></trkpt><trkpt lat="9.9403496" lon="-84.1171107"><ele>1100.0</ele><time>2026-04-09T22:00:33.031Z</time></trkpt><trkpt lat="9.9402559" lon="-84.1171088"><ele>1100.0</ele><time>2026-04-09T22:00:34.03Z</time></trkpt><trkpt lat="9.9401743" lon="-84.1171005"><ele>1100.0</ele><time>2026-04-09T22:00:35.029Z</time></trkpt><trkpt lat="9.9400913" lon="-84.1170965"><ele>1100.0</ele><time>2026-04-09T22:00:36.031Z</time></trkpt><trkpt lat="9.9400054" lon="-84.1170884"><ele>1100.0</ele><time>2026-04-09T22:00:37.029Z</time></trkpt><trkpt lat="9.9399124" lon="-84.1170783"><ele>1100.0</ele><time>2026-04-09T22:00:38.029Z</time></trkpt><trkpt lat="9.9398181" lon="-84.117071"><ele>1099.5</ele><time>2026-04-09T22:00:39.031Z</time></trkpt><trkpt lat="9.9397243" lon="-84.1170607"><ele>1099.0</ele><time>2026-04-09T22:00:40.031Z</time></trkpt><trkpt lat="9.9396418" lon="-84.117047"><ele>1098.5</ele><time>2026-04-09T22:00:41.03Z</time></trkpt><trkpt lat="9.9395662" lon="-84.1170424"><ele>1098.0</ele><time>2026-04-09T22:00:42.028Z</time></trkpt><trkpt lat="9.9394851" lon="-84.1170362"><ele>1097.5</ele><time>2026-04-09T22:00:43.03Z</time></trkpt><trkpt lat="9.9394074" lon="-84.1170316"><ele>1097.0</ele><time>2026-04-09T22:00:44.03Z</time></trkpt><trkpt lat="9.9393364" lon="-84.1170207"><ele>1097.0</ele><time>2026-04-09T22:00:45.031Z</time></trkpt><trkpt lat="9.939262" lon="-84.1170071"><ele>1097.0</ele><time>2026-04-09T22:00:46.03Z</time></trkpt><trkpt lat="9.9391777" lon="-84.1169886"><ele>1097.0</ele><time>2026-04-09T22:00:47.031Z</time></trkpt><trkpt lat="9.9390915" lon="-84.1169703"><ele>1097.0</ele><time>2026-04-09T22:00:48.03Z</time></trkpt><trkpt lat="9.9390014" lon="-84.1169497"><ele>1097.0</ele><time>2026-04-09T22:00:49.028Z</time></trkpt><trkpt lat="9.9389197" lon="-84.1169265"><ele>1097.0</ele><time>2026-04-09T22:00:50.03Z</time></trkpt><trkpt lat="9.9388402" lon="-84.1169059"><ele>1097.3333333333335</ele><time>2026-04-09T22:00:51.029Z</time></trkpt><trkpt lat="9.9387565" lon="-84.1169102"><ele>1097.6666666666667</ele><time>2026-04-09T22:00:52.029Z</time></trkpt><trkpt lat="9.9386788" lon="-84.1168676"><ele>1098.0</ele><time>2026-04-09T22:00:53.03Z</time></trkpt><trkpt lat="9.9386141" lon="-84.1168486"><ele>1098.3333333333333</ele><time>2026-04-09T22:00:54.03Z</time></trkpt><trkpt lat="9.9385459" lon="-84.1168272"><ele>1098.6666666666665</ele><time>2026-04-09T22:00:55.029Z</time></trkpt><trkpt lat="9.9384821" lon="-84.1168078"><ele>1099.0</ele><time>2026-04-09T22:00:56.03Z</time></trkpt><trkpt lat="9.9383794" lon="-84.1167681"><ele>1099.1666666666665</ele><time>2026-04-09T22:00:58.03Z</time></trkpt><trkpt lat="9.9382796" lon="-84.1167495"><ele>1099.3333333333333</ele><time>2026-04-09T22:01:00.029Z</time></trkpt><trkpt lat="9.9381987" lon="-84.1167341"><ele>1099.5</ele><time>2026-04-09T22:01:02.029Z</time></trkpt><trkpt lat="9.9380962" lon="-84.1167197"><ele>1099.6666666666667</ele><time>2026-04-09T22:01:05.029Z</time></trkpt><trkpt lat="9.938028" lon="-84.1167073"><ele>1099.8333333333335</ele><time>2026-04-09T22:01:07.029Z</time></trkpt><trkpt lat="9.9379593" lon="-84.1166975"><ele>1100.0</ele><time>2026-04-09T22:01:09.03Z</time></trkpt><trkpt lat="9.9378762" lon="-84.1166863"><ele>1100.0</ele><time>2026-04-09T22:01:11.03Z</time></trkpt><trkpt lat="9.9377957" lon="-84.1166784"><ele>1100.0</ele><time>2026-04-09T22:01:14.03Z</time></trkpt><trkpt lat="9.9377267" lon="-84.1166754"><ele>1100.0</ele><time>2026-04-09T22:01:18.03Z</time></trkpt><trkpt lat="9.9376576" lon="-84.1166675"><ele>1100.0</ele><time>2026-04-09T22:01:28.03Z</time></trkpt><trkpt lat="9.9375904" lon="-84.1166568"><ele>1100.0</ele><time>2026-04-09T22:02:02.031Z</time></trkpt><trkpt lat="9.9375188" lon="-84.1166682"><ele>1100.0</ele><time>2026-04-09T22:02:07.03Z</time></trkpt><trkpt lat="9.9374205" lon="-84.1166779"><ele>1099.6666666666667</ele><time>2026-04-09T22:02:09.03Z</time></trkpt><trkpt lat="9.9372954" lon="-84.1166626"><ele>1099.3333333333335</ele><time>2026-04-09T22:02:11.03Z</time></trkpt><trkpt lat="9.9372327" lon="-84.1166555"><ele>1099.0</ele><time>2026-04-09T22:02:12.03Z</time></trkpt><trkpt lat="9.9371662" lon="-84.1166442"><ele>1098.6666666666667</ele><time>2026-04-09T22:02:13.03Z</time></trkpt><trkpt lat="9.9370981" lon="-84.1166346"><ele>1098.3333333333333</ele><time>2026-04-09T22:02:14.03Z</time></trkpt><trkpt lat="9.9370338" lon="-84.1166298"><ele>1098.0</ele><time>2026-04-09T22:02:15.028Z</time></trkpt><trkpt lat="9.9369239" lon="-84.1166234"><ele>1098.0</ele><time>2026-04-09T22:02:16.03Z</time></trkpt><trkpt lat="9.9368503" lon="-84.1166199"><ele>1098.0</ele><time>2026-04-09T22:02:17.03Z</time></trkpt><trkpt lat="9.9367624" lon="-84.1166136"><ele>1098.0</ele><time>2026-04-09T22:02:18.03Z</time></trkpt><trkpt lat="9.9366717" lon="-84.1166051"><ele>1098.0</ele><time>2026-04-09T22:02:19.03Z</time></trkpt><trkpt lat="9.9365826" lon="-84.1166039"><ele>1098.0</ele><time>2026-04-09T22:02:20.029Z</time></trkpt><trkpt lat="9.9365064" lon="-84.1165962"><ele>1098.0</ele><time>2026-04-09T22:02:21.03Z</time></trkpt><trkpt lat="9.9364371" lon="-84.11659"><ele>1097.8333333333333</ele><time>2026-04-09T22:02:22.029Z</time></trkpt><trkpt lat="9.9363491" lon="-84.1165854"><ele>1097.6666666666667</ele><time>2026-04-09T22:02:23.03Z</time></trkpt><trkpt lat="9.9362737" lon="-84.116583"><ele>1097.5</ele><time>2026-04-09T22:02:24.03Z</time></trkpt><trkpt lat="9.9361982" lon="-84.1165803"><ele>1097.3333333333335</ele><time>2026-04-09T22:02:25.03Z</time></trkpt><trkpt lat="9.9361244" lon="-84.1165739"><ele>1097.1666666666667</ele><time>2026-04-09T22:02:26.029Z</time></trkpt><trkpt lat="9.9360542" lon="-84.1165702"><ele>1097.0</ele><time>2026-04-09T22:02:27.03Z</time></trkpt><trkpt lat="9.9359838" lon="-84.1165644"><ele>1097.0</ele><time>2026-04-09T22:02:28.03Z</time></trkpt><trkpt lat="9.9359051" lon="-84.1165596"><ele>1097.0</ele><time>2026-04-09T22:02:29.03Z</time></trkpt><trkpt lat="9.9358386" lon="-84.1165494"><ele>1097.0</ele><time>2026-04-09T22:02:30.029Z</time></trkpt><trkpt lat="9.9357339" lon="-84.1165356"><ele>1097.0</ele><time>2026-04-09T22:02:32.03Z</time></trkpt><trkpt lat="9.9356337" lon="-84.1165239"><ele>1097.0</ele><time>2026-04-09T22:02:34.03Z</time></trkpt><trkpt lat="9.9355655" lon="-84.1165144"><ele>1097.0</ele><time>2026-04-09T22:02:35.03Z</time></trkpt><trkpt lat="9.9354779" lon="-84.1165056"><ele>1097.0</ele><time>2026-04-09T22:02:36.029Z</time></trkpt><trkpt lat="9.9353999" lon="-84.1164988"><ele>1097.0</ele><time>2026-04-09T22:02:37.03Z</time></trkpt><trkpt lat="9.935326" lon="-84.1164893"><ele>1097.0</ele><time>2026-04-09T22:02:38.03Z</time></trkpt><trkpt lat="9.9352531" lon="-84.1164802"><ele>1097.0</ele><time>2026-04-09T22:02:39.03Z</time></trkpt><trkpt lat="9.9351642" lon="-84.1164675"><ele>1097.0</ele><time>2026-04-09T22:02:40.03Z</time></trkpt><trkpt lat="9.9350726" lon="-84.1164597"><ele>1097.0</ele><time>2026-04-09T22:02:41.03Z</time></trkpt><trkpt lat="9.934991" lon="-84.1164535"><ele>1097.3333333333335</ele><time>2026-04-09T22:02:42.029Z</time></trkpt><trkpt lat="9.9349112" lon="-84.1164437"><ele>1097.6666666666667</ele><time>2026-04-09T22:02:43.03Z</time></trkpt><trkpt lat="9.9348409" lon="-84.116433"><ele>1098.0</ele><time>2026-04-09T22:02:44.03Z</time></trkpt><trkpt lat="9.9347707" lon="-84.1164254"><ele>1098.3333333333333</ele><time>2026-04-09T22:02:45.029Z</time></trkpt><trkpt lat="9.9346915" lon="-84.1164187"><ele>1098.6666666666665</ele><time>2026-04-09T22:02:46.029Z</time></trkpt><trkpt lat="9.9346054" lon="-84.1164112"><ele>1099.0</ele><time>2026-04-09T22:02:47.029Z</time></trkpt><trkpt lat="9.9345218" lon="-84.1164054"><ele>1099.0</ele><time>2026-04-09T22:02:48.029Z</time></trkpt><trkpt lat="9.9344459" lon="-84.1163964"><ele>1099.0</ele><time>2026-04-09T22:02:49.029Z</time></trkpt><trkpt lat="9.9343804" lon="-84.1163898"><ele>1099.0</ele><time>2026-04-09T22:02:50.03Z</time></trkpt><trkpt lat="9.9343136" lon="-84.1163862"><ele>1099.0</ele><time>2026-04-09T22:02:51.03Z</time></trkpt><trkpt lat="9.9342503" lon="-84.1163822"><ele>1099.0</ele><time>2026-04-09T22:02:52.029Z</time></trkpt><trkpt lat="9.934136" lon="-84.1163764"><ele>1099.0</ele><time>2026-04-09T22:02:54.03Z</time></trkpt><trkpt lat="9.9340105" lon="-84.1163648"><ele>1098.5714285714287</ele><time>2026-04-09T22:02:56.03Z</time></trkpt><trkpt lat="9.9339321" lon="-84.1163636"><ele>1098.142857142857</ele><time>2026-04-09T22:02:57.029Z</time></trkpt><trkpt lat="9.9338558" lon="-84.1163607"><ele>1097.7142857142858</ele><time>2026-04-09T22:02:58.029Z</time></trkpt><trkpt lat="9.9337806" lon="-84.116361"><ele>1097.2857142857142</ele><time>2026-04-09T22:02:59.03Z</time></trkpt><trkpt lat="9.9337046" lon="-84.1163596"><ele>1096.857142857143</ele><time>2026-04-09T22:03:00.03Z</time></trkpt><trkpt lat="9.9336414" lon="-84.116355"><ele>1096.4285714285716</ele><time>2026-04-09T22:03:01.028Z</time></trkpt><trkpt lat="9.9335785" lon="-84.1163514"><ele>1096.0</ele><time>2026-04-09T22:03:02.03Z</time></trkpt><trkpt lat="9.9335121" lon="-84.1163474"><ele>1096.0</ele><time>2026-04-09T22:03:03.03Z</time></trkpt><trkpt lat="9.9334315" lon="-84.1163463"><ele>1096.0</ele><time>2026-04-09T22:03:04.03Z</time></trkpt><trkpt lat="9.9333512" lon="-84.1163462"><ele>1096.0</ele><time>2026-04-09T22:03:05.029Z</time></trkpt><trkpt lat="9.9332779" lon="-84.1163469"><ele>1096.0</ele><time>2026-04-09T22:03:06.029Z</time></trkpt><trkpt lat="9.9332051" lon="-84.1163408"><ele>1096.0</ele><time>2026-04-09T22:03:07.029Z</time></trkpt><trkpt lat="9.9331199" lon="-84.1163389"><ele>1096.0</ele><time>2026-04-09T22:03:08.03Z</time></trkpt><trkpt lat="9.9330339" lon="-84.1163367"><ele>1095.8333333333333</ele><time>2026-04-09T22:03:09.028Z</time></trkpt><trkpt lat="9.9329446" lon="-84.1163407"><ele>1095.6666666666665</ele><time>2026-04-09T22:03:10.03Z</time></trkpt><trkpt lat="9.9328612" lon="-84.1163377"><ele>1095.5</ele><time>2026-04-09T22:03:11.03Z</time></trkpt><trkpt lat="9.9327725" lon="-84.1163365"><ele>1095.3333333333333</ele><time>2026-04-09T22:03:12.027Z</time></trkpt><trkpt lat="9.9326908" lon="-84.1163353"><ele>1095.1666666666667</ele><time>2026-04-09T22:03:13.03Z</time></trkpt><trkpt lat="9.9326236" lon="-84.1163335"><ele>1095.0</ele><time>2026-04-09T22:03:14.029Z</time></trkpt><trkpt lat="9.9325089" lon="-84.1163368"><ele>1093.0</ele><time>2026-04-09T22:03:16.03Z</time></trkpt><trkpt lat="9.9324031" lon="-84.1163403"><ele>1091.0</ele><time>2026-04-09T22:03:18.03Z</time></trkpt><trkpt lat="9.9323076" lon="-84.1163439"><ele>1089.0</ele><time>2026-04-09T22:03:20.029Z</time></trkpt><trkpt lat="9.9321749" lon="-84.1163498"><ele>1087.0</ele><time>2026-04-09T22:03:22.029Z</time></trkpt><trkpt lat="9.9321067" lon="-84.1163506"><ele>1085.0</ele><time>2026-04-09T22:03:23.029Z</time></trkpt><trkpt lat="9.9320301" lon="-84.1163518"><ele>1085.0</ele><time>2026-04-09T22:03:24.03Z</time></trkpt><trkpt lat="9.931955" lon="-84.1163513"><ele>1085.0</ele><time>2026-04-09T22:03:25.03Z</time></trkpt><trkpt lat="9.9318796" lon="-84.1163545"><ele>1085.0</ele><time>2026-04-09T22:03:26.03Z</time></trkpt><trkpt lat="9.9318019" lon="-84.1163542"><ele>1085.0</ele><time>2026-04-09T22:03:27.029Z</time></trkpt><trkpt lat="9.9317261" lon="-84.1163552"><ele>1085.0</ele><time>2026-04-09T22:03:28.03Z</time></trkpt><trkpt lat="9.931655" lon="-84.1163543"><ele>1085.0</ele><time>2026-04-09T22:03:29.03Z</time></trkpt><trkpt lat="9.9315355" lon="-84.1163594"><ele>1082.6666666666667</ele><time>2026-04-09T22:03:31.029Z</time></trkpt><trkpt lat="9.9314596" lon="-84.1163635"><ele>1080.3333333333335</ele><time>2026-04-09T22:03:32.03Z</time></trkpt><trkpt lat="9.9313695" lon="-84.1163674"><ele>1078.0</ele><time>2026-04-09T22:03:33.03Z</time></trkpt><trkpt lat="9.93129" lon="-84.1163723"><ele>1075.6666666666667</ele><time>2026-04-09T22:03:34.03Z</time></trkpt><trkpt lat="9.931213" lon="-84.1163717"><ele>1073.3333333333333</ele><time>2026-04-09T22:03:35.03Z</time></trkpt><trkpt lat="9.9311107" lon="-84.1163796"><ele>1071.0</ele><time>2026-04-09T22:03:37.029Z</time></trkpt><trkpt lat="9.9310209" lon="-84.116384"><ele>1071.0</ele><time>2026-04-09T22:03:39.03Z</time></trkpt><trkpt lat="9.9309062" lon="-84.1163865"><ele>1071.0</ele><time>2026-04-09T22:03:41.029Z</time></trkpt><trkpt lat="9.930839" lon="-84.1163899"><ele>1071.0</ele><time>2026-04-09T22:03:42.03Z</time></trkpt><trkpt lat="9.9307748" lon="-84.1163901"><ele>1071.0</ele><time>2026-04-09T22:03:43.029Z</time></trkpt><trkpt lat="9.9307057" lon="-84.116393"><ele>1071.0</ele><time>2026-04-09T22:03:44.029Z</time></trkpt><trkpt lat="9.9306231" lon="-84.1163951"><ele>1071.0</ele><time>2026-04-09T22:03:45.03Z</time></trkpt><trkpt lat="9.9305337" lon="-84.1163971"><ele>1071.1666666666667</ele><time>2026-04-09T22:03:46.029Z</time></trkpt><trkpt lat="9.9304418" lon="-84.1163992"><ele>1071.3333333333333</ele><time>2026-04-09T22:03:47.03Z</time></trkpt><trkpt lat="9.9303444" lon="-84.1164011"><ele>1071.5</ele><time>2026-04-09T22:03:48.028Z</time></trkpt><trkpt lat="9.9302554" lon="-84.1164043"><ele>1071.6666666666665</ele><time>2026-04-09T22:03:49.03Z</time></trkpt><trkpt lat="9.9301671" lon="-84.1164023"><ele>1071.8333333333333</ele><time>2026-04-09T22:03:50.03Z</time></trkpt><trkpt lat="9.9300853" lon="-84.1164029"><ele>1072.0</ele><time>2026-04-09T22:03:51.03Z</time></trkpt><trkpt lat="9.9300033" lon="-84.1164047"><ele>1072.0</ele><time>2026-04-09T22:03:52.03Z</time></trkpt><trkpt lat="9.9299198" lon="-84.1164024"><ele>1072.0</ele><time>2026-04-09T22:03:53.03Z</time></trkpt><trkpt lat="9.9298362" lon="-84.1164043"><ele>1072.0</ele><time>2026-04-09T22:03:54.028Z</time></trkpt><trkpt lat="9.9297486" lon="-84.1164068"><ele>1072.0</ele><time>2026-04-09T22:03:55.029Z</time></trkpt><trkpt lat="9.929663" lon="-84.1164038"><ele>1072.0</ele><time>2026-04-09T22:03:56.03Z</time></trkpt><trkpt lat="9.9295746" lon="-84.1164015"><ele>1072.0</ele><time>2026-04-09T22:03:57.03Z</time></trkpt><trkpt lat="9.9294907" lon="-84.1163996"><ele>1072.0</ele><time>2026-04-09T22:03:58.029Z</time></trkpt><trkpt lat="9.9293968" lon="-84.1163906"><ele>1072.0</ele><time>2026-04-09T22:03:59.029Z</time></trkpt><trkpt lat="9.9292983" lon="-84.1163769"><ele>1072.0</ele><time>2026-04-09T22:04:00.028Z</time></trkpt><trkpt lat="9.9292009" lon="-84.1163643"><ele>1072.0</ele><time>2026-04-09T22:04:01.03Z</time></trkpt><trkpt lat="9.9290957" lon="-84.116345"><ele>1072.0</ele><time>2026-04-09T22:04:02.029Z</time></trkpt><trkpt lat="9.9289956" lon="-84.116322"><ele>1074.0</ele><time>2026-04-09T22:04:03.03Z</time></trkpt><trkpt lat="9.9289073" lon="-84.1162986"><ele>1076.0</ele><time>2026-04-09T22:04:04.03Z</time></trkpt><trkpt lat="9.9288229" lon="-84.1162762"><ele>1078.0</ele><time>2026-04-09T22:04:05.029Z</time></trkpt><trkpt lat="9.9287427" lon="-84.1162484"><ele>1080.0</ele><time>2026-04-09T22:04:06.029Z</time></trkpt><trkpt lat="9.928669" lon="-84.1162171"><ele>1082.0</ele><time>2026-04-09T22:04:07.03Z</time></trkpt><trkpt lat="9.9286094" lon="-84.1161862"><ele>1084.0</ele><time>2026-04-09T22:04:08.03Z</time></trkpt><trkpt lat="9.9285385" lon="-84.1161562"><ele>1084.0</ele><time>2026-04-09T22:04:09.03Z</time></trkpt><trkpt lat="9.9284689" lon="-84.1161226"><ele>1084.0</ele><time>2026-04-09T22:04:10.03Z</time></trkpt><trkpt lat="9.9283908" lon="-84.1160784"><ele>1084.0</ele><time>2026-04-09T22:04:11.028Z</time></trkpt><trkpt lat="9.928309" lon="-84.1160374"><ele>1084.0</ele><time>2026-04-09T22:04:12.028Z</time></trkpt><trkpt lat="9.9282312" lon="-84.1159901"><ele>1084.0</ele><time>2026-04-09T22:04:13.03Z</time></trkpt><trkpt lat="9.9281512" lon="-84.1159322"><ele>1084.0</ele><time>2026-04-09T22:04:14.03Z</time></trkpt><trkpt lat="9.9280689" lon="-84.1158771"><ele>1083.8</ele><time>2026-04-09T22:04:15.028Z</time></trkpt><trkpt lat="9.9279847" lon="-84.1158202"><ele>1083.6000000000001</ele><time>2026-04-09T22:04:16.03Z</time></trkpt><trkpt lat="9.9279069" lon="-84.1157555"><ele>1083.4</ele><time>2026-04-09T22:04:17.03Z</time></trkpt><trkpt lat="9.9278346" lon="-84.115697"><ele>1083.2</ele><time>2026-04-09T22:04:18.029Z</time></trkpt><trkpt lat="9.9277732" lon="-84.1156396"><ele>1083.0</ele><time>2026-04-09T22:04:19.029Z</time></trkpt><trkpt lat="9.9277158" lon="-84.1155832"><ele>1085.0</ele><time>2026-04-09T22:04:20.03Z</time></trkpt><trkpt lat="9.9276642" lon="-84.1155316"><ele>1087.0</ele><time>2026-04-09T22:04:21.03Z</time></trkpt><trkpt lat="9.9275864" lon="-84.1154447"><ele>1089.0</ele><time>2026-04-09T22:04:23.03Z</time></trkpt><trkpt lat="9.9275247" lon="-84.1153785"><ele>1091.0</ele><time>2026-04-09T22:04:25.028Z</time></trkpt><trkpt lat="9.9274567" lon="-84.115292"><ele>1093.0</ele><time>2026-04-09T22:04:28.03Z</time></trkpt><trkpt lat="9.9273958" lon="-84.1151948"><ele>1093.0</ele><time>2026-04-09T22:04:30.03Z</time></trkpt><trkpt lat="9.9273176" lon="-84.1150643"><ele>1093.0</ele><time>2026-04-09T22:04:32.03Z</time></trkpt><trkpt lat="9.9272724" lon="-84.1149819"><ele>1093.0</ele><time>2026-04-09T22:04:33.03Z</time></trkpt><trkpt lat="9.927223" lon="-84.1148939"><ele>1093.0</ele><time>2026-04-09T22:04:34.03Z</time></trkpt><trkpt lat="9.9271569" lon="-84.1147839"><ele>1095.25</ele><time>2026-04-09T22:04:35.03Z</time></trkpt><trkpt lat="9.9270899" lon="-84.1146726"><ele>1097.5</ele><time>2026-04-09T22:04:36.03Z</time></trkpt><trkpt lat="9.9270181" lon="-84.1145559"><ele>1099.75</ele><time>2026-04-09T22:04:37.029Z</time></trkpt><trkpt lat="9.9269466" lon="-84.1144363"><ele>1102.0</ele><time>2026-04-09T22:04:38.029Z</time></trkpt><trkpt lat="9.9268677" lon="-84.1143088"><ele>1102.0</ele><time>2026-04-09T22:04:39.029Z</time></trkpt><trkpt lat="9.9267903" lon="-84.1141795"><ele>1102.0</ele><time>2026-04-09T22:04:40.029Z</time></trkpt><trkpt lat="9.9267103" lon="-84.1140495"><ele>1102.0</ele><time>2026-04-09T22:04:41.029Z</time></trkpt><trkpt lat="9.9266382" lon="-84.1139135"><ele>1103.0</ele><time>2026-04-09T22:04:42.029Z</time></trkpt><trkpt lat="9.9265666" lon="-84.1137839"><ele>1104.0</ele><time>2026-04-09T22:04:43.03Z</time></trkpt><trkpt lat="9.9265007" lon="-84.1136634"><ele>1105.0</ele><time>2026-04-09T22:04:44.028Z</time></trkpt><trkpt lat="9.9264327" lon="-84.1135432"><ele>1106.0</ele><time>2026-04-09T22:04:45.029Z</time></trkpt><trkpt lat="9.9263681" lon="-84.1134209"><ele>1106.0</ele><time>2026-04-09T22:04:46.029Z</time></trkpt><trkpt lat="9.9263046" lon="-84.1133085"><ele>1106.0</ele><time>2026-04-09T22:04:47.03Z</time></trkpt><trkpt lat="9.9262452" lon="-84.1131905"><ele>1106.0</ele><time>2026-04-09T22:04:48.029Z</time></trkpt><trkpt lat="9.926186" lon="-84.1130788"><ele>1106.0</ele><time>2026-04-09T22:04:49.03Z</time></trkpt><trkpt lat="9.9261273" lon="-84.1129611"><ele>1106.75</ele><time>2026-04-09T22:04:50.028Z</time></trkpt><trkpt lat="9.9260655" lon="-84.112837"><ele>1107.5</ele><time>2026-04-09T22:04:51.029Z</time></trkpt><trkpt lat="9.9260023" lon="-84.1127156"><ele>1108.25</ele><time>2026-04-09T22:04:52.028Z</time></trkpt><trkpt lat="9.9259314" lon="-84.1125912"><ele>1109.0</ele><time>2026-04-09T22:04:53.03Z</time></trkpt><trkpt lat="9.9258594" lon="-84.112463"><ele>1109.75</ele><time>2026-04-09T22:04:54.029Z</time></trkpt><trkpt lat="9.9257909" lon="-84.1123383"><ele>1110.5</ele><time>2026-04-09T22:04:55.029Z</time></trkpt><trkpt lat="9.9257229" lon="-84.1122154"><ele>1111.25</ele><time>2026-04-09T22:04:56.028Z</time></trkpt><trkpt lat="9.9256518" lon="-84.1120907"><ele>1112.0</ele><time>2026-04-09T22:04:57.03Z</time></trkpt><trkpt lat="9.9255781" lon="-84.1119613"><ele>1112.0</ele><time>2026-04-09T22:04:58.029Z</time></trkpt><trkpt lat="9.9255069" lon="-84.1118338"><ele>1112.0</ele><time>2026-04-09T22:04:59.028Z</time></trkpt><trkpt lat="9.9254336" lon="-84.1117066"><ele>1112.0</ele><time>2026-04-09T22:05:00.029Z</time></trkpt><trkpt lat="9.9253601" lon="-84.1115774"><ele>1112.0</ele><time>2026-04-09T22:05:01.029Z</time></trkpt><trkpt lat="9.9252895" lon="-84.1114476"><ele>1113.6666666666667</ele><time>2026-04-09T22:05:02.029Z</time></trkpt><trkpt lat="9.9252056" lon="-84.1113107"><ele>1115.3333333333333</ele><time>2026-04-09T22:05:03.029Z</time></trkpt><trkpt lat="9.9251106" lon="-84.1111634"><ele>1117.0</ele><time>2026-04-09T22:05:04.029Z</time></trkpt><trkpt lat="9.9250078" lon="-84.1110022"><ele>1117.0</ele><time>2026-04-09T22:05:05.029Z</time></trkpt><trkpt lat="9.9249176" lon="-84.110844"><ele>1117.0</ele><time>2026-04-09T22:05:06.029Z</time></trkpt><trkpt lat="9.9248367" lon="-84.1107012"><ele>1117.0</ele><time>2026-04-09T22:05:07.029Z</time></trkpt><trkpt lat="9.9247673" lon="-84.1105651"><ele>1117.75</ele><time>2026-04-09T22:05:08.03Z</time></trkpt><trkpt lat="9.9247055" lon="-84.1104411"><ele>1118.5</ele><time>2026-04-09T22:05:09.03Z</time></trkpt><trkpt lat="9.9246438" lon="-84.1103272"><ele>1119.25</ele><time>2026-04-09T22:05:10.03Z</time></trkpt><trkpt lat="9.9245878" lon="-84.1102258"><ele>1120.0</ele><time>2026-04-09T22:05:11.029Z</time></trkpt><trkpt lat="9.9245398" lon="-84.1101418"><ele>1120.0</ele><time>2026-04-09T22:05:12.03Z</time></trkpt><trkpt lat="9.9244975" lon="-84.110061"><ele>1120.0</ele><time>2026-04-09T22:05:13.03Z</time></trkpt><trkpt lat="9.9244618" lon="-84.1099941"><ele>1120.0</ele><time>2026-04-09T22:05:14.029Z</time></trkpt><trkpt lat="9.9244185" lon="-84.109921"><ele>1120.0</ele><time>2026-04-09T22:05:15.028Z</time></trkpt><trkpt lat="9.9243766" lon="-84.1098407"><ele>1120.0</ele><time>2026-04-09T22:05:16.029Z</time></trkpt><trkpt lat="9.9243392" lon="-84.1097667"><ele>1120.0</ele><time>2026-04-09T22:05:17.03Z</time></trkpt><trkpt lat="9.9242905" lon="-84.1096799"><ele>1120.0</ele><time>2026-04-09T22:05:18.029Z</time></trkpt><trkpt lat="9.9242523" lon="-84.1095899"><ele>1120.0</ele><time>2026-04-09T22:05:19.029Z</time></trkpt><trkpt lat="9.9241954" lon="-84.1094959"><ele>1120.0</ele><time>2026-04-09T22:05:20.029Z</time></trkpt><trkpt lat="9.9241394" lon="-84.1093993"><ele>1120.0</ele><time>2026-04-09T22:05:21.029Z</time></trkpt><trkpt lat="9.9240829" lon="-84.1092991"><ele>1120.0</ele><time>2026-04-09T22:05:22.029Z</time></trkpt><trkpt lat="9.9240299" lon="-84.1092001"><ele>1120.0</ele><time>2026-04-09T22:05:23.03Z</time></trkpt><trkpt lat="9.9239782" lon="-84.109109"><ele>1120.0</ele><time>2026-04-09T22:05:24.03Z</time></trkpt><trkpt lat="9.9239187" lon="-84.1090107"><ele>1120.0</ele><time>2026-04-09T22:05:25.029Z</time></trkpt><trkpt lat="9.9238551" lon="-84.1089075"><ele>1120.0</ele><time>2026-04-09T22:05:26.029Z</time></trkpt><trkpt lat="9.9237913" lon="-84.1088016"><ele>1120.75</ele><time>2026-04-09T22:05:27.028Z</time></trkpt><trkpt lat="9.9237281" lon="-84.1086956"><ele>1121.5</ele><time>2026-04-09T22:05:28.029Z</time></trkpt><trkpt lat="9.923669" lon="-84.1085987"><ele>1122.25</ele><time>2026-04-09T22:05:29.027Z</time></trkpt><trkpt lat="9.9235928" lon="-84.1084954"><ele>1123.0</ele><time>2026-04-09T22:05:30.029Z</time></trkpt><trkpt lat="9.92351" lon="-84.1083901"><ele>1123.0</ele><time>2026-04-09T22:05:31.029Z</time></trkpt><trkpt lat="9.9234289" lon="-84.108293"><ele>1123.0</ele><time>2026-04-09T22:05:32.029Z</time></trkpt><trkpt lat="9.9233469" lon="-84.1082023"><ele>1123.0</ele><time>2026-04-09T22:05:33.029Z</time></trkpt><trkpt lat="9.9232618" lon="-84.1081162"><ele>1123.0</ele><time>2026-04-09T22:05:34.029Z</time></trkpt><trkpt lat="9.9231735" lon="-84.108029"><ele>1123.0</ele><time>2026-04-09T22:05:35.029Z</time></trkpt><trkpt lat="9.923084" lon="-84.1079485"><ele>1123.0</ele><time>2026-04-09T22:05:36.029Z</time></trkpt><trkpt lat="9.9229972" lon="-84.1078713"><ele>1123.0</ele><time>2026-04-09T22:05:37.03Z</time></trkpt><trkpt lat="9.9229132" lon="-84.1078016"><ele>1123.0</ele><time>2026-04-09T22:05:38.029Z</time></trkpt><trkpt lat="9.922823" lon="-84.1077356"><ele>1123.0</ele><time>2026-04-09T22:05:39.03Z</time></trkpt><trkpt lat="9.9227265" lon="-84.1076675"><ele>1123.0</ele><time>2026-04-09T22:05:40.029Z</time></trkpt><trkpt lat="9.9226264" lon="-84.1076025"><ele>1123.0</ele><time>2026-04-09T22:05:41.028Z</time></trkpt><trkpt lat="9.9225297" lon="-84.1075428"><ele>1123.0</ele><time>2026-04-09T22:05:42.029Z</time></trkpt><trkpt lat="9.9224237" lon="-84.1074814"><ele>1123.5</ele><time>2026-04-09T22:05:43.029Z</time></trkpt><trkpt lat="9.9223155" lon="-84.1074285"><ele>1124.0</ele><time>2026-04-09T22:05:44.028Z</time></trkpt><trkpt lat="9.9222065" lon="-84.1073725"><ele>1124.5</ele><time>2026-04-09T22:05:45.03Z</time></trkpt><trkpt lat="9.9220907" lon="-84.1073227"><ele>1125.0</ele><time>2026-04-09T22:05:46.029Z</time></trkpt><trkpt lat="9.9219858" lon="-84.1072761"><ele>1125.0</ele><time>2026-04-09T22:05:47.03Z</time></trkpt><trkpt lat="9.9218661" lon="-84.1072345"><ele>1125.0</ele><time>2026-04-09T22:05:48.029Z</time></trkpt><trkpt lat="9.9217379" lon="-84.1071959"><ele>1125.0</ele><time>2026-04-09T22:05:49.029Z</time></trkpt><trkpt lat="9.9216065" lon="-84.1071615"><ele>1125.0</ele><time>2026-04-09T22:05:50.029Z</time></trkpt><trkpt lat="9.921477" lon="-84.1071314"><ele>1123.5</ele><time>2026-04-09T22:05:51.029Z</time></trkpt><trkpt lat="9.9213501" lon="-84.1071072"><ele>1122.0</ele><time>2026-04-09T22:05:52.029Z</time></trkpt><trkpt lat="9.9212213" lon="-84.1070799"><ele>1120.5</ele><time>2026-04-09T22:05:53.028Z</time></trkpt><trkpt lat="9.9210852" lon="-84.1070538"><ele>1119.0</ele><time>2026-04-09T22:05:54.029Z</time></trkpt><trkpt lat="9.920955" lon="-84.1070283"><ele>1117.25</ele><time>2026-04-09T22:05:55.029Z</time></trkpt><trkpt lat="9.9208335" lon="-84.107004"><ele>1115.5</ele><time>2026-04-09T22:05:56.029Z</time></trkpt><trkpt lat="9.9207162" lon="-84.1069768"><ele>1113.75</ele><time>2026-04-09T22:05:57.029Z</time></trkpt><trkpt lat="9.920605" lon="-84.1069559"><ele>1112.0</ele><time>2026-04-09T22:05:58.029Z</time></trkpt><trkpt lat="9.9204965" lon="-84.1069339"><ele>1112.0</ele><time>2026-04-09T22:05:59.028Z</time></trkpt><trkpt lat="9.9203933" lon="-84.1069088"><ele>1112.0</ele><time>2026-04-09T22:06:00.029Z</time></trkpt><trkpt lat="9.9202852" lon="-84.1068887"><ele>1112.0</ele><time>2026-04-09T22:06:01.03Z</time></trkpt><trkpt lat="9.9201801" lon="-84.1068695"><ele>1112.0</ele><time>2026-04-09T22:06:02.028Z</time></trkpt><trkpt lat="9.9200719" lon="-84.1068502"><ele>1112.0</ele><time>2026-04-09T22:06:03.029Z</time></trkpt><trkpt lat="9.9199586" lon="-84.1068288"><ele>1111.8</ele><time>2026-04-09T22:06:04.029Z</time></trkpt><trkpt lat="9.9198552" lon="-84.106809"><ele>1111.6</ele><time>2026-04-09T22:06:05.029Z</time></trkpt><trkpt lat="9.9197508" lon="-84.1067919"><ele>1111.3999999999999</ele><time>2026-04-09T22:06:06.029Z</time></trkpt><trkpt lat="9.919648" lon="-84.1067694"><ele>1111.2</ele><time>2026-04-09T22:06:07.029Z</time></trkpt><trkpt lat="9.9195355" lon="-84.1067492"><ele>1111.0</ele><time>2026-04-09T22:06:08.029Z</time></trkpt><trkpt lat="9.9194229" lon="-84.1067282"><ele>1111.0</ele><time>2026-04-09T22:06:09.029Z</time></trkpt><trkpt lat="9.9193082" lon="-84.1067052"><ele>1111.0</ele><time>2026-04-09T22:06:10.029Z</time></trkpt><trkpt lat="9.9191893" lon="-84.1066838"><ele>1111.0</ele><time>2026-04-09T22:06:11.029Z</time></trkpt><trkpt lat="9.9190745" lon="-84.1066611"><ele>1111.0</ele><time>2026-04-09T22:06:12.029Z</time></trkpt><trkpt lat="9.9189597" lon="-84.1066387"><ele>1111.0</ele><time>2026-04-09T22:06:13.029Z</time></trkpt><trkpt lat="9.9188391" lon="-84.1066179"><ele>1111.0</ele><time>2026-04-09T22:06:14.029Z</time></trkpt><trkpt lat="9.9187157" lon="-84.1065925"><ele>1111.0</ele><time>2026-04-09T22:06:15.028Z</time></trkpt><trkpt lat="9.9185903" lon="-84.1065668"><ele>1111.0</ele><time>2026-04-09T22:06:16.029Z</time></trkpt><trkpt lat="9.9184688" lon="-84.1065448"><ele>1110.25</ele><time>2026-04-09T22:06:17.029Z</time></trkpt><trkpt lat="9.9183518" lon="-84.1065195"><ele>1109.5</ele><time>2026-04-09T22:06:18.029Z</time></trkpt><trkpt lat="9.9182308" lon="-84.1064985"><ele>1108.75</ele><time>2026-04-09T22:06:19.029Z</time></trkpt><trkpt lat="9.918107" lon="-84.1064771"><ele>1108.0</ele><time>2026-04-09T22:06:20.029Z</time></trkpt><trkpt lat="9.9179872" lon="-84.1064578"><ele>1108.0</ele><time>2026-04-09T22:06:21.028Z</time></trkpt><trkpt lat="9.9178727" lon="-84.1064361"><ele>1108.0</ele><time>2026-04-09T22:06:22.03Z</time></trkpt><trkpt lat="9.9177518" lon="-84.1064149"><ele>1108.0</ele><time>2026-04-09T22:06:23.03Z</time></trkpt><trkpt lat="9.9176284" lon="-84.106392"><ele>1108.0</ele><time>2026-04-09T22:06:24.028Z</time></trkpt><trkpt lat="9.9175008" lon="-84.1063675"><ele>1108.25</ele><time>2026-04-09T22:06:25.028Z</time></trkpt><trkpt lat="9.9173685" lon="-84.1063427"><ele>1108.5</ele><time>2026-04-09T22:06:26.029Z</time></trkpt><trkpt lat="9.9172406" lon="-84.1063187"><ele>1108.75</ele><time>2026-04-09T22:06:27.028Z</time></trkpt><trkpt lat="9.9171085" lon="-84.1062936"><ele>1109.0</ele><time>2026-04-09T22:06:28.028Z</time></trkpt><trkpt lat="9.9169706" lon="-84.1062644"><ele>1109.0</ele><time>2026-04-09T22:06:29.028Z</time></trkpt><trkpt lat="9.9168256" lon="-84.1062381"><ele>1109.0</ele><time>2026-04-09T22:06:30.029Z</time></trkpt><trkpt lat="9.9166657" lon="-84.1062079"><ele>1109.0</ele><time>2026-04-09T22:06:31.029Z</time></trkpt><trkpt lat="9.9164928" lon="-84.1061838"><ele>1109.6666666666667</ele><time>2026-04-09T22:06:32.029Z</time></trkpt><trkpt lat="9.9163079" lon="-84.1061621"><ele>1110.3333333333333</ele><time>2026-04-09T22:06:33.03Z</time></trkpt><trkpt lat="9.9161227" lon="-84.1061331"><ele>1111.0</ele><time>2026-04-09T22:06:34.03Z</time></trkpt><trkpt lat="9.9159404" lon="-84.1061004"><ele>1112.0</ele><time>2026-04-09T22:06:35.029Z</time></trkpt><trkpt lat="9.9157489" lon="-84.1060668"><ele>1113.0</ele><time>2026-04-09T22:06:36.029Z</time></trkpt><trkpt lat="9.9155528" lon="-84.1060352"><ele>1114.0</ele><time>2026-04-09T22:06:37.028Z</time></trkpt><trkpt lat="9.9153669" lon="-84.1060014"><ele>1114.0</ele><time>2026-04-09T22:06:38.029Z</time></trkpt><trkpt lat="9.9151849" lon="-84.1059679"><ele>1114.0</ele><time>2026-04-09T22:06:39.029Z</time></trkpt><trkpt lat="9.9150043" lon="-84.1059349"><ele>1114.0</ele><time>2026-04-09T22:06:40.03Z</time></trkpt><trkpt lat="9.9148314" lon="-84.1059037"><ele>1113.0</ele><time>2026-04-09T22:06:41.029Z</time></trkpt><trkpt lat="9.9146716" lon="-84.1058752"><ele>1112.0</ele><time>2026-04-09T22:06:42.029Z</time></trkpt><trkpt lat="9.914512" lon="-84.1058419"><ele>1111.0</ele><time>2026-04-09T22:06:43.029Z</time></trkpt><trkpt lat="9.9143548" lon="-84.1057965"><ele>1110.6666666666665</ele><time>2026-04-09T22:06:44.028Z</time></trkpt><trkpt lat="9.9141937" lon="-84.1057387"><ele>1110.3333333333333</ele><time>2026-04-09T22:06:45.029Z</time></trkpt><trkpt lat="9.9140459" lon="-84.105678"><ele>1110.0</ele><time>2026-04-09T22:06:46.028Z</time></trkpt><trkpt lat="9.9138996" lon="-84.1056053"><ele>1110.0</ele><time>2026-04-09T22:06:47.029Z</time></trkpt><trkpt lat="9.9137582" lon="-84.1055193"><ele>1110.0</ele><time>2026-04-09T22:06:48.029Z</time></trkpt><trkpt lat="9.9136164" lon="-84.1054209"><ele>1110.0</ele><time>2026-04-09T22:06:49.029Z</time></trkpt><trkpt lat="9.913478" lon="-84.1053098"><ele>1110.3333333333333</ele><time>2026-04-09T22:06:50.029Z</time></trkpt><trkpt lat="9.9133437" lon="-84.1051835"><ele>1110.6666666666665</ele><time>2026-04-09T22:06:51.028Z</time></trkpt><trkpt lat="9.913221" lon="-84.1050533"><ele>1111.0</ele><time>2026-04-09T22:06:52.029Z</time></trkpt><trkpt lat="9.913118" lon="-84.1049266"><ele>1111.0</ele><time>2026-04-09T22:06:53.029Z</time></trkpt><trkpt lat="9.913018" lon="-84.1047909"><ele>1111.0</ele><time>2026-04-09T22:06:54.029Z</time></trkpt><trkpt lat="9.9129328" lon="-84.1046413"><ele>1111.0</ele><time>2026-04-09T22:06:55.029Z</time></trkpt><trkpt lat="9.9128557" lon="-84.1044853"><ele>1111.0</ele><time>2026-04-09T22:06:56.028Z</time></trkpt><trkpt lat="9.9127804" lon="-84.1043204"><ele>1111.0</ele><time>2026-04-09T22:06:57.029Z</time></trkpt><trkpt lat="9.9127157" lon="-84.1041547"><ele>1111.0</ele><time>2026-04-09T22:06:58.028Z</time></trkpt><trkpt lat="9.9126667" lon="-84.1040114"><ele>1112.25</ele><time>2026-04-09T22:06:59.029Z</time></trkpt><trkpt lat="9.9126133" lon="-84.1038668"><ele>1113.5</ele><time>2026-04-09T22:07:00.029Z</time></trkpt><trkpt lat="9.9125652" lon="-84.1037235"><ele>1114.75</ele><time>2026-04-09T22:07:01.028Z</time></trkpt><trkpt lat="9.9125177" lon="-84.1035819"><ele>1116.0</ele><time>2026-04-09T22:07:02.03Z</time></trkpt><trkpt lat="9.9124652" lon="-84.1034388"><ele>1116.6666666666667</ele><time>2026-04-09T22:07:03.029Z</time></trkpt><trkpt lat="9.9124147" lon="-84.1032916"><ele>1117.3333333333335</ele><time>2026-04-09T22:07:04.029Z</time></trkpt><trkpt lat="9.9123634" lon="-84.1031443"><ele>1118.0</ele><time>2026-04-09T22:07:05.028Z</time></trkpt><trkpt lat="9.9123102" lon="-84.1029975"><ele>1119.3333333333335</ele><time>2026-04-09T22:07:06.028Z</time></trkpt><trkpt lat="9.9122582" lon="-84.1028475"><ele>1120.6666666666667</ele><time>2026-04-09T22:07:07.029Z</time></trkpt><trkpt lat="9.9122057" lon="-84.1026937"><ele>1122.0</ele><time>2026-04-09T22:07:08.029Z</time></trkpt><trkpt lat="9.9121506" lon="-84.1025392"><ele>1122.25</ele><time>2026-04-09T22:07:09.027Z</time></trkpt><trkpt lat="9.9120944" lon="-84.1023942"><ele>1122.5</ele><time>2026-04-09T22:07:10.029Z</time></trkpt><trkpt lat="9.9120375" lon="-84.1022583"><ele>1122.75</ele><time>2026-04-09T22:07:11.029Z</time></trkpt><trkpt lat="9.9119814" lon="-84.1021353"><ele>1123.0</ele><time>2026-04-09T22:07:12.028Z</time></trkpt><trkpt lat="9.911927" lon="-84.1020058"><ele>1123.0</ele><time>2026-04-09T22:07:13.029Z</time></trkpt><trkpt lat="9.9118804" lon="-84.1018872"><ele>1123.0</ele><time>2026-04-09T22:07:14.029Z</time></trkpt><trkpt lat="9.9118403" lon="-84.1017688"><ele>1123.0</ele><time>2026-04-09T22:07:15.029Z</time></trkpt><trkpt lat="9.9118008" lon="-84.1016613"><ele>1123.0</ele><time>2026-04-09T22:07:16.029Z</time></trkpt><trkpt lat="9.9117639" lon="-84.1015597"><ele>1122.6</ele><time>2026-04-09T22:07:17.028Z</time></trkpt><trkpt lat="9.9117302" lon="-84.1014619"><ele>1122.1999999999998</ele><time>2026-04-09T22:07:18.028Z</time></trkpt><trkpt lat="9.9116967" lon="-84.101372"><ele>1121.8</ele><time>2026-04-09T22:07:19.029Z</time></trkpt><trkpt lat="9.9116692" lon="-84.1012817"><ele>1121.3999999999999</ele><time>2026-04-09T22:07:20.028Z</time></trkpt><trkpt lat="9.9116371" lon="-84.1011971"><ele>1121.0</ele><time>2026-04-09T22:07:21.029Z</time></trkpt><trkpt lat="9.9116094" lon="-84.1011156"><ele>1121.0</ele><time>2026-04-09T22:07:22.029Z</time></trkpt><trkpt lat="9.9115801" lon="-84.1010272"><ele>1121.0</ele><time>2026-04-09T22:07:23.028Z</time></trkpt><trkpt lat="9.9115486" lon="-84.1009317"><ele>1121.0</ele><time>2026-04-09T22:07:24.029Z</time></trkpt><trkpt lat="9.91151" lon="-84.1008297"><ele>1121.0</ele><time>2026-04-09T22:07:25.03Z</time></trkpt><trkpt lat="9.9114753" lon="-84.1007258"><ele>1121.0</ele><time>2026-04-09T22:07:26.028Z</time></trkpt><trkpt lat="9.911436" lon="-84.1006234"><ele>1120.8</ele><time>2026-04-09T22:07:27.029Z</time></trkpt><trkpt lat="9.9114006" lon="-84.1005227"><ele>1120.6</ele><time>2026-04-09T22:07:28.029Z</time></trkpt><trkpt lat="9.9113649" lon="-84.1004227"><ele>1120.4</ele><time>2026-04-09T22:07:29.029Z</time></trkpt><trkpt lat="9.9113324" lon="-84.1003259"><ele>1120.2</ele><time>2026-04-09T22:07:30.029Z</time></trkpt><trkpt lat="9.9113014" lon="-84.100236"><ele>1120.0</ele><time>2026-04-09T22:07:31.029Z</time></trkpt><trkpt lat="9.9112743" lon="-84.1001507"><ele>1120.0</ele><time>2026-04-09T22:07:32.028Z</time></trkpt><trkpt lat="9.9112516" lon="-84.100069"><ele>1120.0</ele><time>2026-04-09T22:07:33.028Z</time></trkpt><trkpt lat="9.9112293" lon="-84.0999908"><ele>1120.0</ele><time>2026-04-09T22:07:34.028Z</time></trkpt><trkpt lat="9.9112065" lon="-84.099921"><ele>1120.0</ele><time>2026-04-09T22:07:35.028Z</time></trkpt><trkpt lat="9.9111852" lon="-84.0998591"><ele>1120.0</ele><time>2026-04-09T22:07:36.028Z</time></trkpt><trkpt lat="9.9111387" lon="-84.0997701"><ele>1120.0</ele><time>2026-04-09T22:07:38.029Z</time></trkpt><trkpt lat="9.9110832" lon="-84.0997155"><ele>1119.6666666666665</ele><time>2026-04-09T22:07:40.028Z</time></trkpt><trkpt lat="9.9109833" lon="-84.0996673"><ele>1119.3333333333333</ele><time>2026-04-09T22:07:42.029Z</time></trkpt><trkpt lat="9.9109253" lon="-84.0996341"><ele>1119.0</ele><time>2026-04-09T22:07:43.029Z</time></trkpt><trkpt lat="9.910869" lon="-84.0995891"><ele>1118.6666666666667</ele><time>2026-04-09T22:07:44.028Z</time></trkpt><trkpt lat="9.9108123" lon="-84.0995321"><ele>1118.3333333333335</ele><time>2026-04-09T22:07:45.029Z</time></trkpt><trkpt lat="9.9107578" lon="-84.0994646"><ele>1118.0</ele><time>2026-04-09T22:07:46.029Z</time></trkpt><trkpt lat="9.9106952" lon="-84.0993989"><ele>1118.0</ele><time>2026-04-09T22:07:47.029Z</time></trkpt><trkpt lat="9.9106254" lon="-84.0993421"><ele>1118.0</ele><time>2026-04-09T22:07:48.028Z</time></trkpt><trkpt lat="9.9105481" lon="-84.0993032"><ele>1118.0</ele><time>2026-04-09T22:07:49.029Z</time></trkpt><trkpt lat="9.9104656" lon="-84.0992949"><ele>1118.0</ele><time>2026-04-09T22:07:50.029Z</time></trkpt><trkpt lat="9.9103773" lon="-84.0992702"><ele>1118.0</ele><time>2026-04-09T22:07:51.029Z</time></trkpt><trkpt lat="9.9102817" lon="-84.0992505"><ele>1118.0</ele><time>2026-04-09T22:07:52.029Z</time></trkpt><trkpt lat="9.9101964" lon="-84.0992263"><ele>1118.0</ele><time>2026-04-09T22:07:53.029Z</time></trkpt><trkpt lat="9.9101221" lon="-84.0991982"><ele>1118.0</ele><time>2026-04-09T22:07:54.029Z</time></trkpt><trkpt lat="9.9100406" lon="-84.0991699"><ele>1118.0</ele><time>2026-04-09T22:07:55.029Z</time></trkpt><trkpt lat="9.9099721" lon="-84.0991478"><ele>1118.0</ele><time>2026-04-09T22:07:56.029Z</time></trkpt><trkpt lat="9.9098856" lon="-84.0991189"><ele>1118.0</ele><time>2026-04-09T22:07:58.027Z</time></trkpt><trkpt lat="9.909808" lon="-84.0990917"><ele>1118.0</ele><time>2026-04-09T22:08:02.029Z</time></trkpt><trkpt lat="9.9097258" lon="-84.0990523"><ele>1118.3333333333335</ele><time>2026-04-09T22:08:05.029Z</time></trkpt><trkpt lat="9.9096227" lon="-84.0989847"><ele>1118.6666666666667</ele><time>2026-04-09T22:08:07.029Z</time></trkpt><trkpt lat="9.9095521" lon="-84.0989406"><ele>1119.0</ele><time>2026-04-09T22:08:08.029Z</time></trkpt><trkpt lat="9.9094896" lon="-84.0988985"><ele>1119.3333333333333</ele><time>2026-04-09T22:08:09.027Z</time></trkpt><trkpt lat="9.9094197" lon="-84.09885"><ele>1119.6666666666665</ele><time>2026-04-09T22:08:10.028Z</time></trkpt><trkpt lat="9.9093528" lon="-84.0987991"><ele>1120.0</ele><time>2026-04-09T22:08:11.029Z</time></trkpt><trkpt lat="9.909281" lon="-84.0987478"><ele>1119.3333333333333</ele><time>2026-04-09T22:08:12.029Z</time></trkpt><trkpt lat="9.9092151" lon="-84.0987063"><ele>1118.6666666666665</ele><time>2026-04-09T22:08:13.029Z</time></trkpt><trkpt lat="9.9091481" lon="-84.0986625"><ele>1118.0</ele><time>2026-04-09T22:08:14.027Z</time></trkpt><trkpt lat="9.9090819" lon="-84.0986291"><ele>1117.3333333333333</ele><time>2026-04-09T22:08:15.028Z</time></trkpt><trkpt lat="9.9090125" lon="-84.0986041"><ele>1116.6666666666667</ele><time>2026-04-09T22:08:16.028Z</time></trkpt><trkpt lat="9.9089416" lon="-84.09859"><ele>1116.0</ele><time>2026-04-09T22:08:17.028Z</time></trkpt><trkpt lat="9.9088692" lon="-84.098578"><ele>1116.0</ele><time>2026-04-09T22:08:18.029Z</time></trkpt><trkpt lat="9.9087526" lon="-84.098604"><ele>1116.0</ele><time>2026-04-09T22:08:20.029Z</time></trkpt><trkpt lat="9.9086554" lon="-84.0986485"><ele>1116.0</ele><time>2026-04-09T22:08:22.028Z</time></trkpt><trkpt lat="9.9085839" lon="-84.0987053"><ele>1116.0</ele><time>2026-04-09T22:08:24.029Z</time></trkpt><trkpt lat="9.9085462" lon="-84.0987902"><ele>1116.0</ele><time>2026-04-09T22:08:26.029Z</time></trkpt><trkpt lat="9.9085198" lon="-84.0988829"><ele>1116.0</ele><time>2026-04-09T22:08:28.028Z</time></trkpt><trkpt lat="9.9085329" lon="-84.098993"><ele>1116.0</ele><time>2026-04-09T22:08:30.029Z</time></trkpt><trkpt lat="9.9085878" lon="-84.0991078"><ele>1116.0</ele><time>2026-04-09T22:08:32.029Z</time></trkpt><trkpt lat="9.9086595" lon="-84.0991982"><ele>1116.0</ele><time>2026-04-09T22:08:34.027Z</time></trkpt><trkpt lat="9.9087503" lon="-84.0992912"><ele>1115.6666666666667</ele><time>2026-04-09T22:08:36.029Z</time></trkpt><trkpt lat="9.9088031" lon="-84.0993463"><ele>1115.3333333333333</ele><time>2026-04-09T22:08:37.027Z</time></trkpt><trkpt lat="9.9088656" lon="-84.0994151"><ele>1115.0</ele><time>2026-04-09T22:08:38.029Z</time></trkpt><trkpt lat="9.9089008" lon="-84.0994904"><ele>1114.6666666666665</ele><time>2026-04-09T22:08:39.029Z</time></trkpt><trkpt lat="9.9089159" lon="-84.0995694"><ele>1114.3333333333333</ele><time>2026-04-09T22:08:40.028Z</time></trkpt><trkpt lat="9.90891" lon="-84.0996432"><ele>1114.0</ele><time>2026-04-09T22:08:41.029Z</time></trkpt><trkpt lat="9.9088942" lon="-84.0997207"><ele>1114.0</ele><time>2026-04-09T22:08:42.029Z</time></trkpt><trkpt lat="9.9088731" lon="-84.0998012"><ele>1114.0</ele><time>2026-04-09T22:08:43.028Z</time></trkpt><trkpt lat="9.9088483" lon="-84.0998753"><ele>1114.0</ele><time>2026-04-09T22:08:44.029Z</time></trkpt><trkpt lat="9.9088285" lon="-84.0999521"><ele>1114.0</ele><time>2026-04-09T22:08:45.029Z</time></trkpt><trkpt lat="9.9088034" lon="-84.1000282"><ele>1114.0</ele><time>2026-04-09T22:08:46.029Z</time></trkpt><trkpt lat="9.9087739" lon="-84.1001114"><ele>1114.0</ele><time>2026-04-09T22:08:47.028Z</time></trkpt><trkpt lat="9.9087342" lon="-84.1001967"><ele>1111.2</ele><time>2026-04-09T22:08:48.027Z</time></trkpt><trkpt lat="9.908695" lon="-84.1002823"><ele>1108.4</ele><time>2026-04-09T22:08:49.029Z</time></trkpt><trkpt lat="9.9086332" lon="-84.100355"><ele>1105.6</ele><time>2026-04-09T22:08:50.028Z</time></trkpt><trkpt lat="9.9085538" lon="-84.100414"><ele>1102.8</ele><time>2026-04-09T22:08:51.028Z</time></trkpt><trkpt lat="9.908466" lon="-84.10045"><ele>1100.0</ele><time>2026-04-09T22:08:52.027Z</time></trkpt><trkpt lat="9.9083862" lon="-84.1004717"><ele>1100.0</ele><time>2026-04-09T22:08:53.029Z</time></trkpt><trkpt lat="9.9083022" lon="-84.1004711"><ele>1100.0</ele><time>2026-04-09T22:08:54.029Z</time></trkpt><trkpt lat="9.9082173" lon="-84.1004238"><ele>1100.0</ele><time>2026-04-09T22:08:55.028Z</time></trkpt><trkpt lat="9.9081324" lon="-84.1003808"><ele>1100.0</ele><time>2026-04-09T22:08:56.028Z</time></trkpt><trkpt lat="9.9080485" lon="-84.1003307"><ele>1100.0</ele><time>2026-04-09T22:08:57.028Z</time></trkpt><trkpt lat="9.9079627" lon="-84.1002806"><ele>1100.0</ele><time>2026-04-09T22:08:58.029Z</time></trkpt><trkpt lat="9.9078699" lon="-84.1002243"><ele>1100.0</ele><time>2026-04-09T22:08:59.028Z</time></trkpt><trkpt lat="9.907787" lon="-84.1001646"><ele>1100.0</ele><time>2026-04-09T22:09:00.027Z</time></trkpt><trkpt lat="9.9076996" lon="-84.100102"><ele>1100.0</ele><time>2026-04-09T22:09:01.029Z</time></trkpt><trkpt lat="9.9076115" lon="-84.1000389"><ele>1100.0</ele><time>2026-04-09T22:09:02.029Z</time></trkpt><trkpt lat="9.9075333" lon="-84.099984"><ele>1100.857142857143</ele><time>2026-04-09T22:09:03.028Z</time></trkpt><trkpt lat="9.9074629" lon="-84.0999382"><ele>1101.7142857142858</ele><time>2026-04-09T22:09:04.028Z</time></trkpt><trkpt lat="9.9074024" lon="-84.0999005"><ele>1102.5714285714284</ele><time>2026-04-09T22:09:05.029Z</time></trkpt><trkpt lat="9.907339" lon="-84.0998622"><ele>1103.4285714285716</ele><time>2026-04-09T22:09:06.027Z</time></trkpt><trkpt lat="9.907283" lon="-84.099828"><ele>1104.2857142857142</ele><time>2026-04-09T22:09:07.028Z</time></trkpt><trkpt lat="9.907228" lon="-84.0997947"><ele>1105.142857142857</ele><time>2026-04-09T22:09:08.029Z</time></trkpt><trkpt lat="9.9071651" lon="-84.0997572"><ele>1106.0</ele><time>2026-04-09T22:09:09.029Z</time></trkpt><trkpt lat="9.9070999" lon="-84.099719"><ele>1106.0</ele><time>2026-04-09T22:09:10.028Z</time></trkpt><trkpt lat="9.9070357" lon="-84.0996794"><ele>1106.0</ele><time>2026-04-09T22:09:11.029Z</time></trkpt><trkpt lat="9.9069682" lon="-84.0996467"><ele>1106.0</ele><time>2026-04-09T22:09:12.028Z</time></trkpt><trkpt lat="9.9069103" lon="-84.0996206"><ele>1106.0</ele><time>2026-04-09T22:09:13.028Z</time></trkpt><trkpt lat="9.9068007" lon="-84.0995961"><ele>1106.0</ele><time>2026-04-09T22:09:15.028Z</time></trkpt><trkpt lat="9.9066846" lon="-84.0996119"><ele>1106.0</ele><time>2026-04-09T22:09:17.028Z</time></trkpt><trkpt lat="9.9065724" lon="-84.0996457"><ele>1107.8333333333335</ele><time>2026-04-09T22:09:19.029Z</time></trkpt><trkpt lat="9.9065173" lon="-84.0996927"><ele>1109.6666666666667</ele><time>2026-04-09T22:09:21.028Z</time></trkpt><trkpt lat="9.9064507" lon="-84.0997222"><ele>1111.5</ele><time>2026-04-09T22:09:25.029Z</time></trkpt><trkpt lat="9.9063849" lon="-84.0997813"><ele>1113.3333333333333</ele><time>2026-04-09T22:09:30.027Z</time></trkpt><trkpt lat="9.90631" lon="-84.0998661"><ele>1115.1666666666665</ele><time>2026-04-09T22:09:32.029Z</time></trkpt><trkpt lat="9.9062425" lon="-84.0999472"><ele>1117.0</ele><time>2026-04-09T22:09:34.029Z</time></trkpt><trkpt lat="9.9061877" lon="-84.1000077"><ele>1118.6666666666665</ele><time>2026-04-09T22:09:36.029Z</time></trkpt><trkpt lat="9.9061237" lon="-84.1000614"><ele>1120.3333333333333</ele><time>2026-04-09T22:09:38.029Z</time></trkpt><trkpt lat="9.9060534" lon="-84.1001055"><ele>1122.0</ele><time>2026-04-09T22:09:40.027Z</time></trkpt><trkpt lat="9.9059759" lon="-84.1001401"><ele>1123.6666666666667</ele><time>2026-04-09T22:09:42.028Z</time></trkpt><trkpt lat="9.9058981" lon="-84.1001739"><ele>1125.3333333333335</ele><time>2026-04-09T22:09:44.029Z</time></trkpt><trkpt lat="9.9058159" lon="-84.1001971"><ele>1127.0</ele><time>2026-04-09T22:09:46.028Z</time></trkpt><trkpt lat="9.9057291" lon="-84.1002169"><ele>1127.3333333333335</ele><time>2026-04-09T22:09:48.028Z</time></trkpt><trkpt lat="9.9056508" lon="-84.1002213"><ele>1127.6666666666667</ele><time>2026-04-09T22:09:50.028Z</time></trkpt><trkpt lat="9.9055653" lon="-84.1002093"><ele>1128.0</ele><time>2026-04-09T22:09:52.028Z</time></trkpt><trkpt lat="9.9054806" lon="-84.1001961"><ele>1128.3333333333333</ele><time>2026-04-09T22:09:54.027Z</time></trkpt><trkpt lat="9.9054004" lon="-84.1001821"><ele>1128.6666666666665</ele><time>2026-04-09T22:09:56.027Z</time></trkpt><trkpt lat="9.9053369" lon="-84.1001711"><ele>1129.0</ele><time>2026-04-09T22:09:59.028Z</time></trkpt><trkpt lat="9.9052558" lon="-84.1001551"><ele>1129.0</ele><time>2026-04-09T22:10:12.029Z</time></trkpt><trkpt lat="9.9051645" lon="-84.1001368"><ele>1129.0</ele><time>2026-04-09T22:10:15.028Z</time></trkpt><trkpt lat="9.9051022" lon="-84.1001251"><ele>1129.0</ele><time>2026-04-09T22:10:18.027Z</time></trkpt><trkpt lat="9.9050356" lon="-84.1001175"><ele>1129.0</ele><time>2026-04-09T22:10:25.027Z</time></trkpt><trkpt lat="9.905011" lon="-84.1000361"><ele>1129.0</ele><time>2026-04-09T22:10:32.028Z</time></trkpt><trkpt lat="9.9050226" lon="-84.0999042"><ele>1129.0</ele><time>2026-04-09T22:10:34.028Z</time></trkpt><trkpt lat="9.9050355" lon="-84.0998328"><ele>1128.6000000000001</ele><time>2026-04-09T22:10:35.028Z</time></trkpt><trkpt lat="9.9050426" lon="-84.0997664"><ele>1128.2</ele><time>2026-04-09T22:10:36.028Z</time></trkpt><trkpt lat="9.9050557" lon="-84.099683"><ele>1127.8000000000002</ele><time>2026-04-09T22:10:38.029Z</time></trkpt><trkpt lat="9.9050758" lon="-84.0996011"><ele>1127.4</ele><time>2026-04-09T22:10:40.028Z</time></trkpt><trkpt lat="9.9050875" lon="-84.0994821"><ele>1127.0</ele><time>2026-04-09T22:10:42.028Z</time></trkpt><trkpt lat="9.9051009" lon="-84.0993577"><ele>1127.0</ele><time>2026-04-09T22:10:44.028Z</time></trkpt><trkpt lat="9.9050533" lon="-84.0992809"><ele>1127.0</ele><time>2026-04-09T22:10:46.028Z</time></trkpt><trkpt lat="9.9049381" lon="-84.0992525"><ele>1127.0</ele><time>2026-04-09T22:10:48.028Z</time></trkpt><trkpt lat="9.9048645" lon="-84.0992379"><ele>1127.0</ele><time>2026-04-09T22:10:49.029Z</time></trkpt><trkpt lat="9.9047947" lon="-84.0992176"><ele>1127.0</ele><time>2026-04-09T22:10:50.028Z</time></trkpt><trkpt lat="9.9047317" lon="-84.0991998"><ele>1127.0</ele><time>2026-04-09T22:10:51.028Z</time></trkpt><trkpt lat="9.9046331" lon="-84.0991582"><ele>1125.0</ele><time>2026-04-09T22:10:53.027Z</time></trkpt><trkpt lat="9.9045708" lon="-84.0990671"><ele>1123.0</ele><time>2026-04-09T22:10:55.029Z</time></trkpt><trkpt lat="9.9045373" lon="-84.0989899"><ele>1121.0</ele><time>2026-04-09T22:10:56.028Z</time></trkpt><trkpt lat="9.9045029" lon="-84.0989188"><ele>1119.0</ele><time>2026-04-09T22:10:57.028Z</time></trkpt><trkpt lat="9.904464" lon="-84.0988438"><ele>1117.0</ele><time>2026-04-09T22:10:58.028Z</time></trkpt><trkpt lat="9.9044311" lon="-84.0987712"><ele>1115.0</ele><time>2026-04-09T22:10:59.028Z</time></trkpt><trkpt lat="9.904397" lon="-84.0987035"><ele>1115.0</ele><time>2026-04-09T22:11:00.029Z</time></trkpt><trkpt lat="9.9043489" lon="-84.0985997"><ele>1115.0</ele><time>2026-04-09T22:11:02.028Z</time></trkpt><trkpt lat="9.9043155" lon="-84.0985335"><ele>1115.0</ele><time>2026-04-09T22:11:04.028Z</time></trkpt><trkpt lat="9.9042859" lon="-84.0984688"><ele>1115.0</ele><time>2026-04-09T22:11:06.027Z</time></trkpt><trkpt lat="9.9042589" lon="-84.0984011"><ele>1115.0</ele><time>2026-04-09T22:11:07.028Z</time></trkpt><trkpt lat="9.9042468" lon="-84.0983348"><ele>1115.0</ele><time>2026-04-09T22:11:08.029Z</time></trkpt><trkpt lat="9.9042204" lon="-84.0982362"><ele>1115.6666666666667</ele><time>2026-04-09T22:11:10.029Z</time></trkpt><trkpt lat="9.9042018" lon="-84.0981749"><ele>1116.3333333333335</ele><time>2026-04-09T22:11:12.028Z</time></trkpt><trkpt lat="9.9041723" lon="-84.0980867"><ele>1117.0</ele><time>2026-04-09T22:11:14.029Z</time></trkpt><trkpt lat="9.9041329" lon="-84.098019"><ele>1117.6666666666667</ele><time>2026-04-09T22:11:15.027Z</time></trkpt><trkpt lat="9.9040885" lon="-84.0979531"><ele>1118.3333333333333</ele><time>2026-04-09T22:11:16.028Z</time></trkpt><trkpt lat="9.9040409" lon="-84.0978984"><ele>1119.0</ele><time>2026-04-09T22:11:17.029Z</time></trkpt><trkpt lat="9.9039909" lon="-84.0978406"><ele>1119.0</ele><time>2026-04-09T22:11:18.028Z</time></trkpt><trkpt lat="9.9039428" lon="-84.0977916"><ele>1119.0</ele><time>2026-04-09T22:11:19.028Z</time></trkpt><trkpt lat="9.9038955" lon="-84.0977431"><ele>1119.0</ele><time>2026-04-09T22:11:20.028Z</time></trkpt><trkpt lat="9.9038224" lon="-84.0976743"><ele>1119.0</ele><time>2026-04-09T22:11:22.028Z</time></trkpt><trkpt lat="9.9037632" lon="-84.0976303"><ele>1119.0</ele><time>2026-04-09T22:11:25.029Z</time></trkpt><trkpt lat="9.9037099" lon="-84.09756"><ele>1119.0</ele><time>2026-04-09T22:11:29.028Z</time></trkpt><trkpt lat="9.9036635" lon="-84.0974515"><ele>1116.857142857143</ele><time>2026-04-09T22:11:31.028Z</time></trkpt><trkpt lat="9.9036319" lon="-84.0973897"><ele>1114.7142857142858</ele><time>2026-04-09T22:11:32.028Z</time></trkpt><trkpt lat="9.9036054" lon="-84.0973204"><ele>1112.5714285714287</ele><time>2026-04-09T22:11:33.029Z</time></trkpt><trkpt lat="9.9035803" lon="-84.0972496"><ele>1110.4285714285716</ele><time>2026-04-09T22:11:34.028Z</time></trkpt><trkpt lat="9.9035595" lon="-84.0971864"><ele>1108.2857142857144</ele><time>2026-04-09T22:11:35.029Z</time></trkpt><trkpt lat="9.9035258" lon="-84.0971257"><ele>1106.142857142857</ele><time>2026-04-09T22:11:36.029Z</time></trkpt><trkpt lat="9.903493" lon="-84.0970617"><ele>1104.0</ele><time>2026-04-09T22:11:37.029Z</time></trkpt><trkpt lat="9.9034628" lon="-84.0970022"><ele>1104.0</ele><time>2026-04-09T22:11:38.028Z</time></trkpt><trkpt lat="9.90343" lon="-84.0969419"><ele>1104.0</ele><time>2026-04-09T22:11:39.028Z</time></trkpt><trkpt lat="9.9034012" lon="-84.0968816"><ele>1104.0</ele><time>2026-04-09T22:11:40.028Z</time></trkpt><trkpt lat="9.9033644" lon="-84.0968292"><ele>1104.0</ele><time>2026-04-09T22:11:41.028Z</time></trkpt><trkpt lat="9.9033096" lon="-84.0967315"><ele>1104.0</ele><time>2026-04-09T22:11:43.028Z</time></trkpt><trkpt lat="9.9032512" lon="-84.096635"><ele>1104.0</ele><time>2026-04-09T22:11:45.028Z</time></trkpt><trkpt lat="9.9031925" lon="-84.0965427"><ele>1104.0</ele><time>2026-04-09T22:11:47.028Z</time></trkpt><trkpt lat="9.9031462" lon="-84.096447"><ele>1104.0</ele><time>2026-04-09T22:11:49.027Z</time></trkpt><trkpt lat="9.9030935" lon="-84.0963727"><ele>1104.0</ele><time>2026-04-09T22:11:51.029Z</time></trkpt><trkpt lat="9.903053" lon="-84.0963189"><ele>1104.0</ele><time>2026-04-09T22:11:54.028Z</time></trkpt><trkpt lat="9.9030138" lon="-84.0962657"><ele>1104.0</ele><time>2026-04-09T22:11:56.028Z</time></trkpt><trkpt lat="9.9029728" lon="-84.096211"><ele>1104.0</ele><time>2026-04-09T22:11:57.028Z</time></trkpt><trkpt lat="9.9029341" lon="-84.0961599"><ele>1104.0</ele><time>2026-04-09T22:11:58.029Z</time></trkpt><trkpt lat="9.9028671" lon="-84.0960624"><ele>1104.0</ele><time>2026-04-09T22:12:00.027Z</time></trkpt><trkpt lat="9.9028282" lon="-84.0960019"><ele>1104.0</ele><time>2026-04-09T22:12:01.028Z</time></trkpt><trkpt lat="9.9027848" lon="-84.095944"><ele>1104.0</ele><time>2026-04-09T22:12:02.027Z</time></trkpt><trkpt lat="9.9027438" lon="-84.0958846"><ele>1104.0</ele><time>2026-04-09T22:12:03.028Z</time></trkpt><trkpt lat="9.9027037" lon="-84.0958273"><ele>1104.0</ele><time>2026-04-09T22:12:04.029Z</time></trkpt><trkpt lat="9.9026589" lon="-84.0957699"><ele>1104.3333333333333</ele><time>2026-04-09T22:12:05.028Z</time></trkpt><trkpt lat="9.9026137" lon="-84.0957149"><ele>1104.6666666666667</ele><time>2026-04-09T22:12:06.029Z</time></trkpt><trkpt lat="9.9025755" lon="-84.0956635"><ele>1105.0</ele><time>2026-04-09T22:12:07.028Z</time></trkpt><trkpt lat="9.902491" lon="-84.0955626"><ele>1105.3333333333335</ele><time>2026-04-09T22:12:09.028Z</time></trkpt><trkpt lat="9.9024401" lon="-84.0955128"><ele>1105.6666666666667</ele><time>2026-04-09T22:12:10.028Z</time></trkpt><trkpt lat="9.9023895" lon="-84.0954715"><ele>1106.0</ele><time>2026-04-09T22:12:11.027Z</time></trkpt><trkpt lat="9.9023338" lon="-84.0954318"><ele>1106.0</ele><time>2026-04-09T22:12:12.028Z</time></trkpt><trkpt lat="9.9022788" lon="-84.0953858"><ele>1106.0</ele><time>2026-04-09T22:12:13.028Z</time></trkpt><trkpt lat="9.9022127" lon="-84.095343"><ele>1106.0</ele><time>2026-04-09T22:12:14.028Z</time></trkpt><trkpt lat="9.9021573" lon="-84.0953022"><ele>1106.0</ele><time>2026-04-09T22:12:15.028Z</time></trkpt><trkpt lat="9.9020972" lon="-84.095264"><ele>1106.0</ele><time>2026-04-09T22:12:16.028Z</time></trkpt><trkpt lat="9.9020339" lon="-84.0952342"><ele>1106.0</ele><time>2026-04-09T22:12:17.028Z</time></trkpt><trkpt lat="9.9019605" lon="-84.0952027"><ele>1106.0</ele><time>2026-04-09T22:12:18.028Z</time></trkpt><trkpt lat="9.9018939" lon="-84.0951755"><ele>1106.0</ele><time>2026-04-09T22:12:19.028Z</time></trkpt><trkpt lat="9.9018201" lon="-84.095148"><ele>1106.0</ele><time>2026-04-09T22:12:20.029Z</time></trkpt><trkpt lat="9.9017357" lon="-84.0951312"><ele>1106.0</ele><time>2026-04-09T22:12:21.028Z</time></trkpt><trkpt lat="9.901646" lon="-84.0951097"><ele>1106.0</ele><time>2026-04-09T22:12:22.028Z</time></trkpt><trkpt lat="9.9015633" lon="-84.0950797"><ele>1106.0</ele><time>2026-04-09T22:12:23.028Z</time></trkpt><trkpt lat="9.9014818" lon="-84.0950486"><ele>1106.0</ele><time>2026-04-09T22:12:24.029Z</time></trkpt><trkpt lat="9.9014118" lon="-84.0950176"><ele>1107.1666666666667</ele><time>2026-04-09T22:12:25.028Z</time></trkpt><trkpt lat="9.9013352" lon="-84.0949861"><ele>1108.3333333333335</ele><time>2026-04-09T22:12:26.028Z</time></trkpt><trkpt lat="9.9012567" lon="-84.0949604"><ele>1109.5</ele><time>2026-04-09T22:12:27.027Z</time></trkpt><trkpt lat="9.9011843" lon="-84.0949409"><ele>1110.6666666666667</ele><time>2026-04-09T22:12:28.028Z</time></trkpt><trkpt lat="9.9011123" lon="-84.0949339"><ele>1111.8333333333333</ele><time>2026-04-09T22:12:29.027Z</time></trkpt><trkpt lat="9.9010387" lon="-84.0949279"><ele>1113.0</ele><time>2026-04-09T22:12:30.027Z</time></trkpt><trkpt lat="9.9009175" lon="-84.0949257"><ele>1113.0</ele><time>2026-04-09T22:12:32.028Z</time></trkpt><trkpt lat="9.9008121" lon="-84.0949207"><ele>1113.0</ele><time>2026-04-09T22:12:34.027Z</time></trkpt><trkpt lat="9.9007202" lon="-84.09492"><ele>1113.0</ele><time>2026-04-09T22:12:36.028Z</time></trkpt><trkpt lat="9.9006524" lon="-84.0949283"><ele>1113.0</ele><time>2026-04-09T22:12:38.029Z</time></trkpt><trkpt lat="9.9005755" lon="-84.0949272"><ele>1113.0</ele><time>2026-04-09T22:12:49.028Z</time></trkpt><trkpt lat="9.9005087" lon="-84.0949286"><ele>1113.0</ele><time>2026-04-09T22:13:31.027Z</time></trkpt><trkpt lat="9.9004508" lon="-84.0948682"><ele>1113.0</ele><time>2026-04-09T22:13:33.028Z</time></trkpt><trkpt lat="9.9004088" lon="-84.094801"><ele>1113.0</ele><time>2026-04-09T22:13:34.028Z</time></trkpt><trkpt lat="9.9003633" lon="-84.0947186"><ele>1113.0</ele><time>2026-04-09T22:13:35.028Z</time></trkpt><trkpt lat="9.900314" lon="-84.0946291"><ele>1113.0</ele><time>2026-04-09T22:13:36.027Z</time></trkpt><trkpt lat="9.9002558" lon="-84.0945101"><ele>1113.0</ele><time>2026-04-09T22:13:37.028Z</time></trkpt><trkpt lat="9.900199" lon="-84.0944032"><ele>1113.0</ele><time>2026-04-09T22:13:38.028Z</time></trkpt><trkpt lat="9.900137" lon="-84.094302"><ele>1113.0</ele><time>2026-04-09T22:13:39.027Z</time></trkpt><trkpt lat="9.9000748" lon="-84.0942059"><ele>1113.0</ele><time>2026-04-09T22:13:40.028Z</time></trkpt><trkpt lat="9.9000126" lon="-84.0941239"><ele>1113.0</ele><time>2026-04-09T22:13:41.027Z</time></trkpt><trkpt lat="9.8999471" lon="-84.0940554"><ele>1113.0</ele><time>2026-04-09T22:13:42.028Z</time></trkpt><trkpt lat="9.8998704" lon="-84.0939972"><ele>1113.0</ele><time>2026-04-09T22:13:43.026Z</time></trkpt><trkpt lat="9.8997985" lon="-84.0939539"><ele>1113.0</ele><time>2026-04-09T22:13:44.027Z</time></trkpt><trkpt lat="9.8997287" lon="-84.093924"><ele>1113.0</ele><time>2026-04-09T22:13:45.027Z</time></trkpt><trkpt lat="9.8996651" lon="-84.0938958"><ele>1113.0</ele><time>2026-04-09T22:13:46.027Z</time></trkpt><trkpt lat="9.8996058" lon="-84.0938726"><ele>1113.0</ele><time>2026-04-09T22:13:47.028Z</time></trkpt><trkpt lat="9.8995333" lon="-84.0938463"><ele>1113.0</ele><time>2026-04-09T22:13:49.028Z</time></trkpt><trkpt lat="9.8994647" lon="-84.0938212"><ele>1113.0</ele><time>2026-04-09T22:13:51.027Z</time></trkpt><trkpt lat="9.8993908" lon="-84.0937942"><ele>1113.0</ele><time>2026-04-09T22:13:53.028Z</time></trkpt><trkpt lat="9.8993277" lon="-84.0937587"><ele>1113.0</ele><time>2026-04-09T22:13:56.027Z</time></trkpt><trkpt lat="9.8992562" lon="-84.0937281"><ele>1113.0</ele><time>2026-04-09T22:14:00.028Z</time></trkpt><trkpt lat="9.8991999" lon="-84.0936993"><ele>1113.0</ele><time>2026-04-09T22:14:03.028Z</time></trkpt><trkpt lat="9.8991236" lon="-84.0936639"><ele>1113.0</ele><time>2026-04-09T22:14:06.028Z</time></trkpt><trkpt lat="9.8990658" lon="-84.0936287"><ele>1113.0</ele><time>2026-04-09T22:14:09.027Z</time></trkpt><trkpt lat="9.8989995" lon="-84.0935878"><ele>1113.0</ele><time>2026-04-09T22:14:15.025Z</time></trkpt><trkpt lat="9.8989424" lon="-84.0935439"><ele>1113.2</ele><time>2026-04-09T22:14:19.028Z</time></trkpt><trkpt lat="9.8988535" lon="-84.0934682"><ele>1113.4</ele><time>2026-04-09T22:14:22.028Z</time></trkpt><trkpt lat="9.8987699" lon="-84.0934004"><ele>1113.6000000000001</ele><time>2026-04-09T22:14:24.027Z</time></trkpt><trkpt lat="9.8986861" lon="-84.0933331"><ele>1113.8</ele><time>2026-04-09T22:14:26.027Z</time></trkpt><trkpt lat="9.8986251" lon="-84.093263"><ele>1114.0</ele><time>2026-04-09T22:14:28.028Z</time></trkpt><trkpt lat="9.8985744" lon="-84.0932219"><ele>1114.0</ele><time>2026-04-09T22:14:29.027Z</time></trkpt><trkpt lat="9.8984925" lon="-84.0931483"><ele>1114.0</ele><time>2026-04-09T22:14:31.028Z</time></trkpt><trkpt lat="9.8984252" lon="-84.0930897"><ele>1114.0</ele><time>2026-04-09T22:14:33.028Z</time></trkpt><trkpt lat="9.898381" lon="-84.0930385"><ele>1114.0</ele><time>2026-04-09T22:14:37.028Z</time></trkpt><trkpt lat="9.8983192" lon="-84.0929813"><ele>1114.0</ele><time>2026-04-09T22:14:42.028Z</time></trkpt><trkpt lat="9.8982676" lon="-84.0929359"><ele>1114.0</ele><time>2026-04-09T22:14:44.028Z</time></trkpt><trkpt lat="9.8982034" lon="-84.0928642"><ele>1114.1666666666665</ele><time>2026-04-09T22:14:47.028Z</time></trkpt><trkpt lat="9.8981439" lon="-84.0928105"><ele>1114.3333333333333</ele><time>2026-04-09T22:14:49.025Z</time></trkpt><trkpt lat="9.8980718" lon="-84.0927464"><ele>1114.5</ele><time>2026-04-09T22:14:51.028Z</time></trkpt><trkpt lat="9.8980082" lon="-84.0926943"><ele>1114.6666666666667</ele><time>2026-04-09T22:14:53.027Z</time></trkpt><trkpt lat="9.8979561" lon="-84.0926429"><ele>1114.8333333333335</ele><time>2026-04-09T22:14:56.027Z</time></trkpt><trkpt lat="9.8978909" lon="-84.092571"><ele>1115.0</ele><time>2026-04-09T22:15:09.028Z</time></trkpt><trkpt lat="9.8978451" lon="-84.0925164"><ele>1115.0</ele><time>2026-04-09T22:15:11.027Z</time></trkpt><trkpt lat="9.8978024" lon="-84.0924558"><ele>1115.0</ele><time>2026-04-09T22:15:14.028Z</time></trkpt><trkpt lat="9.8977653" lon="-84.0924024"><ele>1115.0</ele><time>2026-04-09T22:15:18.028Z</time></trkpt><trkpt lat="9.8977571" lon="-84.0923233"><ele>1115.0</ele><time>2026-04-09T22:15:21.028Z</time></trkpt><trkpt lat="9.8978066" lon="-84.0922763"><ele>1115.0</ele><time>2026-04-09T22:15:23.027Z</time></trkpt><trkpt lat="9.8978767" lon="-84.0922298"><ele>1115.0</ele><time>2026-04-09T22:15:25.027Z</time></trkpt><trkpt lat="9.8979632" lon="-84.0922071"><ele>1115.0</ele><time>2026-04-09T22:15:27.028Z</time></trkpt><trkpt lat="9.8980539" lon="-84.0921806"><ele>1115.0</ele><time>2026-04-09T22:15:29.027Z</time></trkpt><trkpt lat="9.8981488" lon="-84.0921689"><ele>1115.0</ele><time>2026-04-09T22:15:31.028Z</time></trkpt><trkpt lat="9.8982587" lon="-84.0921617"><ele>1115.0</ele><time>2026-04-09T22:15:33.027Z</time></trkpt><trkpt lat="9.8983531" lon="-84.0921568"><ele>1115.0</ele><time>2026-04-09T22:15:35.027Z</time></trkpt><trkpt lat="9.8984377" lon="-84.092155"><ele>1114.8333333333335</ele><time>2026-04-09T22:15:37.028Z</time></trkpt><trkpt lat="9.8985209" lon="-84.0921519"><ele>1114.6666666666667</ele><time>2026-04-09T22:15:39.026Z</time></trkpt><trkpt lat="9.8986051" lon="-84.0921535"><ele>1114.5</ele><time>2026-04-09T22:15:41.028Z</time></trkpt><trkpt lat="9.8986915" lon="-84.0921577"><ele>1114.3333333333333</ele><time>2026-04-09T22:15:43.026Z</time></trkpt><trkpt lat="9.8987765" lon="-84.0921616"><ele>1114.1666666666665</ele><time>2026-04-09T22:15:45.028Z</time></trkpt><trkpt lat="9.8988612" lon="-84.0921735"><ele>1114.0</ele><time>2026-04-09T22:15:47.026Z</time></trkpt><trkpt lat="9.898937" lon="-84.0921757"><ele>1114.0</ele><time>2026-04-09T22:15:49.027Z</time></trkpt><trkpt lat="9.8990042" lon="-84.0921624"><ele>1114.0</ele><time>2026-04-09T22:15:51.028Z</time></trkpt><trkpt lat="9.8990465" lon="-84.0921123"><ele>1114.0</ele><time>2026-04-09T22:15:53.027Z</time></trkpt><trkpt lat="9.8990662" lon="-84.0920507"><ele>1114.0</ele><time>2026-04-09T22:15:55.028Z</time></trkpt><trkpt lat="9.8990854" lon="-84.0919544"><ele>1114.0</ele><time>2026-04-09T22:15:58.027Z</time></trkpt><trkpt lat="9.8991233" lon="-84.0918944"><ele>1114.0</ele><time>2026-04-09T22:16:00.027Z</time></trkpt><trkpt lat="9.8991837" lon="-84.0918629"><ele>1114.0</ele><time>2026-04-09T22:16:02.027Z</time></trkpt><trkpt lat="9.8992549" lon="-84.0918506"><ele>1111.0</ele><time>2026-04-09T22:16:04.028Z</time></trkpt><trkpt lat="9.8993224" lon="-84.0918423"><ele>1111.0</ele><time>2026-04-09T22:16:07.028Z</time></trkpt></trkseg></trk></gpx>